<?xml version="1.0" encoding="UTF-8" standalone="no" ?>
<gpx xmlns="http://www.topografix.com/GPX/1/1" xmlns:xsi="http://www.w3.org/2001/XMLSchema-instance" xsi:schemaLocation="http://www.topografix.com/GPX/1/1 http://www.topografix.com/GPX/1/1/gpx.xsd" version="1.1" creator="VisuGPX - https://www.visugpx.com">
  <metadata>
    <name>Bois d\'Arcy</name>
    <desc><![CDATA[AVF Antony JP Brethes Bois d\'Arcy]]></desc>
  </metadata>
  <trk>
    <name><![CDATA[26 juil. 2014 10:50:40]]></name>
    <cmt><![CDATA[26 juil. 2014 10:50:40]]></cmt>
    <trkseg>
      <trkpt lat="48.81249" lon="1.96082">
        <ele>117</ele>
        <time>2014-07-26T08:50:48Z</time>
      </trkpt>
      <trkpt lat="48.81246" lon="1.96077">
        <ele>118</ele>
        <time>2014-07-26T08:50:52Z</time>
      </trkpt>
      <trkpt lat="48.81241" lon="1.96078">
        <ele>120</ele>
        <time>2014-07-26T08:50:56Z</time>
      </trkpt>
      <trkpt lat="48.81238" lon="1.96085">
        <ele>122</ele>
        <time>2014-07-26T08:51:00Z</time>
      </trkpt>
      <trkpt lat="48.81236" lon="1.96092">
        <ele>123</ele>
        <time>2014-07-26T08:51:06Z</time>
      </trkpt>
      <trkpt lat="48.81232" lon="1.96093">
        <ele>123</ele>
        <time>2014-07-26T08:51:12Z</time>
      </trkpt>
      <trkpt lat="48.81216" lon="1.96094">
        <ele>123</ele>
        <time>2014-07-26T08:51:25Z</time>
      </trkpt>
      <trkpt lat="48.8121" lon="1.96095">
        <ele>123</ele>
        <time>2014-07-26T08:51:29Z</time>
      </trkpt>
      <trkpt lat="48.81206" lon="1.96097">
        <ele>121</ele>
        <time>2014-07-26T08:51:34Z</time>
      </trkpt>
      <trkpt lat="48.81203" lon="1.96102">
        <ele>120</ele>
        <time>2014-07-26T08:51:39Z</time>
      </trkpt>
      <trkpt lat="48.81197" lon="1.96104">
        <ele>120</ele>
        <time>2014-07-26T08:51:43Z</time>
      </trkpt>
      <trkpt lat="48.81196" lon="1.96112">
        <ele>118</ele>
        <time>2014-07-26T08:51:47Z</time>
      </trkpt>
      <trkpt lat="48.81192" lon="1.96115">
        <ele>117</ele>
        <time>2014-07-26T08:51:50Z</time>
      </trkpt>
      <trkpt lat="48.81187" lon="1.96117">
        <ele>117</ele>
        <time>2014-07-26T08:51:53Z</time>
      </trkpt>
      <trkpt lat="48.81182" lon="1.96118">
        <ele>117</ele>
        <time>2014-07-26T08:51:59Z</time>
      </trkpt>
      <trkpt lat="48.81151" lon="1.96114">
        <ele>115</ele>
        <time>2014-07-26T08:52:30Z</time>
      </trkpt>
      <trkpt lat="48.81144" lon="1.96115">
        <ele>115</ele>
        <time>2014-07-26T08:52:35Z</time>
      </trkpt>
      <trkpt lat="48.8113" lon="1.96113">
        <ele>117</ele>
        <time>2014-07-26T08:52:48Z</time>
      </trkpt>
      <trkpt lat="48.81128" lon="1.96114">
        <ele>120</ele>
        <time>2014-07-26T08:53:05Z</time>
      </trkpt>
      <trkpt lat="48.81126" lon="1.96107">
        <ele>121</ele>
        <time>2014-07-26T08:53:10Z</time>
      </trkpt>
      <trkpt lat="48.81121" lon="1.96106">
        <ele>121</ele>
        <time>2014-07-26T08:53:14Z</time>
      </trkpt>
      <trkpt lat="48.81111" lon="1.96108">
        <ele>122</ele>
        <time>2014-07-26T08:53:22Z</time>
      </trkpt>
      <trkpt lat="48.81107" lon="1.96107">
        <ele>124</ele>
        <time>2014-07-26T08:53:27Z</time>
      </trkpt>
      <trkpt lat="48.81102" lon="1.96103">
        <ele>124</ele>
        <time>2014-07-26T08:53:31Z</time>
      </trkpt>
      <trkpt lat="48.81096" lon="1.96104">
        <ele>124</ele>
        <time>2014-07-26T08:53:35Z</time>
      </trkpt>
      <trkpt lat="48.8107" lon="1.96106">
        <ele>129</ele>
        <time>2014-07-26T08:53:54Z</time>
      </trkpt>
      <trkpt lat="48.81066" lon="1.96101">
        <ele>130</ele>
        <time>2014-07-26T08:54:02Z</time>
      </trkpt>
      <trkpt lat="48.81056" lon="1.96098">
        <ele>130</ele>
        <time>2014-07-26T08:54:10Z</time>
      </trkpt>
      <trkpt lat="48.81051" lon="1.96099">
        <ele>130</ele>
        <time>2014-07-26T08:54:14Z</time>
      </trkpt>
      <trkpt lat="48.81048" lon="1.96105">
        <ele>130</ele>
        <time>2014-07-26T08:54:18Z</time>
      </trkpt>
      <trkpt lat="48.81049" lon="1.96112">
        <ele>129</ele>
        <time>2014-07-26T08:54:20Z</time>
      </trkpt>
      <trkpt lat="48.81049" lon="1.96121">
        <ele>129</ele>
        <time>2014-07-26T08:54:23Z</time>
      </trkpt>
      <trkpt lat="48.81048" lon="1.96128">
        <ele>129</ele>
        <time>2014-07-26T08:54:26Z</time>
      </trkpt>
      <trkpt lat="48.81047" lon="1.96143">
        <ele>129</ele>
        <time>2014-07-26T08:54:34Z</time>
      </trkpt>
      <trkpt lat="48.81049" lon="1.96149">
        <ele>129</ele>
        <time>2014-07-26T08:54:40Z</time>
      </trkpt>
      <trkpt lat="48.81048" lon="1.96156">
        <ele>130</ele>
        <time>2014-07-26T08:54:44Z</time>
      </trkpt>
      <trkpt lat="48.81041" lon="1.96167">
        <ele>132</ele>
        <time>2014-07-26T08:54:53Z</time>
      </trkpt>
      <trkpt lat="48.81038" lon="1.96166">
        <ele>133</ele>
        <time>2014-07-26T08:55:01Z</time>
      </trkpt>
      <trkpt lat="48.81039" lon="1.96173">
        <ele>134</ele>
        <time>2014-07-26T08:55:09Z</time>
      </trkpt>
      <trkpt lat="48.81037" lon="1.9618">
        <ele>134</ele>
        <time>2014-07-26T08:55:13Z</time>
      </trkpt>
      <trkpt lat="48.81034" lon="1.96186">
        <ele>135</ele>
        <time>2014-07-26T08:55:20Z</time>
      </trkpt>
      <trkpt lat="48.8103" lon="1.96192">
        <ele>134</ele>
        <time>2014-07-26T08:55:24Z</time>
      </trkpt>
      <trkpt lat="48.81028" lon="1.96201">
        <ele>133</ele>
        <time>2014-07-26T08:55:27Z</time>
      </trkpt>
      <trkpt lat="48.81032" lon="1.9623">
        <ele>128</ele>
        <time>2014-07-26T08:55:45Z</time>
      </trkpt>
      <trkpt lat="48.81029" lon="1.96237">
        <ele>127</ele>
        <time>2014-07-26T08:55:50Z</time>
      </trkpt>
      <trkpt lat="48.81028" lon="1.96244">
        <ele>126</ele>
        <time>2014-07-26T08:55:57Z</time>
      </trkpt>
      <trkpt lat="48.81025" lon="1.96247">
        <ele>127</ele>
        <time>2014-07-26T08:56:09Z</time>
      </trkpt>
      <trkpt lat="48.81023" lon="1.96253">
        <ele>126</ele>
        <time>2014-07-26T08:56:15Z</time>
      </trkpt>
      <trkpt lat="48.81022" lon="1.96256">
        <ele>126</ele>
        <time>2014-07-26T08:56:21Z</time>
      </trkpt>
      <trkpt lat="48.81019" lon="1.96262">
        <ele>127</ele>
        <time>2014-07-26T08:56:24Z</time>
      </trkpt>
      <trkpt lat="48.81017" lon="1.96264">
        <ele>127</ele>
        <time>2014-07-26T08:56:30Z</time>
      </trkpt>
      <trkpt lat="48.81014" lon="1.96267">
        <ele>125</ele>
        <time>2014-07-26T08:57:06Z</time>
      </trkpt>
      <trkpt lat="48.81011" lon="1.96273">
        <ele>125</ele>
        <time>2014-07-26T08:57:11Z</time>
      </trkpt>
      <trkpt lat="48.81011" lon="1.9628">
        <ele>125</ele>
        <time>2014-07-26T08:57:16Z</time>
      </trkpt>
      <trkpt lat="48.81017" lon="1.96293">
        <ele>125</ele>
        <time>2014-07-26T08:57:22Z</time>
      </trkpt>
      <trkpt lat="48.81021" lon="1.96299">
        <ele>124</ele>
        <time>2014-07-26T08:57:26Z</time>
      </trkpt>
      <trkpt lat="48.8102" lon="1.96306">
        <ele>124</ele>
        <time>2014-07-26T08:57:31Z</time>
      </trkpt>
      <trkpt lat="48.81019" lon="1.96313">
        <ele>124</ele>
        <time>2014-07-26T08:57:35Z</time>
      </trkpt>
      <trkpt lat="48.81019" lon="1.96321">
        <ele>123</ele>
        <time>2014-07-26T08:57:40Z</time>
      </trkpt>
      <trkpt lat="48.81021" lon="1.96344">
        <ele>126</ele>
        <time>2014-07-26T08:57:58Z</time>
      </trkpt>
      <trkpt lat="48.81016" lon="1.96358">
        <ele>127</ele>
        <time>2014-07-26T08:58:08Z</time>
      </trkpt>
      <trkpt lat="48.81015" lon="1.96365">
        <ele>127</ele>
        <time>2014-07-26T08:58:11Z</time>
      </trkpt>
      <trkpt lat="48.81016" lon="1.96372">
        <ele>127</ele>
        <time>2014-07-26T08:58:14Z</time>
      </trkpt>
      <trkpt lat="48.81016" lon="1.96381">
        <ele>127</ele>
        <time>2014-07-26T08:58:18Z</time>
      </trkpt>
      <trkpt lat="48.81013" lon="1.96387">
        <ele>127</ele>
        <time>2014-07-26T08:58:22Z</time>
      </trkpt>
      <trkpt lat="48.81009" lon="1.96393">
        <ele>126</ele>
        <time>2014-07-26T08:58:27Z</time>
      </trkpt>
      <trkpt lat="48.81008" lon="1.96401">
        <ele>126</ele>
        <time>2014-07-26T08:58:30Z</time>
      </trkpt>
      <trkpt lat="48.81012" lon="1.96416">
        <ele>127</ele>
        <time>2014-07-26T08:58:36Z</time>
      </trkpt>
      <trkpt lat="48.81015" lon="1.96431">
        <ele>126</ele>
        <time>2014-07-26T08:58:44Z</time>
      </trkpt>
      <trkpt lat="48.8101" lon="1.96451">
        <ele>125</ele>
        <time>2014-07-26T08:58:56Z</time>
      </trkpt>
      <trkpt lat="48.81017" lon="1.96461">
        <ele>125</ele>
        <time>2014-07-26T08:59:00Z</time>
      </trkpt>
      <trkpt lat="48.8102" lon="1.96468">
        <ele>124</ele>
        <time>2014-07-26T08:59:03Z</time>
      </trkpt>
      <trkpt lat="48.81019" lon="1.96491">
        <ele>123</ele>
        <time>2014-07-26T08:59:18Z</time>
      </trkpt>
      <trkpt lat="48.81032" lon="1.96504">
        <ele>122</ele>
        <time>2014-07-26T08:59:30Z</time>
      </trkpt>
      <trkpt lat="48.81033" lon="1.96518">
        <ele>121</ele>
        <time>2014-07-26T08:59:35Z</time>
      </trkpt>
      <trkpt lat="48.81038" lon="1.96528">
        <ele>120</ele>
        <time>2014-07-26T08:59:41Z</time>
      </trkpt>
      <trkpt lat="48.81038" lon="1.96535">
        <ele>120</ele>
        <time>2014-07-26T08:59:45Z</time>
      </trkpt>
      <trkpt lat="48.8105" lon="1.96551">
        <ele>118</ele>
        <time>2014-07-26T08:59:57Z</time>
      </trkpt>
      <trkpt lat="48.81056" lon="1.96574">
        <ele>116</ele>
        <time>2014-07-26T09:00:08Z</time>
      </trkpt>
      <trkpt lat="48.81061" lon="1.96575">
        <ele>116</ele>
        <time>2014-07-26T09:00:12Z</time>
      </trkpt>
      <trkpt lat="48.8107" lon="1.96587">
        <ele>116</ele>
        <time>2014-07-26T09:00:21Z</time>
      </trkpt>
      <trkpt lat="48.81088" lon="1.96615">
        <ele>116</ele>
        <time>2014-07-26T09:00:31Z</time>
      </trkpt>
      <trkpt lat="48.81097" lon="1.96634">
        <ele>120</ele>
        <time>2014-07-26T09:00:42Z</time>
      </trkpt>
      <trkpt lat="48.81101" lon="1.96641">
        <ele>120</ele>
        <time>2014-07-26T09:00:46Z</time>
      </trkpt>
      <trkpt lat="48.81105" lon="1.96644">
        <ele>120</ele>
        <time>2014-07-26T09:00:51Z</time>
      </trkpt>
      <trkpt lat="48.81109" lon="1.96648">
        <ele>120</ele>
        <time>2014-07-26T09:00:55Z</time>
      </trkpt>
      <trkpt lat="48.81119" lon="1.96666">
        <ele>121</ele>
        <time>2014-07-26T09:01:07Z</time>
      </trkpt>
      <trkpt lat="48.8112" lon="1.96682">
        <ele>123</ele>
        <time>2014-07-26T09:01:14Z</time>
      </trkpt>
      <trkpt lat="48.81124" lon="1.96687">
        <ele>124</ele>
        <time>2014-07-26T09:01:19Z</time>
      </trkpt>
      <trkpt lat="48.81131" lon="1.96697">
        <ele>125</ele>
        <time>2014-07-26T09:01:28Z</time>
      </trkpt>
      <trkpt lat="48.8114" lon="1.96724">
        <ele>124</ele>
        <time>2014-07-26T09:01:45Z</time>
      </trkpt>
      <trkpt lat="48.81144" lon="1.96727">
        <ele>124</ele>
        <time>2014-07-26T09:01:48Z</time>
      </trkpt>
      <trkpt lat="48.81149" lon="1.96731">
        <ele>124</ele>
        <time>2014-07-26T09:01:51Z</time>
      </trkpt>
      <trkpt lat="48.8116" lon="1.96745">
        <ele>127</ele>
        <time>2014-07-26T09:02:01Z</time>
      </trkpt>
      <trkpt lat="48.81162" lon="1.96754">
        <ele>127</ele>
        <time>2014-07-26T09:02:05Z</time>
      </trkpt>
      <trkpt lat="48.81166" lon="1.96758">
        <ele>129</ele>
        <time>2014-07-26T09:02:08Z</time>
      </trkpt>
      <trkpt lat="48.81171" lon="1.96758">
        <ele>131</ele>
        <time>2014-07-26T09:02:12Z</time>
      </trkpt>
      <trkpt lat="48.81176" lon="1.96763">
        <ele>133</ele>
        <time>2014-07-26T09:02:17Z</time>
      </trkpt>
      <trkpt lat="48.81179" lon="1.96769">
        <ele>133</ele>
        <time>2014-07-26T09:02:21Z</time>
      </trkpt>
      <trkpt lat="48.81181" lon="1.96775">
        <ele>131</ele>
        <time>2014-07-26T09:02:27Z</time>
      </trkpt>
      <trkpt lat="48.81182" lon="1.96784">
        <ele>129</ele>
        <time>2014-07-26T09:02:41Z</time>
      </trkpt>
      <trkpt lat="48.81177" lon="1.96807">
        <ele>123</ele>
        <time>2014-07-26T09:02:50Z</time>
      </trkpt>
      <trkpt lat="48.81175" lon="1.96824">
        <ele>123</ele>
        <time>2014-07-26T09:02:58Z</time>
      </trkpt>
      <trkpt lat="48.81171" lon="1.96867">
        <ele>127</ele>
        <time>2014-07-26T09:03:13Z</time>
      </trkpt>
      <trkpt lat="48.81166" lon="1.96874">
        <ele>127</ele>
        <time>2014-07-26T09:03:16Z</time>
      </trkpt>
      <trkpt lat="48.81161" lon="1.96879">
        <ele>127</ele>
        <time>2014-07-26T09:03:19Z</time>
      </trkpt>
      <trkpt lat="48.81152" lon="1.96882">
        <ele>125</ele>
        <time>2014-07-26T09:03:27Z</time>
      </trkpt>
      <trkpt lat="48.81148" lon="1.96877">
        <ele>125</ele>
        <time>2014-07-26T09:03:31Z</time>
      </trkpt>
      <trkpt lat="48.81146" lon="1.96871">
        <ele>125</ele>
        <time>2014-07-26T09:03:38Z</time>
      </trkpt>
      <trkpt lat="48.81142" lon="1.96866">
        <ele>126</ele>
        <time>2014-07-26T09:03:44Z</time>
      </trkpt>
      <trkpt lat="48.81139" lon="1.96869">
        <ele>127</ele>
        <time>2014-07-26T09:04:24Z</time>
      </trkpt>
      <trkpt lat="48.81137" lon="1.96881">
        <ele>126</ele>
        <time>2014-07-26T09:04:41Z</time>
      </trkpt>
      <trkpt lat="48.81138" lon="1.96888">
        <ele>123</ele>
        <time>2014-07-26T09:04:58Z</time>
      </trkpt>
      <trkpt lat="48.81137" lon="1.96893">
        <ele>119</ele>
        <time>2014-07-26T09:05:16Z</time>
      </trkpt>
      <trkpt lat="48.81128" lon="1.96899">
        <ele>113</ele>
        <time>2014-07-26T09:05:29Z</time>
      </trkpt>
      <trkpt lat="48.81123" lon="1.96903">
        <ele>113</ele>
        <time>2014-07-26T09:05:36Z</time>
      </trkpt>
      <trkpt lat="48.81109" lon="1.96908">
        <ele>117</ele>
        <time>2014-07-26T09:05:52Z</time>
      </trkpt>
      <trkpt lat="48.81101" lon="1.9692">
        <ele>120</ele>
        <time>2014-07-26T09:06:01Z</time>
      </trkpt>
      <trkpt lat="48.81097" lon="1.96924">
        <ele>120</ele>
        <time>2014-07-26T09:06:05Z</time>
      </trkpt>
      <trkpt lat="48.81083" lon="1.96932">
        <ele>124</ele>
        <time>2014-07-26T09:06:18Z</time>
      </trkpt>
      <trkpt lat="48.81079" lon="1.96938">
        <ele>125</ele>
        <time>2014-07-26T09:06:21Z</time>
      </trkpt>
      <trkpt lat="48.81073" lon="1.96943">
        <ele>124</ele>
        <time>2014-07-26T09:06:24Z</time>
      </trkpt>
      <trkpt lat="48.81063" lon="1.96951">
        <ele>123</ele>
        <time>2014-07-26T09:06:30Z</time>
      </trkpt>
      <trkpt lat="48.81058" lon="1.96953">
        <ele>123</ele>
        <time>2014-07-26T09:06:34Z</time>
      </trkpt>
      <trkpt lat="48.81032" lon="1.96969">
        <ele>132</ele>
        <time>2014-07-26T09:07:07Z</time>
      </trkpt>
      <trkpt lat="48.81018" lon="1.96979">
        <ele>134</ele>
        <time>2014-07-26T09:07:21Z</time>
      </trkpt>
      <trkpt lat="48.81008" lon="1.96987">
        <ele>135</ele>
        <time>2014-07-26T09:07:27Z</time>
      </trkpt>
      <trkpt lat="48.81002" lon="1.9699">
        <ele>135</ele>
        <time>2014-07-26T09:07:30Z</time>
      </trkpt>
      <trkpt lat="48.80998" lon="1.96988">
        <ele>135</ele>
        <time>2014-07-26T09:07:37Z</time>
      </trkpt>
      <trkpt lat="48.80998" lon="1.96994">
        <ele>136</ele>
        <time>2014-07-26T09:07:56Z</time>
      </trkpt>
      <trkpt lat="48.80994" lon="1.97004">
        <ele>134</ele>
        <time>2014-07-26T09:08:04Z</time>
      </trkpt>
      <trkpt lat="48.80988" lon="1.97006">
        <ele>132</ele>
        <time>2014-07-26T09:08:08Z</time>
      </trkpt>
      <trkpt lat="48.80983" lon="1.97005">
        <ele>130</ele>
        <time>2014-07-26T09:08:11Z</time>
      </trkpt>
      <trkpt lat="48.80978" lon="1.97009">
        <ele>128</ele>
        <time>2014-07-26T09:08:14Z</time>
      </trkpt>
      <trkpt lat="48.80974" lon="1.97025">
        <ele>126</ele>
        <time>2014-07-26T09:08:18Z</time>
      </trkpt>
      <trkpt lat="48.8097" lon="1.97028">
        <ele>126</ele>
        <time>2014-07-26T09:08:20Z</time>
      </trkpt>
      <trkpt lat="48.80964" lon="1.97027">
        <ele>126</ele>
        <time>2014-07-26T09:08:23Z</time>
      </trkpt>
      <trkpt lat="48.80954" lon="1.97021">
        <ele>128</ele>
        <time>2014-07-26T09:08:32Z</time>
      </trkpt>
      <trkpt lat="48.80953" lon="1.97014">
        <ele>129</ele>
        <time>2014-07-26T09:08:35Z</time>
      </trkpt>
      <trkpt lat="48.80938" lon="1.97033">
        <ele>129</ele>
        <time>2014-07-26T09:08:49Z</time>
      </trkpt>
      <trkpt lat="48.80919" lon="1.97036">
        <ele>129</ele>
        <time>2014-07-26T09:09:02Z</time>
      </trkpt>
      <trkpt lat="48.8091" lon="1.97038">
        <ele>126</ele>
        <time>2014-07-26T09:09:09Z</time>
      </trkpt>
      <trkpt lat="48.80901" lon="1.97046">
        <ele>124</ele>
        <time>2014-07-26T09:09:19Z</time>
      </trkpt>
      <trkpt lat="48.80892" lon="1.97051">
        <ele>124</ele>
        <time>2014-07-26T09:09:27Z</time>
      </trkpt>
      <trkpt lat="48.80863" lon="1.97082">
        <ele>128</ele>
        <time>2014-07-26T09:09:59Z</time>
      </trkpt>
      <trkpt lat="48.80825" lon="1.97089">
        <ele>127</ele>
        <time>2014-07-26T09:10:29Z</time>
      </trkpt>
      <trkpt lat="48.80816" lon="1.97096">
        <ele>126</ele>
        <time>2014-07-26T09:10:38Z</time>
      </trkpt>
      <trkpt lat="48.80808" lon="1.97102">
        <ele>126</ele>
        <time>2014-07-26T09:10:44Z</time>
      </trkpt>
      <trkpt lat="48.80778" lon="1.97103">
        <ele>129</ele>
        <time>2014-07-26T09:11:02Z</time>
      </trkpt>
      <trkpt lat="48.8078" lon="1.97116">
        <ele>128</ele>
        <time>2014-07-26T09:11:10Z</time>
      </trkpt>
      <trkpt lat="48.80777" lon="1.97123">
        <ele>127</ele>
        <time>2014-07-26T09:11:13Z</time>
      </trkpt>
      <trkpt lat="48.80769" lon="1.9713">
        <ele>126</ele>
        <time>2014-07-26T09:11:19Z</time>
      </trkpt>
      <trkpt lat="48.80764" lon="1.97128">
        <ele>126</ele>
        <time>2014-07-26T09:11:22Z</time>
      </trkpt>
      <trkpt lat="48.8076" lon="1.9713">
        <ele>127</ele>
        <time>2014-07-26T09:11:27Z</time>
      </trkpt>
      <trkpt lat="48.80756" lon="1.97133">
        <ele>127</ele>
        <time>2014-07-26T09:11:33Z</time>
      </trkpt>
      <trkpt lat="48.80751" lon="1.9713">
        <ele>126</ele>
        <time>2014-07-26T09:11:36Z</time>
      </trkpt>
      <trkpt lat="48.80746" lon="1.97126">
        <ele>125</ele>
        <time>2014-07-26T09:11:40Z</time>
      </trkpt>
      <trkpt lat="48.80746" lon="1.97124">
        <ele>121</ele>
        <time>2014-07-26T09:12:17Z</time>
      </trkpt>
      <trkpt lat="48.80747" lon="1.97116">
        <ele>123</ele>
        <time>2014-07-26T09:12:26Z</time>
      </trkpt>
      <trkpt lat="48.8075" lon="1.97112">
        <ele>125</ele>
        <time>2014-07-26T09:12:40Z</time>
      </trkpt>
      <trkpt lat="48.80753" lon="1.97118">
        <ele>125</ele>
        <time>2014-07-26T09:12:44Z</time>
      </trkpt>
      <trkpt lat="48.80783" lon="1.97165">
        <ele>115</ele>
        <time>2014-07-26T09:13:15Z</time>
      </trkpt>
      <trkpt lat="48.80788" lon="1.9717">
        <ele>114</ele>
        <time>2014-07-26T09:13:20Z</time>
      </trkpt>
      <trkpt lat="48.80797" lon="1.97178">
        <ele>114</ele>
        <time>2014-07-26T09:13:29Z</time>
      </trkpt>
      <trkpt lat="48.80796" lon="1.97185">
        <ele>115</ele>
        <time>2014-07-26T09:13:33Z</time>
      </trkpt>
      <trkpt lat="48.808" lon="1.97199">
        <ele>116</ele>
        <time>2014-07-26T09:13:42Z</time>
      </trkpt>
      <trkpt lat="48.80816" lon="1.97216">
        <ele>117</ele>
        <time>2014-07-26T09:13:51Z</time>
      </trkpt>
      <trkpt lat="48.80821" lon="1.97217">
        <ele>118</ele>
        <time>2014-07-26T09:13:55Z</time>
      </trkpt>
      <trkpt lat="48.80824" lon="1.9722">
        <ele>123</ele>
        <time>2014-07-26T09:14:03Z</time>
      </trkpt>
      <trkpt lat="48.80821" lon="1.97226">
        <ele>125</ele>
        <time>2014-07-26T09:14:08Z</time>
      </trkpt>
      <trkpt lat="48.80823" lon="1.97232">
        <ele>128</ele>
        <time>2014-07-26T09:14:16Z</time>
      </trkpt>
      <trkpt lat="48.80836" lon="1.97244">
        <ele>134</ele>
        <time>2014-07-26T09:14:28Z</time>
      </trkpt>
      <trkpt lat="48.80843" lon="1.97265">
        <ele>138</ele>
        <time>2014-07-26T09:14:44Z</time>
      </trkpt>
      <trkpt lat="48.8085" lon="1.97276">
        <ele>139</ele>
        <time>2014-07-26T09:14:55Z</time>
      </trkpt>
      <trkpt lat="48.80855" lon="1.97278">
        <ele>138</ele>
        <time>2014-07-26T09:14:59Z</time>
      </trkpt>
      <trkpt lat="48.80882" lon="1.97286">
        <ele>149</ele>
        <time>2014-07-26T09:15:33Z</time>
      </trkpt>
      <trkpt lat="48.80886" lon="1.97287">
        <ele>149</ele>
        <time>2014-07-26T09:15:43Z</time>
      </trkpt>
      <trkpt lat="48.8089" lon="1.97286">
        <ele>150</ele>
        <time>2014-07-26T09:15:50Z</time>
      </trkpt>
      <trkpt lat="48.809" lon="1.97289">
        <ele>152</ele>
        <time>2014-07-26T09:16:01Z</time>
      </trkpt>
      <trkpt lat="48.80904" lon="1.97294">
        <ele>153</ele>
        <time>2014-07-26T09:16:06Z</time>
      </trkpt>
      <trkpt lat="48.80904" lon="1.97297">
        <ele>155</ele>
        <time>2014-07-26T09:16:12Z</time>
      </trkpt>
      <trkpt lat="48.80909" lon="1.973">
        <ele>158</ele>
        <time>2014-07-26T09:16:20Z</time>
      </trkpt>
      <trkpt lat="48.80914" lon="1.97298">
        <ele>159</ele>
        <time>2014-07-26T09:16:25Z</time>
      </trkpt>
      <trkpt lat="48.80923" lon="1.97302">
        <ele>160</ele>
        <time>2014-07-26T09:16:38Z</time>
      </trkpt>
      <trkpt lat="48.80928" lon="1.97306">
        <ele>160</ele>
        <time>2014-07-26T09:16:44Z</time>
      </trkpt>
      <trkpt lat="48.80932" lon="1.9731">
        <ele>160</ele>
        <time>2014-07-26T09:16:50Z</time>
      </trkpt>
      <trkpt lat="48.80936" lon="1.97309">
        <ele>159</ele>
        <time>2014-07-26T09:17:00Z</time>
      </trkpt>
      <trkpt lat="48.80946" lon="1.97312">
        <ele>160</ele>
        <time>2014-07-26T09:17:13Z</time>
      </trkpt>
      <trkpt lat="48.80951" lon="1.97312">
        <ele>160</ele>
        <time>2014-07-26T09:17:17Z</time>
      </trkpt>
      <trkpt lat="48.80955" lon="1.97313">
        <ele>160</ele>
        <time>2014-07-26T09:17:20Z</time>
      </trkpt>
      <trkpt lat="48.8096" lon="1.97315">
        <ele>161</ele>
        <time>2014-07-26T09:17:24Z</time>
      </trkpt>
      <trkpt lat="48.80969" lon="1.97322">
        <ele>159</ele>
        <time>2014-07-26T09:17:33Z</time>
      </trkpt>
      <trkpt lat="48.80976" lon="1.97333">
        <ele>162</ele>
        <time>2014-07-26T09:17:42Z</time>
      </trkpt>
      <trkpt lat="48.8098" lon="1.97342">
        <ele>163</ele>
        <time>2014-07-26T09:17:55Z</time>
      </trkpt>
      <trkpt lat="48.80985" lon="1.97344">
        <ele>165</ele>
        <time>2014-07-26T09:17:59Z</time>
      </trkpt>
      <trkpt lat="48.80989" lon="1.9734">
        <ele>165</ele>
        <time>2014-07-26T09:18:05Z</time>
      </trkpt>
      <trkpt lat="48.8099" lon="1.97346">
        <ele>166</ele>
        <time>2014-07-26T09:18:32Z</time>
      </trkpt>
      <trkpt lat="48.80987" lon="1.97348">
        <ele>166</ele>
        <time>2014-07-26T09:18:49Z</time>
      </trkpt>
      <trkpt lat="48.80984" lon="1.97345">
        <ele>166</ele>
        <time>2014-07-26T09:18:56Z</time>
      </trkpt>
      <trkpt lat="48.80989" lon="1.9734">
        <ele>166</ele>
        <time>2014-07-26T09:19:01Z</time>
      </trkpt>
      <trkpt lat="48.80991" lon="1.97337">
        <ele>166</ele>
        <time>2014-07-26T09:19:14Z</time>
      </trkpt>
      <trkpt lat="48.80989" lon="1.97331">
        <ele>167</ele>
        <time>2014-07-26T09:19:33Z</time>
      </trkpt>
      <trkpt lat="48.80992" lon="1.97325">
        <ele>167</ele>
        <time>2014-07-26T09:19:42Z</time>
      </trkpt>
      <trkpt lat="48.80995" lon="1.97328">
        <ele>173</ele>
        <time>2014-07-26T09:20:21Z</time>
      </trkpt>
      <trkpt lat="48.81" lon="1.9733">
        <ele>173</ele>
        <time>2014-07-26T09:20:26Z</time>
      </trkpt>
      <trkpt lat="48.81015" lon="1.9734">
        <ele>178</ele>
        <time>2014-07-26T09:20:36Z</time>
      </trkpt>
      <trkpt lat="48.81024" lon="1.97339">
        <ele>177</ele>
        <time>2014-07-26T09:20:44Z</time>
      </trkpt>
      <trkpt lat="48.81029" lon="1.97339">
        <ele>175</ele>
        <time>2014-07-26T09:20:51Z</time>
      </trkpt>
      <trkpt lat="48.81039" lon="1.9734">
        <ele>174</ele>
        <time>2014-07-26T09:20:57Z</time>
      </trkpt>
      <trkpt lat="48.81044" lon="1.97343">
        <ele>173</ele>
        <time>2014-07-26T09:21:01Z</time>
      </trkpt>
      <trkpt lat="48.81048" lon="1.9735">
        <ele>174</ele>
        <time>2014-07-26T09:21:07Z</time>
      </trkpt>
      <trkpt lat="48.81055" lon="1.97352">
        <ele>175</ele>
        <time>2014-07-26T09:21:19Z</time>
      </trkpt>
      <trkpt lat="48.8106" lon="1.97351">
        <ele>175</ele>
        <time>2014-07-26T09:21:24Z</time>
      </trkpt>
      <trkpt lat="48.81069" lon="1.97357">
        <ele>176</ele>
        <time>2014-07-26T09:21:30Z</time>
      </trkpt>
      <trkpt lat="48.81074" lon="1.97359">
        <ele>175</ele>
        <time>2014-07-26T09:21:33Z</time>
      </trkpt>
      <trkpt lat="48.81079" lon="1.97358">
        <ele>175</ele>
        <time>2014-07-26T09:21:37Z</time>
      </trkpt>
      <trkpt lat="48.81084" lon="1.97358">
        <ele>175</ele>
        <time>2014-07-26T09:21:41Z</time>
      </trkpt>
      <trkpt lat="48.81106" lon="1.97376">
        <ele>178</ele>
        <time>2014-07-26T09:22:00Z</time>
      </trkpt>
      <trkpt lat="48.81111" lon="1.97376">
        <ele>177</ele>
        <time>2014-07-26T09:22:04Z</time>
      </trkpt>
      <trkpt lat="48.81138" lon="1.97379">
        <ele>175</ele>
        <time>2014-07-26T09:22:20Z</time>
      </trkpt>
      <trkpt lat="48.81147" lon="1.9738">
        <ele>172</ele>
        <time>2014-07-26T09:22:35Z</time>
      </trkpt>
      <trkpt lat="48.81151" lon="1.97385">
        <ele>172</ele>
        <time>2014-07-26T09:22:39Z</time>
      </trkpt>
      <trkpt lat="48.81163" lon="1.974">
        <ele>173</ele>
        <time>2014-07-26T09:22:54Z</time>
      </trkpt>
      <trkpt lat="48.81168" lon="1.97405">
        <ele>175</ele>
        <time>2014-07-26T09:23:06Z</time>
      </trkpt>
      <trkpt lat="48.81173" lon="1.9741">
        <ele>175</ele>
        <time>2014-07-26T09:23:10Z</time>
      </trkpt>
      <trkpt lat="48.81178" lon="1.97412">
        <ele>174</ele>
        <time>2014-07-26T09:23:14Z</time>
      </trkpt>
      <trkpt lat="48.81184" lon="1.97413">
        <ele>174</ele>
        <time>2014-07-26T09:23:17Z</time>
      </trkpt>
      <trkpt lat="48.81188" lon="1.97415">
        <ele>175</ele>
        <time>2014-07-26T09:23:19Z</time>
      </trkpt>
      <trkpt lat="48.81193" lon="1.97417">
        <ele>176</ele>
        <time>2014-07-26T09:23:23Z</time>
      </trkpt>
      <trkpt lat="48.81197" lon="1.97421">
        <ele>175</ele>
        <time>2014-07-26T09:23:29Z</time>
      </trkpt>
      <trkpt lat="48.812" lon="1.97427">
        <ele>176</ele>
        <time>2014-07-26T09:23:36Z</time>
      </trkpt>
      <trkpt lat="48.81204" lon="1.97432">
        <ele>176</ele>
        <time>2014-07-26T09:23:39Z</time>
      </trkpt>
      <trkpt lat="48.81209" lon="1.97433">
        <ele>175</ele>
        <time>2014-07-26T09:23:46Z</time>
      </trkpt>
      <trkpt lat="48.81211" lon="1.97432">
        <ele>176</ele>
        <time>2014-07-26T09:23:52Z</time>
      </trkpt>
      <trkpt lat="48.81212" lon="1.9744">
        <ele>177</ele>
        <time>2014-07-26T09:24:13Z</time>
      </trkpt>
      <trkpt lat="48.81214" lon="1.97449">
        <ele>175</ele>
        <time>2014-07-26T09:24:23Z</time>
      </trkpt>
      <trkpt lat="48.8121" lon="1.97463">
        <ele>176</ele>
        <time>2014-07-26T09:24:34Z</time>
      </trkpt>
      <trkpt lat="48.81211" lon="1.97479">
        <ele>177</ele>
        <time>2014-07-26T09:24:43Z</time>
      </trkpt>
      <trkpt lat="48.8121" lon="1.97495">
        <ele>174</ele>
        <time>2014-07-26T09:24:52Z</time>
      </trkpt>
      <trkpt lat="48.81206" lon="1.97502">
        <ele>173</ele>
        <time>2014-07-26T09:24:56Z</time>
      </trkpt>
      <trkpt lat="48.81204" lon="1.97509">
        <ele>173</ele>
        <time>2014-07-26T09:25:00Z</time>
      </trkpt>
      <trkpt lat="48.81206" lon="1.97524">
        <ele>171</ele>
        <time>2014-07-26T09:25:10Z</time>
      </trkpt>
      <trkpt lat="48.81203" lon="1.97531">
        <ele>171</ele>
        <time>2014-07-26T09:25:14Z</time>
      </trkpt>
      <trkpt lat="48.81201" lon="1.97538">
        <ele>172</ele>
        <time>2014-07-26T09:25:18Z</time>
      </trkpt>
      <trkpt lat="48.812" lon="1.97553">
        <ele>175</ele>
        <time>2014-07-26T09:25:26Z</time>
      </trkpt>
      <trkpt lat="48.81199" lon="1.9756">
        <ele>175</ele>
        <time>2014-07-26T09:25:30Z</time>
      </trkpt>
      <trkpt lat="48.812" lon="1.97558">
        <ele>175</ele>
        <time>2014-07-26T09:26:01Z</time>
      </trkpt>
      <trkpt lat="48.81203" lon="1.97552">
        <ele>175</ele>
        <time>2014-07-26T09:26:07Z</time>
      </trkpt>
      <trkpt lat="48.81206" lon="1.97556">
        <ele>174</ele>
        <time>2014-07-26T09:26:13Z</time>
      </trkpt>
      <trkpt lat="48.81215" lon="1.97577">
        <ele>171</ele>
        <time>2014-07-26T09:26:17Z</time>
      </trkpt>
      <trkpt lat="48.8122" lon="1.9758">
        <ele>169</ele>
        <time>2014-07-26T09:26:20Z</time>
      </trkpt>
      <trkpt lat="48.81225" lon="1.97581">
        <ele>167</ele>
        <time>2014-07-26T09:26:22Z</time>
      </trkpt>
      <trkpt lat="48.81229" lon="1.97576">
        <ele>163</ele>
        <time>2014-07-26T09:26:26Z</time>
      </trkpt>
      <trkpt lat="48.81227" lon="1.97569">
        <ele>160</ele>
        <time>2014-07-26T09:26:46Z</time>
      </trkpt>
      <trkpt lat="48.81232" lon="1.97562">
        <ele>160</ele>
        <time>2014-07-26T09:26:53Z</time>
      </trkpt>
      <trkpt lat="48.81238" lon="1.97563">
        <ele>160</ele>
        <time>2014-07-26T09:27:00Z</time>
      </trkpt>
      <trkpt lat="48.81239" lon="1.97571">
        <ele>162</ele>
        <time>2014-07-26T09:27:06Z</time>
      </trkpt>
      <trkpt lat="48.81237" lon="1.97586">
        <ele>163</ele>
        <time>2014-07-26T09:27:15Z</time>
      </trkpt>
      <trkpt lat="48.81234" lon="1.97593">
        <ele>164</ele>
        <time>2014-07-26T09:27:18Z</time>
      </trkpt>
      <trkpt lat="48.81232" lon="1.97618">
        <ele>166</ele>
        <time>2014-07-26T09:27:28Z</time>
      </trkpt>
      <trkpt lat="48.81234" lon="1.97631">
        <ele>167</ele>
        <time>2014-07-26T09:27:34Z</time>
      </trkpt>
      <trkpt lat="48.81234" lon="1.9764">
        <ele>167</ele>
        <time>2014-07-26T09:27:38Z</time>
      </trkpt>
      <trkpt lat="48.81233" lon="1.97648">
        <ele>166</ele>
        <time>2014-07-26T09:27:42Z</time>
      </trkpt>
      <trkpt lat="48.81233" lon="1.97663">
        <ele>164</ele>
        <time>2014-07-26T09:27:51Z</time>
      </trkpt>
      <trkpt lat="48.81236" lon="1.97686">
        <ele>166</ele>
        <time>2014-07-26T09:28:02Z</time>
      </trkpt>
      <trkpt lat="48.81238" lon="1.97715">
        <ele>163</ele>
        <time>2014-07-26T09:28:21Z</time>
      </trkpt>
      <trkpt lat="48.81241" lon="1.9773">
        <ele>164</ele>
        <time>2014-07-26T09:28:28Z</time>
      </trkpt>
      <trkpt lat="48.81246" lon="1.97743">
        <ele>164</ele>
        <time>2014-07-26T09:28:36Z</time>
      </trkpt>
      <trkpt lat="48.81244" lon="1.9775">
        <ele>164</ele>
        <time>2014-07-26T09:28:40Z</time>
      </trkpt>
      <trkpt lat="48.81243" lon="1.97758">
        <ele>163</ele>
        <time>2014-07-26T09:28:45Z</time>
      </trkpt>
      <trkpt lat="48.81246" lon="1.97766">
        <ele>165</ele>
        <time>2014-07-26T09:28:50Z</time>
      </trkpt>
      <trkpt lat="48.8125" lon="1.97779">
        <ele>166</ele>
        <time>2014-07-26T09:28:56Z</time>
      </trkpt>
      <trkpt lat="48.81249" lon="1.97796">
        <ele>166</ele>
        <time>2014-07-26T09:29:04Z</time>
      </trkpt>
      <trkpt lat="48.81252" lon="1.97802">
        <ele>166</ele>
        <time>2014-07-26T09:29:07Z</time>
      </trkpt>
      <trkpt lat="48.81255" lon="1.97809">
        <ele>166</ele>
        <time>2014-07-26T09:29:10Z</time>
      </trkpt>
      <trkpt lat="48.81255" lon="1.97818">
        <ele>166</ele>
        <time>2014-07-26T09:29:13Z</time>
      </trkpt>
      <trkpt lat="48.81252" lon="1.97823">
        <ele>166</ele>
        <time>2014-07-26T09:29:16Z</time>
      </trkpt>
      <trkpt lat="48.81251" lon="1.9783">
        <ele>167</ele>
        <time>2014-07-26T09:29:20Z</time>
      </trkpt>
      <trkpt lat="48.81252" lon="1.97837">
        <ele>167</ele>
        <time>2014-07-26T09:29:24Z</time>
      </trkpt>
      <trkpt lat="48.81256" lon="1.97852">
        <ele>167</ele>
        <time>2014-07-26T09:29:31Z</time>
      </trkpt>
      <trkpt lat="48.81258" lon="1.9786">
        <ele>168</ele>
        <time>2014-07-26T09:29:35Z</time>
      </trkpt>
      <trkpt lat="48.81259" lon="1.97867">
        <ele>169</ele>
        <time>2014-07-26T09:29:39Z</time>
      </trkpt>
      <trkpt lat="48.81262" lon="1.97875">
        <ele>170</ele>
        <time>2014-07-26T09:29:43Z</time>
      </trkpt>
      <trkpt lat="48.81263" lon="1.97882">
        <ele>170</ele>
        <time>2014-07-26T09:29:47Z</time>
      </trkpt>
      <trkpt lat="48.81264" lon="1.9789">
        <ele>170</ele>
        <time>2014-07-26T09:29:52Z</time>
      </trkpt>
      <trkpt lat="48.81265" lon="1.97898">
        <ele>171</ele>
        <time>2014-07-26T09:29:56Z</time>
      </trkpt>
      <trkpt lat="48.81268" lon="1.97905">
        <ele>171</ele>
        <time>2014-07-26T09:30:00Z</time>
      </trkpt>
      <trkpt lat="48.81271" lon="1.97912">
        <ele>171</ele>
        <time>2014-07-26T09:30:03Z</time>
      </trkpt>
      <trkpt lat="48.81275" lon="1.97935">
        <ele>168</ele>
        <time>2014-07-26T09:30:18Z</time>
      </trkpt>
      <trkpt lat="48.81279" lon="1.9794">
        <ele>168</ele>
        <time>2014-07-26T09:30:22Z</time>
      </trkpt>
      <trkpt lat="48.81283" lon="1.97954">
        <ele>168</ele>
        <time>2014-07-26T09:30:29Z</time>
      </trkpt>
      <trkpt lat="48.81283" lon="1.97962">
        <ele>169</ele>
        <time>2014-07-26T09:30:33Z</time>
      </trkpt>
      <trkpt lat="48.81283" lon="1.9797">
        <ele>168</ele>
        <time>2014-07-26T09:30:37Z</time>
      </trkpt>
      <trkpt lat="48.81285" lon="1.97984">
        <ele>165</ele>
        <time>2014-07-26T09:30:45Z</time>
      </trkpt>
      <trkpt lat="48.8129" lon="1.97996">
        <ele>164</ele>
        <time>2014-07-26T09:30:53Z</time>
      </trkpt>
      <trkpt lat="48.81289" lon="1.98003">
        <ele>161</ele>
        <time>2014-07-26T09:30:58Z</time>
      </trkpt>
      <trkpt lat="48.8129" lon="1.9802">
        <ele>160</ele>
        <time>2014-07-26T09:31:07Z</time>
      </trkpt>
      <trkpt lat="48.81292" lon="1.98028">
        <ele>160</ele>
        <time>2014-07-26T09:31:11Z</time>
      </trkpt>
      <trkpt lat="48.81292" lon="1.98035">
        <ele>160</ele>
        <time>2014-07-26T09:31:15Z</time>
      </trkpt>
      <trkpt lat="48.81291" lon="1.98042">
        <ele>161</ele>
        <time>2014-07-26T09:31:18Z</time>
      </trkpt>
      <trkpt lat="48.81291" lon="1.98049">
        <ele>161</ele>
        <time>2014-07-26T09:31:23Z</time>
      </trkpt>
      <trkpt lat="48.81295" lon="1.98064">
        <ele>160</ele>
        <time>2014-07-26T09:31:31Z</time>
      </trkpt>
      <trkpt lat="48.81303" lon="1.98115">
        <ele>152</ele>
        <time>2014-07-26T09:32:02Z</time>
      </trkpt>
      <trkpt lat="48.81302" lon="1.98122">
        <ele>151</ele>
        <time>2014-07-26T09:32:08Z</time>
      </trkpt>
      <trkpt lat="48.81303" lon="1.98129">
        <ele>152</ele>
        <time>2014-07-26T09:32:20Z</time>
      </trkpt>
      <trkpt lat="48.81308" lon="1.98132">
        <ele>153</ele>
        <time>2014-07-26T09:32:39Z</time>
      </trkpt>
      <trkpt lat="48.81314" lon="1.98148">
        <ele>163</ele>
        <time>2014-07-26T09:33:02Z</time>
      </trkpt>
      <trkpt lat="48.81316" lon="1.98164">
        <ele>165</ele>
        <time>2014-07-26T09:33:11Z</time>
      </trkpt>
      <trkpt lat="48.81315" lon="1.98169">
        <ele>162</ele>
        <time>2014-07-26T09:33:19Z</time>
      </trkpt>
      <trkpt lat="48.81319" lon="1.98185">
        <ele>158</ele>
        <time>2014-07-26T09:33:27Z</time>
      </trkpt>
      <trkpt lat="48.81322" lon="1.98192">
        <ele>158</ele>
        <time>2014-07-26T09:33:31Z</time>
      </trkpt>
      <trkpt lat="48.81325" lon="1.98198">
        <ele>157</ele>
        <time>2014-07-26T09:33:38Z</time>
      </trkpt>
      <trkpt lat="48.81326" lon="1.98213">
        <ele>156</ele>
        <time>2014-07-26T09:33:45Z</time>
      </trkpt>
      <trkpt lat="48.81326" lon="1.98221">
        <ele>156</ele>
        <time>2014-07-26T09:33:48Z</time>
      </trkpt>
      <trkpt lat="48.81332" lon="1.98291">
        <ele>162</ele>
        <time>2014-07-26T09:34:21Z</time>
      </trkpt>
      <trkpt lat="48.8133" lon="1.983">
        <ele>162</ele>
        <time>2014-07-26T09:34:24Z</time>
      </trkpt>
      <trkpt lat="48.8133" lon="1.98307">
        <ele>163</ele>
        <time>2014-07-26T09:34:27Z</time>
      </trkpt>
      <trkpt lat="48.81331" lon="1.98315">
        <ele>163</ele>
        <time>2014-07-26T09:34:31Z</time>
      </trkpt>
      <trkpt lat="48.81334" lon="1.98322">
        <ele>164</ele>
        <time>2014-07-26T09:34:35Z</time>
      </trkpt>
      <trkpt lat="48.81341" lon="1.98342">
        <ele>167</ele>
        <time>2014-07-26T09:34:47Z</time>
      </trkpt>
      <trkpt lat="48.81341" lon="1.9835">
        <ele>168</ele>
        <time>2014-07-26T09:34:52Z</time>
      </trkpt>
      <trkpt lat="48.81331" lon="1.98365">
        <ele>163</ele>
        <time>2014-07-26T09:35:02Z</time>
      </trkpt>
      <trkpt lat="48.81333" lon="1.98374">
        <ele>163</ele>
        <time>2014-07-26T09:35:06Z</time>
      </trkpt>
      <trkpt lat="48.81342" lon="1.98382">
        <ele>162</ele>
        <time>2014-07-26T09:35:12Z</time>
      </trkpt>
      <trkpt lat="48.81345" lon="1.98387">
        <ele>162</ele>
        <time>2014-07-26T09:35:16Z</time>
      </trkpt>
      <trkpt lat="48.8135" lon="1.98381">
        <ele>163</ele>
        <time>2014-07-26T09:35:28Z</time>
      </trkpt>
      <trkpt lat="48.81348" lon="1.98375">
        <ele>164</ele>
        <time>2014-07-26T09:35:37Z</time>
      </trkpt>
      <trkpt lat="48.81341" lon="1.98377">
        <ele>167</ele>
        <time>2014-07-26T09:35:57Z</time>
      </trkpt>
      <trkpt lat="48.81342" lon="1.98385">
        <ele>168</ele>
        <time>2014-07-26T09:36:04Z</time>
      </trkpt>
      <trkpt lat="48.81346" lon="1.98399">
        <ele>169</ele>
        <time>2014-07-26T09:36:13Z</time>
      </trkpt>
      <trkpt lat="48.8134" lon="1.98427">
        <ele>168</ele>
        <time>2014-07-26T09:36:31Z</time>
      </trkpt>
      <trkpt lat="48.81336" lon="1.98435">
        <ele>168</ele>
        <time>2014-07-26T09:36:34Z</time>
      </trkpt>
      <trkpt lat="48.81333" lon="1.98444">
        <ele>170</ele>
        <time>2014-07-26T09:36:38Z</time>
      </trkpt>
      <trkpt lat="48.81328" lon="1.98456">
        <ele>171</ele>
        <time>2014-07-26T09:36:45Z</time>
      </trkpt>
      <trkpt lat="48.81324" lon="1.98461">
        <ele>171</ele>
        <time>2014-07-26T09:36:49Z</time>
      </trkpt>
      <trkpt lat="48.81319" lon="1.98464">
        <ele>169</ele>
        <time>2014-07-26T09:36:54Z</time>
      </trkpt>
      <trkpt lat="48.81316" lon="1.9847">
        <ele>169</ele>
        <time>2014-07-26T09:36:58Z</time>
      </trkpt>
      <trkpt lat="48.81314" lon="1.98475">
        <ele>166</ele>
        <time>2014-07-26T09:37:02Z</time>
      </trkpt>
      <trkpt lat="48.81297" lon="1.98492">
        <ele>158</ele>
        <time>2014-07-26T09:37:20Z</time>
      </trkpt>
      <trkpt lat="48.81291" lon="1.98503">
        <ele>157</ele>
        <time>2014-07-26T09:37:28Z</time>
      </trkpt>
      <trkpt lat="48.81286" lon="1.98506">
        <ele>157</ele>
        <time>2014-07-26T09:37:32Z</time>
      </trkpt>
      <trkpt lat="48.81283" lon="1.98513">
        <ele>156</ele>
        <time>2014-07-26T09:37:36Z</time>
      </trkpt>
      <trkpt lat="48.81282" lon="1.9852">
        <ele>157</ele>
        <time>2014-07-26T09:37:39Z</time>
      </trkpt>
      <trkpt lat="48.81284" lon="1.98527">
        <ele>158</ele>
        <time>2014-07-26T09:37:42Z</time>
      </trkpt>
      <trkpt lat="48.81279" lon="1.98538">
        <ele>158</ele>
        <time>2014-07-26T09:37:50Z</time>
      </trkpt>
      <trkpt lat="48.81273" lon="1.98576">
        <ele>165</ele>
        <time>2014-07-26T09:38:05Z</time>
      </trkpt>
      <trkpt lat="48.8127" lon="1.98581">
        <ele>165</ele>
        <time>2014-07-26T09:38:09Z</time>
      </trkpt>
      <trkpt lat="48.81262" lon="1.98581">
        <ele>163</ele>
        <time>2014-07-26T09:38:22Z</time>
      </trkpt>
      <trkpt lat="48.81257" lon="1.98583">
        <ele>162</ele>
        <time>2014-07-26T09:38:26Z</time>
      </trkpt>
      <trkpt lat="48.81244" lon="1.98595">
        <ele>164</ele>
        <time>2014-07-26T09:38:35Z</time>
      </trkpt>
      <trkpt lat="48.81241" lon="1.98602">
        <ele>163</ele>
        <time>2014-07-26T09:38:38Z</time>
      </trkpt>
      <trkpt lat="48.81229" lon="1.98619">
        <ele>160</ele>
        <time>2014-07-26T09:38:48Z</time>
      </trkpt>
      <trkpt lat="48.81222" lon="1.98648">
        <ele>156</ele>
        <time>2014-07-26T09:39:07Z</time>
      </trkpt>
      <trkpt lat="48.8122" lon="1.98655">
        <ele>156</ele>
        <time>2014-07-26T09:39:11Z</time>
      </trkpt>
      <trkpt lat="48.81218" lon="1.98662">
        <ele>157</ele>
        <time>2014-07-26T09:39:15Z</time>
      </trkpt>
      <trkpt lat="48.81216" lon="1.98676">
        <ele>155</ele>
        <time>2014-07-26T09:39:23Z</time>
      </trkpt>
      <trkpt lat="48.81214" lon="1.98683">
        <ele>155</ele>
        <time>2014-07-26T09:39:27Z</time>
      </trkpt>
      <trkpt lat="48.81214" lon="1.98691">
        <ele>153</ele>
        <time>2014-07-26T09:39:35Z</time>
      </trkpt>
      <trkpt lat="48.81214" lon="1.98699">
        <ele>153</ele>
        <time>2014-07-26T09:39:39Z</time>
      </trkpt>
      <trkpt lat="48.81209" lon="1.98743">
        <ele>158</ele>
        <time>2014-07-26T09:40:01Z</time>
      </trkpt>
      <trkpt lat="48.81201" lon="1.98771">
        <ele>156</ele>
        <time>2014-07-26T09:40:18Z</time>
      </trkpt>
      <trkpt lat="48.81201" lon="1.98778">
        <ele>157</ele>
        <time>2014-07-26T09:40:22Z</time>
      </trkpt>
      <trkpt lat="48.81198" lon="1.98825">
        <ele>164</ele>
        <time>2014-07-26T09:40:45Z</time>
      </trkpt>
      <trkpt lat="48.81198" lon="1.98833">
        <ele>164</ele>
        <time>2014-07-26T09:40:50Z</time>
      </trkpt>
      <trkpt lat="48.81196" lon="1.9884">
        <ele>164</ele>
        <time>2014-07-26T09:40:55Z</time>
      </trkpt>
      <trkpt lat="48.81194" lon="1.98847">
        <ele>164</ele>
        <time>2014-07-26T09:40:59Z</time>
      </trkpt>
      <trkpt lat="48.81194" lon="1.98854">
        <ele>164</ele>
        <time>2014-07-26T09:41:03Z</time>
      </trkpt>
      <trkpt lat="48.81194" lon="1.98862">
        <ele>164</ele>
        <time>2014-07-26T09:41:07Z</time>
      </trkpt>
      <trkpt lat="48.81194" lon="1.98879">
        <ele>163</ele>
        <time>2014-07-26T09:41:15Z</time>
      </trkpt>
      <trkpt lat="48.81196" lon="1.98887">
        <ele>163</ele>
        <time>2014-07-26T09:41:19Z</time>
      </trkpt>
      <trkpt lat="48.81197" lon="1.98895">
        <ele>164</ele>
        <time>2014-07-26T09:41:22Z</time>
      </trkpt>
      <trkpt lat="48.81196" lon="1.9894">
        <ele>168</ele>
        <time>2014-07-26T09:41:43Z</time>
      </trkpt>
      <trkpt lat="48.81192" lon="1.98945">
        <ele>168</ele>
        <time>2014-07-26T09:41:47Z</time>
      </trkpt>
      <trkpt lat="48.81188" lon="1.9895">
        <ele>168</ele>
        <time>2014-07-26T09:41:51Z</time>
      </trkpt>
      <trkpt lat="48.81186" lon="1.98957">
        <ele>168</ele>
        <time>2014-07-26T09:41:55Z</time>
      </trkpt>
      <trkpt lat="48.81189" lon="1.9898">
        <ele>170</ele>
        <time>2014-07-26T09:42:06Z</time>
      </trkpt>
      <trkpt lat="48.81194" lon="1.98996">
        <ele>172</ele>
        <time>2014-07-26T09:42:14Z</time>
      </trkpt>
      <trkpt lat="48.81194" lon="1.99004">
        <ele>172</ele>
        <time>2014-07-26T09:42:18Z</time>
      </trkpt>
      <trkpt lat="48.81207" lon="1.99054">
        <ele>165</ele>
        <time>2014-07-26T09:42:47Z</time>
      </trkpt>
      <trkpt lat="48.81208" lon="1.99061">
        <ele>165</ele>
        <time>2014-07-26T09:42:51Z</time>
      </trkpt>
      <trkpt lat="48.81208" lon="1.9907">
        <ele>165</ele>
        <time>2014-07-26T09:42:55Z</time>
      </trkpt>
      <trkpt lat="48.81212" lon="1.99083">
        <ele>164</ele>
        <time>2014-07-26T09:43:02Z</time>
      </trkpt>
      <trkpt lat="48.81216" lon="1.99088">
        <ele>164</ele>
        <time>2014-07-26T09:43:06Z</time>
      </trkpt>
      <trkpt lat="48.8122" lon="1.99094">
        <ele>164</ele>
        <time>2014-07-26T09:43:11Z</time>
      </trkpt>
      <trkpt lat="48.81223" lon="1.99108">
        <ele>163</ele>
        <time>2014-07-26T09:43:21Z</time>
      </trkpt>
      <trkpt lat="48.81226" lon="1.99137">
        <ele>166</ele>
        <time>2014-07-26T09:43:37Z</time>
      </trkpt>
      <trkpt lat="48.81228" lon="1.99145">
        <ele>166</ele>
        <time>2014-07-26T09:43:41Z</time>
      </trkpt>
      <trkpt lat="48.81222" lon="1.99175">
        <ele>159</ele>
        <time>2014-07-26T09:43:59Z</time>
      </trkpt>
      <trkpt lat="48.81222" lon="1.99183">
        <ele>159</ele>
        <time>2014-07-26T09:44:04Z</time>
      </trkpt>
      <trkpt lat="48.81219" lon="1.99188">
        <ele>160</ele>
        <time>2014-07-26T09:44:08Z</time>
      </trkpt>
      <trkpt lat="48.81214" lon="1.99193">
        <ele>160</ele>
        <time>2014-07-26T09:44:12Z</time>
      </trkpt>
      <trkpt lat="48.81184" lon="1.99236">
        <ele>167</ele>
        <time>2014-07-26T09:44:44Z</time>
      </trkpt>
      <trkpt lat="48.8118" lon="1.9924">
        <ele>168</ele>
        <time>2014-07-26T09:44:47Z</time>
      </trkpt>
      <trkpt lat="48.81175" lon="1.99244">
        <ele>168</ele>
        <time>2014-07-26T09:44:50Z</time>
      </trkpt>
      <trkpt lat="48.81171" lon="1.99248">
        <ele>168</ele>
        <time>2014-07-26T09:44:56Z</time>
      </trkpt>
      <trkpt lat="48.81168" lon="1.99254">
        <ele>168</ele>
        <time>2014-07-26T09:45:02Z</time>
      </trkpt>
      <trkpt lat="48.81141" lon="1.99289">
        <ele>164</ele>
        <time>2014-07-26T09:45:34Z</time>
      </trkpt>
      <trkpt lat="48.81143" lon="1.99296">
        <ele>164</ele>
        <time>2014-07-26T09:45:39Z</time>
      </trkpt>
      <trkpt lat="48.81142" lon="1.99304">
        <ele>162</ele>
        <time>2014-07-26T09:45:43Z</time>
      </trkpt>
      <trkpt lat="48.81141" lon="1.99312">
        <ele>162</ele>
        <time>2014-07-26T09:45:46Z</time>
      </trkpt>
      <trkpt lat="48.81142" lon="1.9932">
        <ele>162</ele>
        <time>2014-07-26T09:45:49Z</time>
      </trkpt>
      <trkpt lat="48.81143" lon="1.99342">
        <ele>166</ele>
        <time>2014-07-26T09:46:04Z</time>
      </trkpt>
      <trkpt lat="48.81144" lon="1.99349">
        <ele>167</ele>
        <time>2014-07-26T09:46:08Z</time>
      </trkpt>
      <trkpt lat="48.81141" lon="1.99356">
        <ele>167</ele>
        <time>2014-07-26T09:46:11Z</time>
      </trkpt>
      <trkpt lat="48.81141" lon="1.99364">
        <ele>166</ele>
        <time>2014-07-26T09:46:14Z</time>
      </trkpt>
      <trkpt lat="48.81143" lon="1.99371">
        <ele>168</ele>
        <time>2014-07-26T09:46:18Z</time>
      </trkpt>
      <trkpt lat="48.8114" lon="1.99386">
        <ele>171</ele>
        <time>2014-07-26T09:46:25Z</time>
      </trkpt>
      <trkpt lat="48.81144" lon="1.99402">
        <ele>173</ele>
        <time>2014-07-26T09:46:31Z</time>
      </trkpt>
      <trkpt lat="48.81145" lon="1.99409">
        <ele>173</ele>
        <time>2014-07-26T09:46:33Z</time>
      </trkpt>
      <trkpt lat="48.81149" lon="1.99414">
        <ele>172</ele>
        <time>2014-07-26T09:46:36Z</time>
      </trkpt>
      <trkpt lat="48.81149" lon="1.99423">
        <ele>171</ele>
        <time>2014-07-26T09:46:42Z</time>
      </trkpt>
      <trkpt lat="48.81144" lon="1.99436">
        <ele>172</ele>
        <time>2014-07-26T09:46:52Z</time>
      </trkpt>
      <trkpt lat="48.81145" lon="1.99445">
        <ele>171</ele>
        <time>2014-07-26T09:46:56Z</time>
      </trkpt>
      <trkpt lat="48.81146" lon="1.99454">
        <ele>171</ele>
        <time>2014-07-26T09:47:00Z</time>
      </trkpt>
      <trkpt lat="48.81148" lon="1.99461">
        <ele>171</ele>
        <time>2014-07-26T09:47:03Z</time>
      </trkpt>
      <trkpt lat="48.81148" lon="1.99468">
        <ele>172</ele>
        <time>2014-07-26T09:47:08Z</time>
      </trkpt>
      <trkpt lat="48.81153" lon="1.99476">
        <ele>172</ele>
        <time>2014-07-26T09:47:21Z</time>
      </trkpt>
      <trkpt lat="48.81151" lon="1.99482">
        <ele>171</ele>
        <time>2014-07-26T09:47:25Z</time>
      </trkpt>
      <trkpt lat="48.81147" lon="1.99486">
        <ele>170</ele>
        <time>2014-07-26T09:47:29Z</time>
      </trkpt>
      <trkpt lat="48.81142" lon="1.995">
        <ele>170</ele>
        <time>2014-07-26T09:47:41Z</time>
      </trkpt>
      <trkpt lat="48.81143" lon="1.99508">
        <ele>170</ele>
        <time>2014-07-26T09:47:46Z</time>
      </trkpt>
      <trkpt lat="48.8115" lon="1.9953">
        <ele>167</ele>
        <time>2014-07-26T09:47:56Z</time>
      </trkpt>
      <trkpt lat="48.81148" lon="1.99537">
        <ele>166</ele>
        <time>2014-07-26T09:48:01Z</time>
      </trkpt>
      <trkpt lat="48.81144" lon="1.99542">
        <ele>167</ele>
        <time>2014-07-26T09:48:05Z</time>
      </trkpt>
      <trkpt lat="48.81143" lon="1.99549">
        <ele>169</ele>
        <time>2014-07-26T09:48:08Z</time>
      </trkpt>
      <trkpt lat="48.81142" lon="1.99566">
        <ele>171</ele>
        <time>2014-07-26T09:48:14Z</time>
      </trkpt>
      <trkpt lat="48.81144" lon="1.99581">
        <ele>168</ele>
        <time>2014-07-26T09:48:22Z</time>
      </trkpt>
      <trkpt lat="48.81144" lon="1.99589">
        <ele>167</ele>
        <time>2014-07-26T09:48:26Z</time>
      </trkpt>
      <trkpt lat="48.81144" lon="1.99614">
        <ele>168</ele>
        <time>2014-07-26T09:48:38Z</time>
      </trkpt>
      <trkpt lat="48.81147" lon="1.99627">
        <ele>170</ele>
        <time>2014-07-26T09:48:45Z</time>
      </trkpt>
      <trkpt lat="48.81147" lon="1.99631">
        <ele>166</ele>
        <time>2014-07-26T09:49:09Z</time>
      </trkpt>
      <trkpt lat="48.81152" lon="1.99633">
        <ele>166</ele>
        <time>2014-07-26T09:49:13Z</time>
      </trkpt>
      <trkpt lat="48.81153" lon="1.99637">
        <ele>166</ele>
        <time>2014-07-26T09:49:25Z</time>
      </trkpt>
      <trkpt lat="48.81148" lon="1.99641">
        <ele>166</ele>
        <time>2014-07-26T09:49:29Z</time>
      </trkpt>
      <trkpt lat="48.81152" lon="1.99644">
        <ele>166</ele>
        <time>2014-07-26T09:49:40Z</time>
      </trkpt>
      <trkpt lat="48.81154" lon="1.99649">
        <ele>165</ele>
        <time>2014-07-26T09:49:54Z</time>
      </trkpt>
      <trkpt lat="48.81155" lon="1.99649">
        <ele>158</ele>
        <time>2014-07-26T09:50:54Z</time>
      </trkpt>
      <trkpt lat="48.81165" lon="1.99653">
        <ele>158</ele>
        <time>2014-07-26T09:51:02Z</time>
      </trkpt>
      <trkpt lat="48.8117" lon="1.99651">
        <ele>159</ele>
        <time>2014-07-26T09:51:06Z</time>
      </trkpt>
      <trkpt lat="48.81179" lon="1.99655">
        <ele>164</ele>
        <time>2014-07-26T09:51:16Z</time>
      </trkpt>
      <trkpt lat="48.81184" lon="1.99655">
        <ele>164</ele>
        <time>2014-07-26T09:51:22Z</time>
      </trkpt>
      <trkpt lat="48.81194" lon="1.99656">
        <ele>164</ele>
        <time>2014-07-26T09:51:30Z</time>
      </trkpt>
      <trkpt lat="48.81199" lon="1.99659">
        <ele>164</ele>
        <time>2014-07-26T09:51:35Z</time>
      </trkpt>
      <trkpt lat="48.81204" lon="1.9966">
        <ele>164</ele>
        <time>2014-07-26T09:51:42Z</time>
      </trkpt>
      <trkpt lat="48.81207" lon="1.99659">
        <ele>165</ele>
        <time>2014-07-26T09:51:48Z</time>
      </trkpt>
      <trkpt lat="48.81212" lon="1.99658">
        <ele>165</ele>
        <time>2014-07-26T09:51:54Z</time>
      </trkpt>
      <trkpt lat="48.81216" lon="1.9966">
        <ele>166</ele>
        <time>2014-07-26T09:51:58Z</time>
      </trkpt>
      <trkpt lat="48.81219" lon="1.99666">
        <ele>165</ele>
        <time>2014-07-26T09:52:01Z</time>
      </trkpt>
      <trkpt lat="48.81221" lon="1.9967">
        <ele>165</ele>
        <time>2014-07-26T09:52:09Z</time>
      </trkpt>
      <trkpt lat="48.81225" lon="1.99672">
        <ele>166</ele>
        <time>2014-07-26T09:52:18Z</time>
      </trkpt>
      <trkpt lat="48.81229" lon="1.99664">
        <ele>166</ele>
        <time>2014-07-26T09:52:53Z</time>
      </trkpt>
      <trkpt lat="48.81227" lon="1.99658">
        <ele>164</ele>
        <time>2014-07-26T09:53:00Z</time>
      </trkpt>
      <trkpt lat="48.81221" lon="1.99649">
        <ele>160</ele>
        <time>2014-07-26T09:53:14Z</time>
      </trkpt>
      <trkpt lat="48.81216" lon="1.99649">
        <ele>160</ele>
        <time>2014-07-26T09:53:29Z</time>
      </trkpt>
      <trkpt lat="48.81217" lon="1.99657">
        <ele>163</ele>
        <time>2014-07-26T09:54:11Z</time>
      </trkpt>
      <trkpt lat="48.81221" lon="1.99661">
        <ele>164</ele>
        <time>2014-07-26T09:54:35Z</time>
      </trkpt>
      <trkpt lat="48.81226" lon="1.99664">
        <ele>166</ele>
        <time>2014-07-26T09:54:39Z</time>
      </trkpt>
      <trkpt lat="48.81231" lon="1.99665">
        <ele>167</ele>
        <time>2014-07-26T09:54:43Z</time>
      </trkpt>
      <trkpt lat="48.81236" lon="1.99669">
        <ele>165</ele>
        <time>2014-07-26T09:54:50Z</time>
      </trkpt>
      <trkpt lat="48.8125" lon="1.99674">
        <ele>161</ele>
        <time>2014-07-26T09:55:08Z</time>
      </trkpt>
      <trkpt lat="48.81255" lon="1.99677">
        <ele>161</ele>
        <time>2014-07-26T09:55:14Z</time>
      </trkpt>
      <trkpt lat="48.81259" lon="1.99676">
        <ele>162</ele>
        <time>2014-07-26T09:55:18Z</time>
      </trkpt>
      <trkpt lat="48.81273" lon="1.99681">
        <ele>164</ele>
        <time>2014-07-26T09:55:36Z</time>
      </trkpt>
      <trkpt lat="48.81279" lon="1.99683">
        <ele>165</ele>
        <time>2014-07-26T09:55:42Z</time>
      </trkpt>
      <trkpt lat="48.8128" lon="1.99686">
        <ele>161</ele>
        <time>2014-07-26T09:55:49Z</time>
      </trkpt>
      <trkpt lat="48.81289" lon="1.99696">
        <ele>155</ele>
        <time>2014-07-26T09:56:10Z</time>
      </trkpt>
      <trkpt lat="48.8129" lon="1.99704">
        <ele>157</ele>
        <time>2014-07-26T09:56:15Z</time>
      </trkpt>
      <trkpt lat="48.81295" lon="1.99712">
        <ele>160</ele>
        <time>2014-07-26T09:56:26Z</time>
      </trkpt>
      <trkpt lat="48.81309" lon="1.99728">
        <ele>158</ele>
        <time>2014-07-26T09:56:36Z</time>
      </trkpt>
      <trkpt lat="48.81308" lon="1.99736">
        <ele>158</ele>
        <time>2014-07-26T09:56:42Z</time>
      </trkpt>
      <trkpt lat="48.81308" lon="1.99744">
        <ele>157</ele>
        <time>2014-07-26T09:56:47Z</time>
      </trkpt>
      <trkpt lat="48.81313" lon="1.99758">
        <ele>153</ele>
        <time>2014-07-26T09:56:59Z</time>
      </trkpt>
      <trkpt lat="48.81321" lon="1.99769">
        <ele>149</ele>
        <time>2014-07-26T09:57:06Z</time>
      </trkpt>
      <trkpt lat="48.8132" lon="1.99783">
        <ele>147</ele>
        <time>2014-07-26T09:57:15Z</time>
      </trkpt>
      <trkpt lat="48.81321" lon="1.9979">
        <ele>147</ele>
        <time>2014-07-26T09:57:22Z</time>
      </trkpt>
      <trkpt lat="48.81323" lon="1.99793">
        <ele>148</ele>
        <time>2014-07-26T09:57:33Z</time>
      </trkpt>
      <trkpt lat="48.81321" lon="1.99799">
        <ele>147</ele>
        <time>2014-07-26T09:57:40Z</time>
      </trkpt>
      <trkpt lat="48.81317" lon="1.99813">
        <ele>150</ele>
        <time>2014-07-26T09:57:50Z</time>
      </trkpt>
      <trkpt lat="48.81315" lon="1.9982">
        <ele>150</ele>
        <time>2014-07-26T09:57:53Z</time>
      </trkpt>
      <trkpt lat="48.81312" lon="1.99834">
        <ele>145</ele>
        <time>2014-07-26T09:58:04Z</time>
      </trkpt>
      <trkpt lat="48.81311" lon="1.9984">
        <ele>145</ele>
        <time>2014-07-26T09:58:07Z</time>
      </trkpt>
      <trkpt lat="48.813" lon="1.99865">
        <ele>141</ele>
        <time>2014-07-26T09:58:22Z</time>
      </trkpt>
      <trkpt lat="48.81297" lon="1.99872">
        <ele>141</ele>
        <time>2014-07-26T09:58:26Z</time>
      </trkpt>
      <trkpt lat="48.81294" lon="1.99886">
        <ele>139</ele>
        <time>2014-07-26T09:58:36Z</time>
      </trkpt>
      <trkpt lat="48.81294" lon="1.99894">
        <ele>139</ele>
        <time>2014-07-26T09:58:41Z</time>
      </trkpt>
      <trkpt lat="48.81298" lon="1.99915">
        <ele>135</ele>
        <time>2014-07-26T09:58:55Z</time>
      </trkpt>
      <trkpt lat="48.81299" lon="1.99923">
        <ele>135</ele>
        <time>2014-07-26T09:59:01Z</time>
      </trkpt>
      <trkpt lat="48.81301" lon="1.99939">
        <ele>139</ele>
        <time>2014-07-26T09:59:12Z</time>
      </trkpt>
      <trkpt lat="48.81302" lon="1.99945">
        <ele>140</ele>
        <time>2014-07-26T09:59:16Z</time>
      </trkpt>
      <trkpt lat="48.81312" lon="1.99964">
        <ele>136</ele>
        <time>2014-07-26T09:59:27Z</time>
      </trkpt>
      <trkpt lat="48.81314" lon="1.99972">
        <ele>136</ele>
        <time>2014-07-26T09:59:32Z</time>
      </trkpt>
      <trkpt lat="48.81318" lon="1.99986">
        <ele>137</ele>
        <time>2014-07-26T09:59:40Z</time>
      </trkpt>
      <trkpt lat="48.81317" lon="2">
        <ele>141</ele>
        <time>2014-07-26T09:59:48Z</time>
      </trkpt>
      <trkpt lat="48.81318" lon="2.00016">
        <ele>142</ele>
        <time>2014-07-26T09:59:58Z</time>
      </trkpt>
      <trkpt lat="48.81317" lon="2.00023">
        <ele>144</ele>
        <time>2014-07-26T10:00:01Z</time>
      </trkpt>
      <trkpt lat="48.81319" lon="2.00031">
        <ele>144</ele>
        <time>2014-07-26T10:00:06Z</time>
      </trkpt>
      <trkpt lat="48.81317" lon="2.00056">
        <ele>140</ele>
        <time>2014-07-26T10:00:13Z</time>
      </trkpt>
      <trkpt lat="48.81319" lon="2.00064">
        <ele>140</ele>
        <time>2014-07-26T10:00:16Z</time>
      </trkpt>
      <trkpt lat="48.8132" lon="2.00069">
        <ele>141</ele>
        <time>2014-07-26T10:00:24Z</time>
      </trkpt>
      <trkpt lat="48.81323" lon="2.00077">
        <ele>142</ele>
        <time>2014-07-26T10:00:29Z</time>
      </trkpt>
      <trkpt lat="48.81329" lon="2.00083">
        <ele>142</ele>
        <time>2014-07-26T10:00:31Z</time>
      </trkpt>
      <trkpt lat="48.8133" lon="2.0009">
        <ele>147</ele>
        <time>2014-07-26T10:00:34Z</time>
      </trkpt>
      <trkpt lat="48.81331" lon="2.00127">
        <ele>162</ele>
        <time>2014-07-26T10:00:56Z</time>
      </trkpt>
      <trkpt lat="48.81333" lon="2.00134">
        <ele>162</ele>
        <time>2014-07-26T10:00:59Z</time>
      </trkpt>
      <trkpt lat="48.81339" lon="2.00148">
        <ele>160</ele>
        <time>2014-07-26T10:01:07Z</time>
      </trkpt>
      <trkpt lat="48.8134" lon="2.00162">
        <ele>158</ele>
        <time>2014-07-26T10:01:17Z</time>
      </trkpt>
      <trkpt lat="48.8134" lon="2.0017">
        <ele>158</ele>
        <time>2014-07-26T10:01:22Z</time>
      </trkpt>
      <trkpt lat="48.81343" lon="2.00177">
        <ele>158</ele>
        <time>2014-07-26T10:01:26Z</time>
      </trkpt>
      <trkpt lat="48.81347" lon="2.00184">
        <ele>157</ele>
        <time>2014-07-26T10:01:29Z</time>
      </trkpt>
      <trkpt lat="48.81345" lon="2.00192">
        <ele>158</ele>
        <time>2014-07-26T10:01:32Z</time>
      </trkpt>
      <trkpt lat="48.81344" lon="2.00199">
        <ele>160</ele>
        <time>2014-07-26T10:01:36Z</time>
      </trkpt>
      <trkpt lat="48.81347" lon="2.00204">
        <ele>160</ele>
        <time>2014-07-26T10:01:40Z</time>
      </trkpt>
      <trkpt lat="48.81356" lon="2.00221">
        <ele>157</ele>
        <time>2014-07-26T10:01:50Z</time>
      </trkpt>
      <trkpt lat="48.81358" lon="2.00228">
        <ele>156</ele>
        <time>2014-07-26T10:01:56Z</time>
      </trkpt>
      <trkpt lat="48.81358" lon="2.00237">
        <ele>157</ele>
        <time>2014-07-26T10:01:59Z</time>
      </trkpt>
      <trkpt lat="48.81363" lon="2.00263">
        <ele>161</ele>
        <time>2014-07-26T10:02:17Z</time>
      </trkpt>
      <trkpt lat="48.81372" lon="2.00282">
        <ele>155</ele>
        <time>2014-07-26T10:02:26Z</time>
      </trkpt>
      <trkpt lat="48.81376" lon="2.00289">
        <ele>155</ele>
        <time>2014-07-26T10:02:29Z</time>
      </trkpt>
      <trkpt lat="48.81379" lon="2.00294">
        <ele>156</ele>
        <time>2014-07-26T10:02:33Z</time>
      </trkpt>
      <trkpt lat="48.81385" lon="2.00307">
        <ele>154</ele>
        <time>2014-07-26T10:02:40Z</time>
      </trkpt>
      <trkpt lat="48.81388" lon="2.00312">
        <ele>154</ele>
        <time>2014-07-26T10:02:45Z</time>
      </trkpt>
      <trkpt lat="48.8139" lon="2.00319">
        <ele>153</ele>
        <time>2014-07-26T10:02:49Z</time>
      </trkpt>
      <trkpt lat="48.8139" lon="2.00326">
        <ele>153</ele>
        <time>2014-07-26T10:02:55Z</time>
      </trkpt>
      <trkpt lat="48.81391" lon="2.00333">
        <ele>153</ele>
        <time>2014-07-26T10:02:58Z</time>
      </trkpt>
      <trkpt lat="48.81393" lon="2.00349">
        <ele>151</ele>
        <time>2014-07-26T10:03:07Z</time>
      </trkpt>
      <trkpt lat="48.81395" lon="2.00356">
        <ele>151</ele>
        <time>2014-07-26T10:03:12Z</time>
      </trkpt>
      <trkpt lat="48.81407" lon="2.00397">
        <ele>147</ele>
        <time>2014-07-26T10:03:35Z</time>
      </trkpt>
      <trkpt lat="48.8141" lon="2.00401">
        <ele>147</ele>
        <time>2014-07-26T10:03:39Z</time>
      </trkpt>
      <trkpt lat="48.81412" lon="2.00408">
        <ele>147</ele>
        <time>2014-07-26T10:03:43Z</time>
      </trkpt>
      <trkpt lat="48.81416" lon="2.0042">
        <ele>146</ele>
        <time>2014-07-26T10:03:49Z</time>
      </trkpt>
      <trkpt lat="48.81419" lon="2.00427">
        <ele>146</ele>
        <time>2014-07-26T10:03:52Z</time>
      </trkpt>
      <trkpt lat="48.81422" lon="2.00433">
        <ele>147</ele>
        <time>2014-07-26T10:03:55Z</time>
      </trkpt>
      <trkpt lat="48.81425" lon="2.00439">
        <ele>147</ele>
        <time>2014-07-26T10:03:59Z</time>
      </trkpt>
      <trkpt lat="48.81426" lon="2.00446">
        <ele>147</ele>
        <time>2014-07-26T10:04:04Z</time>
      </trkpt>
      <trkpt lat="48.81421" lon="2.00461">
        <ele>150</ele>
        <time>2014-07-26T10:04:12Z</time>
      </trkpt>
      <trkpt lat="48.81423" lon="2.00478">
        <ele>151</ele>
        <time>2014-07-26T10:04:22Z</time>
      </trkpt>
      <trkpt lat="48.81423" lon="2.00486">
        <ele>151</ele>
        <time>2014-07-26T10:04:25Z</time>
      </trkpt>
      <trkpt lat="48.81425" lon="2.00515">
        <ele>146</ele>
        <time>2014-07-26T10:04:40Z</time>
      </trkpt>
      <trkpt lat="48.81426" lon="2.00522">
        <ele>146</ele>
        <time>2014-07-26T10:04:43Z</time>
      </trkpt>
      <trkpt lat="48.81427" lon="2.00529">
        <ele>147</ele>
        <time>2014-07-26T10:04:49Z</time>
      </trkpt>
      <trkpt lat="48.81426" lon="2.00536">
        <ele>148</ele>
        <time>2014-07-26T10:04:56Z</time>
      </trkpt>
      <trkpt lat="48.81431" lon="2.0055">
        <ele>147</ele>
        <time>2014-07-26T10:05:07Z</time>
      </trkpt>
      <trkpt lat="48.81435" lon="2.00564">
        <ele>147</ele>
        <time>2014-07-26T10:05:14Z</time>
      </trkpt>
      <trkpt lat="48.81437" lon="2.00571">
        <ele>146</ele>
        <time>2014-07-26T10:05:17Z</time>
      </trkpt>
      <trkpt lat="48.81451" lon="2.00624">
        <ele>135</ele>
        <time>2014-07-26T10:05:51Z</time>
      </trkpt>
      <trkpt lat="48.81455" lon="2.00622">
        <ele>134</ele>
        <time>2014-07-26T10:06:00Z</time>
      </trkpt>
      <trkpt lat="48.81455" lon="2.00632">
        <ele>134</ele>
        <time>2014-07-26T10:06:25Z</time>
      </trkpt>
      <trkpt lat="48.81453" lon="2.00656">
        <ele>142</ele>
        <time>2014-07-26T10:06:40Z</time>
      </trkpt>
      <trkpt lat="48.81456" lon="2.00661">
        <ele>143</ele>
        <time>2014-07-26T10:06:45Z</time>
      </trkpt>
      <trkpt lat="48.81465" lon="2.00678">
        <ele>138</ele>
        <time>2014-07-26T10:06:57Z</time>
      </trkpt>
      <trkpt lat="48.81467" lon="2.00693">
        <ele>135</ele>
        <time>2014-07-26T10:07:05Z</time>
      </trkpt>
      <trkpt lat="48.81468" lon="2.007">
        <ele>135</ele>
        <time>2014-07-26T10:07:11Z</time>
      </trkpt>
      <trkpt lat="48.81464" lon="2.00703">
        <ele>135</ele>
        <time>2014-07-26T10:07:23Z</time>
      </trkpt>
      <trkpt lat="48.81464" lon="2.00711">
        <ele>138</ele>
        <time>2014-07-26T10:07:33Z</time>
      </trkpt>
      <trkpt lat="48.81467" lon="2.00716">
        <ele>138</ele>
        <time>2014-07-26T10:07:38Z</time>
      </trkpt>
      <trkpt lat="48.81484" lon="2.00745">
        <ele>134</ele>
        <time>2014-07-26T10:07:55Z</time>
      </trkpt>
      <trkpt lat="48.81484" lon="2.00752">
        <ele>134</ele>
        <time>2014-07-26T10:07:59Z</time>
      </trkpt>
      <trkpt lat="48.81483" lon="2.00767">
        <ele>134</ele>
        <time>2014-07-26T10:08:05Z</time>
      </trkpt>
      <trkpt lat="48.81485" lon="2.00774">
        <ele>134</ele>
        <time>2014-07-26T10:08:10Z</time>
      </trkpt>
      <trkpt lat="48.81487" lon="2.00782">
        <ele>132</ele>
        <time>2014-07-26T10:08:15Z</time>
      </trkpt>
      <trkpt lat="48.81487" lon="2.00789">
        <ele>131</ele>
        <time>2014-07-26T10:08:21Z</time>
      </trkpt>
      <trkpt lat="48.8149" lon="2.00795">
        <ele>132</ele>
        <time>2014-07-26T10:08:26Z</time>
      </trkpt>
      <trkpt lat="48.81489" lon="2.00803">
        <ele>133</ele>
        <time>2014-07-26T10:08:33Z</time>
      </trkpt>
      <trkpt lat="48.81493" lon="2.00815">
        <ele>131</ele>
        <time>2014-07-26T10:08:43Z</time>
      </trkpt>
      <trkpt lat="48.81493" lon="2.00822">
        <ele>131</ele>
        <time>2014-07-26T10:08:49Z</time>
      </trkpt>
      <trkpt lat="48.81496" lon="2.00837">
        <ele>133</ele>
        <time>2014-07-26T10:08:59Z</time>
      </trkpt>
      <trkpt lat="48.81492" lon="2.00842">
        <ele>132</ele>
        <time>2014-07-26T10:09:03Z</time>
      </trkpt>
      <trkpt lat="48.81487" lon="2.00844">
        <ele>131</ele>
        <time>2014-07-26T10:09:08Z</time>
      </trkpt>
      <trkpt lat="48.81478" lon="2.00843">
        <ele>130</ele>
        <time>2014-07-26T10:09:16Z</time>
      </trkpt>
      <trkpt lat="48.81473" lon="2.00845">
        <ele>130</ele>
        <time>2014-07-26T10:09:21Z</time>
      </trkpt>
      <trkpt lat="48.8147" lon="2.00851">
        <ele>130</ele>
        <time>2014-07-26T10:09:24Z</time>
      </trkpt>
      <trkpt lat="48.81465" lon="2.00855">
        <ele>130</ele>
        <time>2014-07-26T10:09:28Z</time>
      </trkpt>
      <trkpt lat="48.81461" lon="2.00857">
        <ele>132</ele>
        <time>2014-07-26T10:09:36Z</time>
      </trkpt>
      <trkpt lat="48.81456" lon="2.00859">
        <ele>132</ele>
        <time>2014-07-26T10:09:40Z</time>
      </trkpt>
      <trkpt lat="48.81442" lon="2.00864">
        <ele>127</ele>
        <time>2014-07-26T10:09:57Z</time>
      </trkpt>
      <trkpt lat="48.81437" lon="2.00863">
        <ele>128</ele>
        <time>2014-07-26T10:10:02Z</time>
      </trkpt>
      <trkpt lat="48.81433" lon="2.00864">
        <ele>128</ele>
        <time>2014-07-26T10:10:07Z</time>
      </trkpt>
      <trkpt lat="48.81427" lon="2.00866">
        <ele>127</ele>
        <time>2014-07-26T10:10:12Z</time>
      </trkpt>
      <trkpt lat="48.81422" lon="2.00869">
        <ele>128</ele>
        <time>2014-07-26T10:10:15Z</time>
      </trkpt>
      <trkpt lat="48.81398" lon="2.0087">
        <ele>139</ele>
        <time>2014-07-26T10:10:48Z</time>
      </trkpt>
      <trkpt lat="48.81393" lon="2.00869">
        <ele>141</ele>
        <time>2014-07-26T10:10:52Z</time>
      </trkpt>
      <trkpt lat="48.81387" lon="2.00871">
        <ele>141</ele>
        <time>2014-07-26T10:10:59Z</time>
      </trkpt>
      <trkpt lat="48.81382" lon="2.00869">
        <ele>142</ele>
        <time>2014-07-26T10:11:03Z</time>
      </trkpt>
      <trkpt lat="48.81377" lon="2.0087">
        <ele>143</ele>
        <time>2014-07-26T10:11:10Z</time>
      </trkpt>
      <trkpt lat="48.81367" lon="2.00873">
        <ele>144</ele>
        <time>2014-07-26T10:11:20Z</time>
      </trkpt>
      <trkpt lat="48.81362" lon="2.00875">
        <ele>143</ele>
        <time>2014-07-26T10:11:26Z</time>
      </trkpt>
      <trkpt lat="48.81364" lon="2.00882">
        <ele>142</ele>
        <time>2014-07-26T10:11:33Z</time>
      </trkpt>
      <trkpt lat="48.81364" lon="2.00886">
        <ele>143</ele>
        <time>2014-07-26T10:11:40Z</time>
      </trkpt>
      <trkpt lat="48.81363" lon="2.0089">
        <ele>145</ele>
        <time>2014-07-26T10:12:09Z</time>
      </trkpt>
      <trkpt lat="48.81366" lon="2.00897">
        <ele>145</ele>
        <time>2014-07-26T10:12:14Z</time>
      </trkpt>
      <trkpt lat="48.8137" lon="2.00903">
        <ele>147</ele>
        <time>2014-07-26T10:12:18Z</time>
      </trkpt>
      <trkpt lat="48.81379" lon="2.00914">
        <ele>147</ele>
        <time>2014-07-26T10:12:25Z</time>
      </trkpt>
      <trkpt lat="48.81385" lon="2.00924">
        <ele>146</ele>
        <time>2014-07-26T10:12:32Z</time>
      </trkpt>
      <trkpt lat="48.81386" lon="2.00931">
        <ele>146</ele>
        <time>2014-07-26T10:12:36Z</time>
      </trkpt>
      <trkpt lat="48.81381" lon="2.00936">
        <ele>144</ele>
        <time>2014-07-26T10:12:40Z</time>
      </trkpt>
      <trkpt lat="48.81385" lon="2.00942">
        <ele>144</ele>
        <time>2014-07-26T10:12:45Z</time>
      </trkpt>
      <trkpt lat="48.81393" lon="2.00956">
        <ele>147</ele>
        <time>2014-07-26T10:13:00Z</time>
      </trkpt>
      <trkpt lat="48.81398" lon="2.00953">
        <ele>147</ele>
        <time>2014-07-26T10:13:07Z</time>
      </trkpt>
      <trkpt lat="48.81401" lon="2.00959">
        <ele>147</ele>
        <time>2014-07-26T10:13:11Z</time>
      </trkpt>
      <trkpt lat="48.81403" lon="2.00975">
        <ele>146</ele>
        <time>2014-07-26T10:13:18Z</time>
      </trkpt>
      <trkpt lat="48.81399" lon="2.00982">
        <ele>145</ele>
        <time>2014-07-26T10:13:24Z</time>
      </trkpt>
      <trkpt lat="48.814" lon="2.0099">
        <ele>145</ele>
        <time>2014-07-26T10:13:30Z</time>
      </trkpt>
      <trkpt lat="48.81402" lon="2.00997">
        <ele>147</ele>
        <time>2014-07-26T10:13:35Z</time>
      </trkpt>
      <trkpt lat="48.81404" lon="2.01003">
        <ele>147</ele>
        <time>2014-07-26T10:13:40Z</time>
      </trkpt>
      <trkpt lat="48.81406" lon="2.0101">
        <ele>146</ele>
        <time>2014-07-26T10:13:45Z</time>
      </trkpt>
      <trkpt lat="48.8141" lon="2.01017">
        <ele>147</ele>
        <time>2014-07-26T10:13:50Z</time>
      </trkpt>
      <trkpt lat="48.8141" lon="2.01025">
        <ele>147</ele>
        <time>2014-07-26T10:13:55Z</time>
      </trkpt>
      <trkpt lat="48.81413" lon="2.01034">
        <ele>146</ele>
        <time>2014-07-26T10:13:59Z</time>
      </trkpt>
      <trkpt lat="48.81416" lon="2.0104">
        <ele>145</ele>
        <time>2014-07-26T10:14:03Z</time>
      </trkpt>
      <trkpt lat="48.8142" lon="2.01046">
        <ele>145</ele>
        <time>2014-07-26T10:14:08Z</time>
      </trkpt>
      <trkpt lat="48.81425" lon="2.01052">
        <ele>144</ele>
        <time>2014-07-26T10:14:16Z</time>
      </trkpt>
      <trkpt lat="48.81427" lon="2.01059">
        <ele>144</ele>
        <time>2014-07-26T10:14:22Z</time>
      </trkpt>
      <trkpt lat="48.81427" lon="2.01067">
        <ele>144</ele>
        <time>2014-07-26T10:14:27Z</time>
      </trkpt>
      <trkpt lat="48.81431" lon="2.01072">
        <ele>144</ele>
        <time>2014-07-26T10:14:30Z</time>
      </trkpt>
      <trkpt lat="48.81441" lon="2.01077">
        <ele>143</ele>
        <time>2014-07-26T10:14:38Z</time>
      </trkpt>
      <trkpt lat="48.81448" lon="2.01089">
        <ele>144</ele>
        <time>2014-07-26T10:14:46Z</time>
      </trkpt>
      <trkpt lat="48.81448" lon="2.01097">
        <ele>145</ele>
        <time>2014-07-26T10:14:52Z</time>
      </trkpt>
      <trkpt lat="48.81449" lon="2.01104">
        <ele>146</ele>
        <time>2014-07-26T10:14:56Z</time>
      </trkpt>
      <trkpt lat="48.81453" lon="2.01125">
        <ele>144</ele>
        <time>2014-07-26T10:15:07Z</time>
      </trkpt>
      <trkpt lat="48.81456" lon="2.01131">
        <ele>139</ele>
        <time>2014-07-26T10:15:12Z</time>
      </trkpt>
      <trkpt lat="48.8146" lon="2.01138">
        <ele>139</ele>
        <time>2014-07-26T10:15:16Z</time>
      </trkpt>
      <trkpt lat="48.81472" lon="2.01152">
        <ele>138</ele>
        <time>2014-07-26T10:15:28Z</time>
      </trkpt>
      <trkpt lat="48.81479" lon="2.01163">
        <ele>141</ele>
        <time>2014-07-26T10:15:34Z</time>
      </trkpt>
      <trkpt lat="48.8148" lon="2.0117">
        <ele>142</ele>
        <time>2014-07-26T10:15:38Z</time>
      </trkpt>
      <trkpt lat="48.8148" lon="2.01181">
        <ele>144</ele>
        <time>2014-07-26T10:15:49Z</time>
      </trkpt>
      <trkpt lat="48.81483" lon="2.01187">
        <ele>146</ele>
        <time>2014-07-26T10:15:54Z</time>
      </trkpt>
      <trkpt lat="48.81483" lon="2.01194">
        <ele>147</ele>
        <time>2014-07-26T10:16:02Z</time>
      </trkpt>
      <trkpt lat="48.81494" lon="2.0123">
        <ele>156</ele>
        <time>2014-07-26T10:16:26Z</time>
      </trkpt>
      <trkpt lat="48.81498" lon="2.01235">
        <ele>156</ele>
        <time>2014-07-26T10:16:30Z</time>
      </trkpt>
      <trkpt lat="48.81502" lon="2.01238">
        <ele>157</ele>
        <time>2014-07-26T10:16:35Z</time>
      </trkpt>
      <trkpt lat="48.81502" lon="2.01246">
        <ele>157</ele>
        <time>2014-07-26T10:16:42Z</time>
      </trkpt>
      <trkpt lat="48.81497" lon="2.01248">
        <ele>156</ele>
        <time>2014-07-26T10:16:47Z</time>
      </trkpt>
      <trkpt lat="48.81472" lon="2.01263">
        <ele>144</ele>
        <time>2014-07-26T10:17:21Z</time>
      </trkpt>
      <trkpt lat="48.81467" lon="2.0126">
        <ele>143</ele>
        <time>2014-07-26T10:17:26Z</time>
      </trkpt>
      <trkpt lat="48.81463" lon="2.01257">
        <ele>144</ele>
        <time>2014-07-26T10:17:32Z</time>
      </trkpt>
      <trkpt lat="48.81448" lon="2.01246">
        <ele>156</ele>
        <time>2014-07-26T10:18:03Z</time>
      </trkpt>
      <trkpt lat="48.81431" lon="2.01233">
        <ele>161</ele>
        <time>2014-07-26T10:18:23Z</time>
      </trkpt>
      <trkpt lat="48.81423" lon="2.01225">
        <ele>161</ele>
        <time>2014-07-26T10:18:31Z</time>
      </trkpt>
      <trkpt lat="48.81408" lon="2.01217">
        <ele>157</ele>
        <time>2014-07-26T10:18:39Z</time>
      </trkpt>
      <trkpt lat="48.81404" lon="2.01212">
        <ele>158</ele>
        <time>2014-07-26T10:18:43Z</time>
      </trkpt>
      <trkpt lat="48.814" lon="2.01209">
        <ele>158</ele>
        <time>2014-07-26T10:18:48Z</time>
      </trkpt>
      <trkpt lat="48.81394" lon="2.01205">
        <ele>159</ele>
        <time>2014-07-26T10:18:51Z</time>
      </trkpt>
      <trkpt lat="48.8137" lon="2.01198">
        <ele>167</ele>
        <time>2014-07-26T10:19:07Z</time>
      </trkpt>
      <trkpt lat="48.81365" lon="2.01196">
        <ele>167</ele>
        <time>2014-07-26T10:19:11Z</time>
      </trkpt>
      <trkpt lat="48.8136" lon="2.01195">
        <ele>168</ele>
        <time>2014-07-26T10:19:16Z</time>
      </trkpt>
      <trkpt lat="48.81359" lon="2.01189">
        <ele>168</ele>
        <time>2014-07-26T10:19:30Z</time>
      </trkpt>
      <trkpt lat="48.81355" lon="2.01185">
        <ele>169</ele>
        <time>2014-07-26T10:19:38Z</time>
      </trkpt>
      <trkpt lat="48.8135" lon="2.01187">
        <ele>169</ele>
        <time>2014-07-26T10:19:40Z</time>
      </trkpt>
      <trkpt lat="48.81321" lon="2.01192">
        <ele>166</ele>
        <time>2014-07-26T10:19:58Z</time>
      </trkpt>
      <trkpt lat="48.8131" lon="2.01193">
        <ele>168</ele>
        <time>2014-07-26T10:20:05Z</time>
      </trkpt>
      <trkpt lat="48.81303" lon="2.01203">
        <ele>171</ele>
        <time>2014-07-26T10:20:16Z</time>
      </trkpt>
      <trkpt lat="48.81298" lon="2.01205">
        <ele>171</ele>
        <time>2014-07-26T10:20:19Z</time>
      </trkpt>
      <trkpt lat="48.81283" lon="2.01208">
        <ele>170</ele>
        <time>2014-07-26T10:20:28Z</time>
      </trkpt>
      <trkpt lat="48.81278" lon="2.01208">
        <ele>173</ele>
        <time>2014-07-26T10:20:31Z</time>
      </trkpt>
      <trkpt lat="48.81272" lon="2.01208">
        <ele>174</ele>
        <time>2014-07-26T10:20:34Z</time>
      </trkpt>
      <trkpt lat="48.81262" lon="2.01207">
        <ele>174</ele>
        <time>2014-07-26T10:20:40Z</time>
      </trkpt>
      <trkpt lat="48.81258" lon="2.0121">
        <ele>175</ele>
        <time>2014-07-26T10:20:45Z</time>
      </trkpt>
      <trkpt lat="48.81253" lon="2.01212">
        <ele>175</ele>
        <time>2014-07-26T10:20:48Z</time>
      </trkpt>
      <trkpt lat="48.81248" lon="2.01215">
        <ele>174</ele>
        <time>2014-07-26T10:20:51Z</time>
      </trkpt>
      <trkpt lat="48.81244" lon="2.01218">
        <ele>174</ele>
        <time>2014-07-26T10:20:55Z</time>
      </trkpt>
      <trkpt lat="48.81234" lon="2.01221">
        <ele>173</ele>
        <time>2014-07-26T10:21:01Z</time>
      </trkpt>
      <trkpt lat="48.81222" lon="2.01228">
        <ele>176</ele>
        <time>2014-07-26T10:21:13Z</time>
      </trkpt>
      <trkpt lat="48.8122" lon="2.01236">
        <ele>177</ele>
        <time>2014-07-26T10:21:17Z</time>
      </trkpt>
      <trkpt lat="48.81215" lon="2.01239">
        <ele>178</ele>
        <time>2014-07-26T10:21:19Z</time>
      </trkpt>
      <trkpt lat="48.81188" lon="2.01256">
        <ele>174</ele>
        <time>2014-07-26T10:21:37Z</time>
      </trkpt>
      <trkpt lat="48.81183" lon="2.0126">
        <ele>174</ele>
        <time>2014-07-26T10:21:41Z</time>
      </trkpt>
      <trkpt lat="48.81177" lon="2.0126">
        <ele>174</ele>
        <time>2014-07-26T10:21:45Z</time>
      </trkpt>
      <trkpt lat="48.81172" lon="2.01258">
        <ele>173</ele>
        <time>2014-07-26T10:21:48Z</time>
      </trkpt>
      <trkpt lat="48.81167" lon="2.01259">
        <ele>172</ele>
        <time>2014-07-26T10:21:51Z</time>
      </trkpt>
      <trkpt lat="48.81164" lon="2.01261">
        <ele>173</ele>
        <time>2014-07-26T10:22:08Z</time>
      </trkpt>
      <trkpt lat="48.81156" lon="2.0127">
        <ele>173</ele>
        <time>2014-07-26T10:22:13Z</time>
      </trkpt>
      <trkpt lat="48.81147" lon="2.01281">
        <ele>173</ele>
        <time>2014-07-26T10:22:16Z</time>
      </trkpt>
      <trkpt lat="48.81141" lon="2.01282">
        <ele>172</ele>
        <time>2014-07-26T10:22:18Z</time>
      </trkpt>
      <trkpt lat="48.8114" lon="2.0128">
        <ele>172</ele>
        <time>2014-07-26T10:22:19Z</time>
      </trkpt>
      <trkpt lat="48.8113" lon="2.01287">
        <ele>176</ele>
        <time>2014-07-26T10:22:30Z</time>
      </trkpt>
      <trkpt lat="48.81126" lon="2.01281">
        <ele>179</ele>
        <time>2014-07-26T10:22:37Z</time>
      </trkpt>
      <trkpt lat="48.81121" lon="2.0128">
        <ele>182</ele>
        <time>2014-07-26T10:22:42Z</time>
      </trkpt>
      <trkpt lat="48.81116" lon="2.01282">
        <ele>182</ele>
        <time>2014-07-26T10:22:45Z</time>
      </trkpt>
      <trkpt lat="48.81112" lon="2.01283">
        <ele>182</ele>
        <time>2014-07-26T10:22:49Z</time>
      </trkpt>
      <trkpt lat="48.81102" lon="2.01284">
        <ele>183</ele>
        <time>2014-07-26T10:22:57Z</time>
      </trkpt>
      <trkpt lat="48.81088" lon="2.0128">
        <ele>184</ele>
        <time>2014-07-26T10:23:13Z</time>
      </trkpt>
      <trkpt lat="48.81083" lon="2.01278">
        <ele>185</ele>
        <time>2014-07-26T10:23:17Z</time>
      </trkpt>
      <trkpt lat="48.81079" lon="2.01279">
        <ele>185</ele>
        <time>2014-07-26T10:23:21Z</time>
      </trkpt>
      <trkpt lat="48.81074" lon="2.01282">
        <ele>185</ele>
        <time>2014-07-26T10:23:28Z</time>
      </trkpt>
      <trkpt lat="48.81063" lon="2.01282">
        <ele>184</ele>
        <time>2014-07-26T10:23:36Z</time>
      </trkpt>
      <trkpt lat="48.81052" lon="2.01285">
        <ele>186</ele>
        <time>2014-07-26T10:23:42Z</time>
      </trkpt>
      <trkpt lat="48.81048" lon="2.01289">
        <ele>187</ele>
        <time>2014-07-26T10:23:45Z</time>
      </trkpt>
      <trkpt lat="48.81044" lon="2.01292">
        <ele>188</ele>
        <time>2014-07-26T10:23:50Z</time>
      </trkpt>
      <trkpt lat="48.81039" lon="2.0129">
        <ele>190</ele>
        <time>2014-07-26T10:23:56Z</time>
      </trkpt>
      <trkpt lat="48.81039" lon="2.01281">
        <ele>190</ele>
        <time>2014-07-26T10:24:06Z</time>
      </trkpt>
      <trkpt lat="48.81035" lon="2.01276">
        <ele>189</ele>
        <time>2014-07-26T10:24:10Z</time>
      </trkpt>
      <trkpt lat="48.81021" lon="2.01267">
        <ele>185</ele>
        <time>2014-07-26T10:24:21Z</time>
      </trkpt>
      <trkpt lat="48.81022" lon="2.0126">
        <ele>179</ele>
        <time>2014-07-26T10:24:29Z</time>
      </trkpt>
      <trkpt lat="48.81017" lon="2.01257">
        <ele>178</ele>
        <time>2014-07-26T10:24:34Z</time>
      </trkpt>
      <trkpt lat="48.81014" lon="2.01265">
        <ele>174</ele>
        <time>2014-07-26T10:24:41Z</time>
      </trkpt>
      <trkpt lat="48.8101" lon="2.01268">
        <ele>173</ele>
        <time>2014-07-26T10:26:33Z</time>
      </trkpt>
      <trkpt lat="48.81012" lon="2.01263">
        <ele>173</ele>
        <time>2014-07-26T10:27:06Z</time>
      </trkpt>
      <trkpt lat="48.81014" lon="2.01271">
        <ele>173</ele>
        <time>2014-07-26T10:27:34Z</time>
      </trkpt>
      <trkpt lat="48.81018" lon="2.01268">
        <ele>173</ele>
        <time>2014-07-26T10:27:49Z</time>
      </trkpt>
      <trkpt lat="48.81022" lon="2.01267">
        <ele>174</ele>
        <time>2014-07-26T10:28:30Z</time>
      </trkpt>
      <trkpt lat="48.81021" lon="2.0126">
        <ele>173</ele>
        <time>2014-07-26T10:28:43Z</time>
      </trkpt>
      <trkpt lat="48.81023" lon="2.01254">
        <ele>172</ele>
        <time>2014-07-26T10:29:08Z</time>
      </trkpt>
      <trkpt lat="48.81018" lon="2.01253">
        <ele>172</ele>
        <time>2014-07-26T10:29:15Z</time>
      </trkpt>
      <trkpt lat="48.81016" lon="2.01251">
        <ele>172</ele>
        <time>2014-07-26T10:29:21Z</time>
      </trkpt>
      <trkpt lat="48.81015" lon="2.01255">
        <ele>171</ele>
        <time>2014-07-26T10:44:39Z</time>
      </trkpt>
      <trkpt lat="48.81007" lon="2.01264">
        <ele>171</ele>
        <time>2014-07-26T10:45:01Z</time>
      </trkpt>
      <trkpt lat="48.81011" lon="2.01265">
        <ele>171</ele>
        <time>2014-07-26T10:45:34Z</time>
      </trkpt>
      <trkpt lat="48.81015" lon="2.01262">
        <ele>171</ele>
        <time>2014-07-26T10:45:50Z</time>
      </trkpt>
      <trkpt lat="48.81014" lon="2.01256">
        <ele>177</ele>
        <time>2014-07-26T10:48:25Z</time>
      </trkpt>
      <trkpt lat="48.81012" lon="2.0126">
        <ele>177</ele>
        <time>2014-07-26T10:49:36Z</time>
      </trkpt>
      <trkpt lat="48.81006" lon="2.01269">
        <ele>179</ele>
        <time>2014-07-26T10:50:20Z</time>
      </trkpt>
      <trkpt lat="48.81013" lon="2.01271">
        <ele>180</ele>
        <time>2014-07-26T10:50:53Z</time>
      </trkpt>
      <trkpt lat="48.81016" lon="2.01264">
        <ele>180</ele>
        <time>2014-07-26T10:51:03Z</time>
      </trkpt>
      <trkpt lat="48.81015" lon="2.0126">
        <ele>179</ele>
        <time>2014-07-26T10:53:17Z</time>
      </trkpt>
      <trkpt lat="48.81019" lon="2.01258">
        <ele>180</ele>
        <time>2014-07-26T10:53:33Z</time>
      </trkpt>
      <trkpt lat="48.81021" lon="2.01252">
        <ele>184</ele>
        <time>2014-07-26T11:05:53Z</time>
      </trkpt>
      <trkpt lat="48.81018" lon="2.01247">
        <ele>184</ele>
        <time>2014-07-26T11:05:57Z</time>
      </trkpt>
      <trkpt lat="48.81013" lon="2.01245">
        <ele>182</ele>
        <time>2014-07-26T11:06:03Z</time>
      </trkpt>
      <trkpt lat="48.81008" lon="2.01245">
        <ele>181</ele>
        <time>2014-07-26T11:06:07Z</time>
      </trkpt>
      <trkpt lat="48.81004" lon="2.01241">
        <ele>179</ele>
        <time>2014-07-26T11:06:11Z</time>
      </trkpt>
      <trkpt lat="48.81" lon="2.01236">
        <ele>180</ele>
        <time>2014-07-26T11:06:16Z</time>
      </trkpt>
      <trkpt lat="48.81001" lon="2.01228">
        <ele>181</ele>
        <time>2014-07-26T11:06:22Z</time>
      </trkpt>
      <trkpt lat="48.81004" lon="2.01222">
        <ele>182</ele>
        <time>2014-07-26T11:06:26Z</time>
      </trkpt>
      <trkpt lat="48.81005" lon="2.01215">
        <ele>183</ele>
        <time>2014-07-26T11:06:34Z</time>
      </trkpt>
      <trkpt lat="48.81003" lon="2.01201">
        <ele>183</ele>
        <time>2014-07-26T11:06:45Z</time>
      </trkpt>
      <trkpt lat="48.81012" lon="2.01154">
        <ele>176</ele>
        <time>2014-07-26T11:07:02Z</time>
      </trkpt>
      <trkpt lat="48.81018" lon="2.0114">
        <ele>170</ele>
        <time>2014-07-26T11:07:11Z</time>
      </trkpt>
      <trkpt lat="48.81018" lon="2.01135">
        <ele>167</ele>
        <time>2014-07-26T11:07:20Z</time>
      </trkpt>
      <trkpt lat="48.81023" lon="2.01129">
        <ele>167</ele>
        <time>2014-07-26T11:07:24Z</time>
      </trkpt>
      <trkpt lat="48.81027" lon="2.01121">
        <ele>170</ele>
        <time>2014-07-26T11:07:28Z</time>
      </trkpt>
      <trkpt lat="48.81029" lon="2.01105">
        <ele>169</ele>
        <time>2014-07-26T11:07:37Z</time>
      </trkpt>
      <trkpt lat="48.81032" lon="2.011">
        <ele>169</ele>
        <time>2014-07-26T11:07:40Z</time>
      </trkpt>
      <trkpt lat="48.81034" lon="2.01091">
        <ele>169</ele>
        <time>2014-07-26T11:07:43Z</time>
      </trkpt>
      <trkpt lat="48.81036" lon="2.01084">
        <ele>169</ele>
        <time>2014-07-26T11:07:48Z</time>
      </trkpt>
      <trkpt lat="48.81041" lon="2.01047">
        <ele>177</ele>
        <time>2014-07-26T11:08:08Z</time>
      </trkpt>
      <trkpt lat="48.81046" lon="2.01035">
        <ele>175</ele>
        <time>2014-07-26T11:08:16Z</time>
      </trkpt>
      <trkpt lat="48.81046" lon="2.01028">
        <ele>173</ele>
        <time>2014-07-26T11:08:20Z</time>
      </trkpt>
      <trkpt lat="48.81042" lon="2.01023">
        <ele>171</ele>
        <time>2014-07-26T11:08:26Z</time>
      </trkpt>
      <trkpt lat="48.81043" lon="2.01016">
        <ele>168</ele>
        <time>2014-07-26T11:08:32Z</time>
      </trkpt>
      <trkpt lat="48.81052" lon="2.01">
        <ele>164</ele>
        <time>2014-07-26T11:08:40Z</time>
      </trkpt>
      <trkpt lat="48.81055" lon="2.00992">
        <ele>164</ele>
        <time>2014-07-26T11:08:43Z</time>
      </trkpt>
      <trkpt lat="48.81058" lon="2.00986">
        <ele>164</ele>
        <time>2014-07-26T11:08:46Z</time>
      </trkpt>
      <trkpt lat="48.81061" lon="2.00964">
        <ele>167</ele>
        <time>2014-07-26T11:08:57Z</time>
      </trkpt>
      <trkpt lat="48.81061" lon="2.00948">
        <ele>171</ele>
        <time>2014-07-26T11:09:03Z</time>
      </trkpt>
      <trkpt lat="48.81066" lon="2.00934">
        <ele>172</ele>
        <time>2014-07-26T11:09:12Z</time>
      </trkpt>
      <trkpt lat="48.81067" lon="2.00924">
        <ele>170</ele>
        <time>2014-07-26T11:09:24Z</time>
      </trkpt>
      <trkpt lat="48.81066" lon="2.00917">
        <ele>169</ele>
        <time>2014-07-26T11:09:28Z</time>
      </trkpt>
      <trkpt lat="48.81066" lon="2.00909">
        <ele>171</ele>
        <time>2014-07-26T11:09:33Z</time>
      </trkpt>
      <trkpt lat="48.81069" lon="2.00903">
        <ele>172</ele>
        <time>2014-07-26T11:09:36Z</time>
      </trkpt>
      <trkpt lat="48.81071" lon="2.00896">
        <ele>172</ele>
        <time>2014-07-26T11:09:39Z</time>
      </trkpt>
      <trkpt lat="48.81073" lon="2.0089">
        <ele>172</ele>
        <time>2014-07-26T11:09:42Z</time>
      </trkpt>
      <trkpt lat="48.81072" lon="2.00874">
        <ele>173</ele>
        <time>2014-07-26T11:09:50Z</time>
      </trkpt>
      <trkpt lat="48.81073" lon="2.00858">
        <ele>172</ele>
        <time>2014-07-26T11:10:00Z</time>
      </trkpt>
      <trkpt lat="48.81077" lon="2.00851">
        <ele>172</ele>
        <time>2014-07-26T11:10:04Z</time>
      </trkpt>
      <trkpt lat="48.81082" lon="2.00849">
        <ele>172</ele>
        <time>2014-07-26T11:10:06Z</time>
      </trkpt>
      <trkpt lat="48.81085" lon="2.00843">
        <ele>172</ele>
        <time>2014-07-26T11:10:09Z</time>
      </trkpt>
      <trkpt lat="48.81089" lon="2.00837">
        <ele>172</ele>
        <time>2014-07-26T11:10:12Z</time>
      </trkpt>
      <trkpt lat="48.81092" lon="2.00832">
        <ele>172</ele>
        <time>2014-07-26T11:10:15Z</time>
      </trkpt>
      <trkpt lat="48.81092" lon="2.00824">
        <ele>172</ele>
        <time>2014-07-26T11:10:20Z</time>
      </trkpt>
      <trkpt lat="48.81089" lon="2.00809">
        <ele>174</ele>
        <time>2014-07-26T11:10:29Z</time>
      </trkpt>
      <trkpt lat="48.81089" lon="2.008">
        <ele>174</ele>
        <time>2014-07-26T11:10:33Z</time>
      </trkpt>
      <trkpt lat="48.81086" lon="2.00793">
        <ele>173</ele>
        <time>2014-07-26T11:10:37Z</time>
      </trkpt>
      <trkpt lat="48.81082" lon="2.00776">
        <ele>172</ele>
        <time>2014-07-26T11:10:45Z</time>
      </trkpt>
      <trkpt lat="48.81083" lon="2.0076">
        <ele>173</ele>
        <time>2014-07-26T11:10:52Z</time>
      </trkpt>
      <trkpt lat="48.81084" lon="2.00754">
        <ele>172</ele>
        <time>2014-07-26T11:10:56Z</time>
      </trkpt>
      <trkpt lat="48.81088" lon="2.00747">
        <ele>173</ele>
        <time>2014-07-26T11:11:00Z</time>
      </trkpt>
      <trkpt lat="48.81091" lon="2.00739">
        <ele>172</ele>
        <time>2014-07-26T11:11:03Z</time>
      </trkpt>
      <trkpt lat="48.81093" lon="2.00733">
        <ele>173</ele>
        <time>2014-07-26T11:11:06Z</time>
      </trkpt>
      <trkpt lat="48.81101" lon="2.00721">
        <ele>175</ele>
        <time>2014-07-26T11:11:13Z</time>
      </trkpt>
      <trkpt lat="48.81103" lon="2.00713">
        <ele>176</ele>
        <time>2014-07-26T11:11:16Z</time>
      </trkpt>
      <trkpt lat="48.81106" lon="2.00706">
        <ele>175</ele>
        <time>2014-07-26T11:11:19Z</time>
      </trkpt>
      <trkpt lat="48.81108" lon="2.00699">
        <ele>175</ele>
        <time>2014-07-26T11:11:24Z</time>
      </trkpt>
      <trkpt lat="48.81111" lon="2.00693">
        <ele>177</ele>
        <time>2014-07-26T11:11:31Z</time>
      </trkpt>
      <trkpt lat="48.81111" lon="2.00678">
        <ele>179</ele>
        <time>2014-07-26T11:11:41Z</time>
      </trkpt>
      <trkpt lat="48.81111" lon="2.0067">
        <ele>179</ele>
        <time>2014-07-26T11:11:44Z</time>
      </trkpt>
      <trkpt lat="48.81109" lon="2.00662">
        <ele>178</ele>
        <time>2014-07-26T11:11:47Z</time>
      </trkpt>
      <trkpt lat="48.81106" lon="2.00657">
        <ele>177</ele>
        <time>2014-07-26T11:11:49Z</time>
      </trkpt>
      <trkpt lat="48.81103" lon="2.0065">
        <ele>177</ele>
        <time>2014-07-26T11:11:53Z</time>
      </trkpt>
      <trkpt lat="48.811" lon="2.00643">
        <ele>177</ele>
        <time>2014-07-26T11:11:57Z</time>
      </trkpt>
      <trkpt lat="48.81097" lon="2.00638">
        <ele>176</ele>
        <time>2014-07-26T11:12:00Z</time>
      </trkpt>
      <trkpt lat="48.81095" lon="2.00616">
        <ele>169</ele>
        <time>2014-07-26T11:12:14Z</time>
      </trkpt>
      <trkpt lat="48.81096" lon="2.00608">
        <ele>168</ele>
        <time>2014-07-26T11:12:17Z</time>
      </trkpt>
      <trkpt lat="48.81097" lon="2.00599">
        <ele>167</ele>
        <time>2014-07-26T11:12:19Z</time>
      </trkpt>
      <trkpt lat="48.81098" lon="2.00592">
        <ele>167</ele>
        <time>2014-07-26T11:12:21Z</time>
      </trkpt>
      <trkpt lat="48.81105" lon="2.00561">
        <ele>172</ele>
        <time>2014-07-26T11:12:35Z</time>
      </trkpt>
      <trkpt lat="48.81103" lon="2.00532">
        <ele>176</ele>
        <time>2014-07-26T11:12:53Z</time>
      </trkpt>
      <trkpt lat="48.81106" lon="2.00516">
        <ele>176</ele>
        <time>2014-07-26T11:13:00Z</time>
      </trkpt>
      <trkpt lat="48.81107" lon="2.00508">
        <ele>177</ele>
        <time>2014-07-26T11:13:04Z</time>
      </trkpt>
      <trkpt lat="48.81108" lon="2.005">
        <ele>177</ele>
        <time>2014-07-26T11:13:07Z</time>
      </trkpt>
      <trkpt lat="48.81108" lon="2.00492">
        <ele>176</ele>
        <time>2014-07-26T11:13:10Z</time>
      </trkpt>
      <trkpt lat="48.81107" lon="2.00484">
        <ele>176</ele>
        <time>2014-07-26T11:13:14Z</time>
      </trkpt>
      <trkpt lat="48.81108" lon="2.00476">
        <ele>176</ele>
        <time>2014-07-26T11:13:20Z</time>
      </trkpt>
      <trkpt lat="48.81109" lon="2.00469">
        <ele>176</ele>
        <time>2014-07-26T11:13:23Z</time>
      </trkpt>
      <trkpt lat="48.81111" lon="2.00461">
        <ele>176</ele>
        <time>2014-07-26T11:13:27Z</time>
      </trkpt>
      <trkpt lat="48.81117" lon="2.00448">
        <ele>174</ele>
        <time>2014-07-26T11:13:36Z</time>
      </trkpt>
      <trkpt lat="48.81123" lon="2.00412">
        <ele>174</ele>
        <time>2014-07-26T11:13:49Z</time>
      </trkpt>
      <trkpt lat="48.81121" lon="2.00403">
        <ele>175</ele>
        <time>2014-07-26T11:13:53Z</time>
      </trkpt>
      <trkpt lat="48.81125" lon="2.00388">
        <ele>177</ele>
        <time>2014-07-26T11:14:00Z</time>
      </trkpt>
      <trkpt lat="48.81126" lon="2.00382">
        <ele>176</ele>
        <time>2014-07-26T11:14:06Z</time>
      </trkpt>
      <trkpt lat="48.81124" lon="2.00374">
        <ele>176</ele>
        <time>2014-07-26T11:14:09Z</time>
      </trkpt>
      <trkpt lat="48.81123" lon="2.00366">
        <ele>176</ele>
        <time>2014-07-26T11:14:13Z</time>
      </trkpt>
      <trkpt lat="48.81121" lon="2.00334">
        <ele>171</ele>
        <time>2014-07-26T11:14:27Z</time>
      </trkpt>
      <trkpt lat="48.81122" lon="2.00326">
        <ele>171</ele>
        <time>2014-07-26T11:14:31Z</time>
      </trkpt>
      <trkpt lat="48.81121" lon="2.00318">
        <ele>172</ele>
        <time>2014-07-26T11:14:35Z</time>
      </trkpt>
      <trkpt lat="48.81118" lon="2.00313">
        <ele>173</ele>
        <time>2014-07-26T11:14:39Z</time>
      </trkpt>
      <trkpt lat="48.81113" lon="2.00314">
        <ele>174</ele>
        <time>2014-07-26T11:14:44Z</time>
      </trkpt>
      <trkpt lat="48.81108" lon="2.00311">
        <ele>174</ele>
        <time>2014-07-26T11:14:48Z</time>
      </trkpt>
      <trkpt lat="48.81107" lon="2.00304">
        <ele>176</ele>
        <time>2014-07-26T11:14:53Z</time>
      </trkpt>
      <trkpt lat="48.81106" lon="2.00288">
        <ele>179</ele>
        <time>2014-07-26T11:15:03Z</time>
      </trkpt>
      <trkpt lat="48.81095" lon="2.00271">
        <ele>181</ele>
        <time>2014-07-26T11:15:14Z</time>
      </trkpt>
      <trkpt lat="48.81091" lon="2.00265">
        <ele>181</ele>
        <time>2014-07-26T11:15:16Z</time>
      </trkpt>
      <trkpt lat="48.81086" lon="2.00253">
        <ele>179</ele>
        <time>2014-07-26T11:15:24Z</time>
      </trkpt>
      <trkpt lat="48.81083" lon="2.00247">
        <ele>179</ele>
        <time>2014-07-26T11:15:27Z</time>
      </trkpt>
      <trkpt lat="48.81079" lon="2.00243">
        <ele>179</ele>
        <time>2014-07-26T11:15:29Z</time>
      </trkpt>
      <trkpt lat="48.81071" lon="2.00233">
        <ele>178</ele>
        <time>2014-07-26T11:15:35Z</time>
      </trkpt>
      <trkpt lat="48.81066" lon="2.0022">
        <ele>174</ele>
        <time>2014-07-26T11:15:43Z</time>
      </trkpt>
      <trkpt lat="48.81061" lon="2.00215">
        <ele>172</ele>
        <time>2014-07-26T11:15:48Z</time>
      </trkpt>
      <trkpt lat="48.81051" lon="2.0021">
        <ele>169</ele>
        <time>2014-07-26T11:15:53Z</time>
      </trkpt>
      <trkpt lat="48.81049" lon="2.00203">
        <ele>168</ele>
        <time>2014-07-26T11:15:57Z</time>
      </trkpt>
      <trkpt lat="48.81048" lon="2.00193">
        <ele>168</ele>
        <time>2014-07-26T11:16:05Z</time>
      </trkpt>
      <trkpt lat="48.81046" lon="2.00186">
        <ele>168</ele>
        <time>2014-07-26T11:16:08Z</time>
      </trkpt>
      <trkpt lat="48.81039" lon="2.00174">
        <ele>168</ele>
        <time>2014-07-26T11:16:14Z</time>
      </trkpt>
      <trkpt lat="48.81037" lon="2.00168">
        <ele>168</ele>
        <time>2014-07-26T11:16:18Z</time>
      </trkpt>
      <trkpt lat="48.81038" lon="2.0016">
        <ele>167</ele>
        <time>2014-07-26T11:16:21Z</time>
      </trkpt>
      <trkpt lat="48.8104" lon="2.00151">
        <ele>167</ele>
        <time>2014-07-26T11:16:24Z</time>
      </trkpt>
      <trkpt lat="48.8104" lon="2.00144">
        <ele>167</ele>
        <time>2014-07-26T11:16:28Z</time>
      </trkpt>
      <trkpt lat="48.81038" lon="2.00137">
        <ele>166</ele>
        <time>2014-07-26T11:16:32Z</time>
      </trkpt>
      <trkpt lat="48.81035" lon="2.00131">
        <ele>167</ele>
        <time>2014-07-26T11:16:35Z</time>
      </trkpt>
      <trkpt lat="48.81031" lon="2.00127">
        <ele>167</ele>
        <time>2014-07-26T11:16:38Z</time>
      </trkpt>
      <trkpt lat="48.81027" lon="2.00122">
        <ele>170</ele>
        <time>2014-07-26T11:16:42Z</time>
      </trkpt>
      <trkpt lat="48.81024" lon="2.00115">
        <ele>169</ele>
        <time>2014-07-26T11:16:47Z</time>
      </trkpt>
      <trkpt lat="48.81024" lon="2.00107">
        <ele>169</ele>
        <time>2014-07-26T11:16:52Z</time>
      </trkpt>
      <trkpt lat="48.81026" lon="2.00101">
        <ele>169</ele>
        <time>2014-07-26T11:16:56Z</time>
      </trkpt>
      <trkpt lat="48.81022" lon="2.00095">
        <ele>170</ele>
        <time>2014-07-26T11:17:01Z</time>
      </trkpt>
      <trkpt lat="48.81018" lon="2.00089">
        <ele>169</ele>
        <time>2014-07-26T11:17:04Z</time>
      </trkpt>
      <trkpt lat="48.81014" lon="2.00084">
        <ele>169</ele>
        <time>2014-07-26T11:17:09Z</time>
      </trkpt>
      <trkpt lat="48.81014" lon="2.00076">
        <ele>168</ele>
        <time>2014-07-26T11:17:15Z</time>
      </trkpt>
      <trkpt lat="48.81003" lon="2.00057">
        <ele>171</ele>
        <time>2014-07-26T11:17:25Z</time>
      </trkpt>
      <trkpt lat="48.80999" lon="2.00053">
        <ele>172</ele>
        <time>2014-07-26T11:17:29Z</time>
      </trkpt>
      <trkpt lat="48.81002" lon="2.00044">
        <ele>172</ele>
        <time>2014-07-26T11:17:34Z</time>
      </trkpt>
      <trkpt lat="48.81008" lon="2.00031">
        <ele>173</ele>
        <time>2014-07-26T11:17:39Z</time>
      </trkpt>
      <trkpt lat="48.81009" lon="2.00022">
        <ele>173</ele>
        <time>2014-07-26T11:17:43Z</time>
      </trkpt>
      <trkpt lat="48.81017" lon="1.99977">
        <ele>178</ele>
        <time>2014-07-26T11:18:11Z</time>
      </trkpt>
      <trkpt lat="48.8102" lon="1.99962">
        <ele>176</ele>
        <time>2014-07-26T11:18:24Z</time>
      </trkpt>
      <trkpt lat="48.81019" lon="1.99954">
        <ele>176</ele>
        <time>2014-07-26T11:18:28Z</time>
      </trkpt>
      <trkpt lat="48.81028" lon="1.99913">
        <ele>172</ele>
        <time>2014-07-26T11:18:44Z</time>
      </trkpt>
      <trkpt lat="48.8103" lon="1.99906">
        <ele>172</ele>
        <time>2014-07-26T11:18:48Z</time>
      </trkpt>
      <trkpt lat="48.81027" lon="1.999">
        <ele>172</ele>
        <time>2014-07-26T11:18:52Z</time>
      </trkpt>
      <trkpt lat="48.81028" lon="1.99884">
        <ele>171</ele>
        <time>2014-07-26T11:19:02Z</time>
      </trkpt>
      <trkpt lat="48.81031" lon="1.99878">
        <ele>171</ele>
        <time>2014-07-26T11:19:05Z</time>
      </trkpt>
      <trkpt lat="48.81033" lon="1.9987">
        <ele>171</ele>
        <time>2014-07-26T11:19:09Z</time>
      </trkpt>
      <trkpt lat="48.81033" lon="1.9984">
        <ele>175</ele>
        <time>2014-07-26T11:19:28Z</time>
      </trkpt>
      <trkpt lat="48.81037" lon="1.99828">
        <ele>175</ele>
        <time>2014-07-26T11:19:33Z</time>
      </trkpt>
      <trkpt lat="48.81045" lon="1.99812">
        <ele>174</ele>
        <time>2014-07-26T11:19:38Z</time>
      </trkpt>
      <trkpt lat="48.81043" lon="1.99806">
        <ele>173</ele>
        <time>2014-07-26T11:19:43Z</time>
      </trkpt>
      <trkpt lat="48.81044" lon="1.99782">
        <ele>172</ele>
        <time>2014-07-26T11:19:57Z</time>
      </trkpt>
      <trkpt lat="48.81043" lon="1.99775">
        <ele>172</ele>
        <time>2014-07-26T11:20:01Z</time>
      </trkpt>
      <trkpt lat="48.81043" lon="1.99768">
        <ele>173</ele>
        <time>2014-07-26T11:20:10Z</time>
      </trkpt>
      <trkpt lat="48.81047" lon="1.99753">
        <ele>173</ele>
        <time>2014-07-26T11:20:17Z</time>
      </trkpt>
      <trkpt lat="48.8105" lon="1.99746">
        <ele>174</ele>
        <time>2014-07-26T11:20:21Z</time>
      </trkpt>
      <trkpt lat="48.81049" lon="1.99737">
        <ele>175</ele>
        <time>2014-07-26T11:20:26Z</time>
      </trkpt>
      <trkpt lat="48.81047" lon="1.99731">
        <ele>175</ele>
        <time>2014-07-26T11:20:30Z</time>
      </trkpt>
      <trkpt lat="48.81048" lon="1.99722">
        <ele>175</ele>
        <time>2014-07-26T11:20:34Z</time>
      </trkpt>
      <trkpt lat="48.8105" lon="1.997">
        <ele>178</ele>
        <time>2014-07-26T11:20:47Z</time>
      </trkpt>
      <trkpt lat="48.81054" lon="1.99694">
        <ele>179</ele>
        <time>2014-07-26T11:20:52Z</time>
      </trkpt>
      <trkpt lat="48.81058" lon="1.99689">
        <ele>180</ele>
        <time>2014-07-26T11:20:57Z</time>
      </trkpt>
      <trkpt lat="48.8106" lon="1.99682">
        <ele>180</ele>
        <time>2014-07-26T11:21:03Z</time>
      </trkpt>
      <trkpt lat="48.81061" lon="1.99674">
        <ele>181</ele>
        <time>2014-07-26T11:21:08Z</time>
      </trkpt>
      <trkpt lat="48.81061" lon="1.99665">
        <ele>180</ele>
        <time>2014-07-26T11:21:12Z</time>
      </trkpt>
      <trkpt lat="48.81061" lon="1.99657">
        <ele>181</ele>
        <time>2014-07-26T11:21:15Z</time>
      </trkpt>
      <trkpt lat="48.8106" lon="1.9965">
        <ele>180</ele>
        <time>2014-07-26T11:21:18Z</time>
      </trkpt>
      <trkpt lat="48.81057" lon="1.99644">
        <ele>180</ele>
        <time>2014-07-26T11:21:21Z</time>
      </trkpt>
      <trkpt lat="48.81056" lon="1.99637">
        <ele>179</ele>
        <time>2014-07-26T11:21:26Z</time>
      </trkpt>
      <trkpt lat="48.81059" lon="1.99631">
        <ele>179</ele>
        <time>2014-07-26T11:21:31Z</time>
      </trkpt>
      <trkpt lat="48.81061" lon="1.99624">
        <ele>178</ele>
        <time>2014-07-26T11:21:36Z</time>
      </trkpt>
      <trkpt lat="48.81063" lon="1.99615">
        <ele>178</ele>
        <time>2014-07-26T11:21:41Z</time>
      </trkpt>
      <trkpt lat="48.81061" lon="1.996">
        <ele>178</ele>
        <time>2014-07-26T11:21:45Z</time>
      </trkpt>
      <trkpt lat="48.81059" lon="1.99593">
        <ele>179</ele>
        <time>2014-07-26T11:21:48Z</time>
      </trkpt>
      <trkpt lat="48.81054" lon="1.99595">
        <ele>181</ele>
        <time>2014-07-26T11:21:53Z</time>
      </trkpt>
      <trkpt lat="48.81051" lon="1.996">
        <ele>181</ele>
        <time>2014-07-26T11:21:56Z</time>
      </trkpt>
      <trkpt lat="48.81046" lon="1.99604">
        <ele>181</ele>
        <time>2014-07-26T11:22:01Z</time>
      </trkpt>
      <trkpt lat="48.81039" lon="1.99608">
        <ele>182</ele>
        <time>2014-07-26T11:22:12Z</time>
      </trkpt>
      <trkpt lat="48.81023" lon="1.99603">
        <ele>184</ele>
        <time>2014-07-26T11:22:25Z</time>
      </trkpt>
      <trkpt lat="48.81018" lon="1.99603">
        <ele>183</ele>
        <time>2014-07-26T11:22:29Z</time>
      </trkpt>
      <trkpt lat="48.81005" lon="1.99609">
        <ele>184</ele>
        <time>2014-07-26T11:22:41Z</time>
      </trkpt>
      <trkpt lat="48.81" lon="1.99607">
        <ele>184</ele>
        <time>2014-07-26T11:22:46Z</time>
      </trkpt>
      <trkpt lat="48.80994" lon="1.99606">
        <ele>183</ele>
        <time>2014-07-26T11:22:51Z</time>
      </trkpt>
      <trkpt lat="48.8099" lon="1.99603">
        <ele>183</ele>
        <time>2014-07-26T11:22:54Z</time>
      </trkpt>
      <trkpt lat="48.80986" lon="1.99598">
        <ele>181</ele>
        <time>2014-07-26T11:22:58Z</time>
      </trkpt>
      <trkpt lat="48.80982" lon="1.99594">
        <ele>181</ele>
        <time>2014-07-26T11:23:01Z</time>
      </trkpt>
      <trkpt lat="48.80967" lon="1.9959">
        <ele>178</ele>
        <time>2014-07-26T11:23:16Z</time>
      </trkpt>
      <trkpt lat="48.80962" lon="1.99588">
        <ele>178</ele>
        <time>2014-07-26T11:23:20Z</time>
      </trkpt>
      <trkpt lat="48.80932" lon="1.99581">
        <ele>183</ele>
        <time>2014-07-26T11:23:48Z</time>
      </trkpt>
      <trkpt lat="48.80926" lon="1.9958">
        <ele>183</ele>
        <time>2014-07-26T11:23:52Z</time>
      </trkpt>
      <trkpt lat="48.80921" lon="1.99578">
        <ele>184</ele>
        <time>2014-07-26T11:23:56Z</time>
      </trkpt>
      <trkpt lat="48.80916" lon="1.99577">
        <ele>183</ele>
        <time>2014-07-26T11:24:00Z</time>
      </trkpt>
      <trkpt lat="48.80906" lon="1.9957">
        <ele>179</ele>
        <time>2014-07-26T11:24:07Z</time>
      </trkpt>
      <trkpt lat="48.80904" lon="1.99564">
        <ele>179</ele>
        <time>2014-07-26T11:24:12Z</time>
      </trkpt>
      <trkpt lat="48.80898" lon="1.99565">
        <ele>179</ele>
        <time>2014-07-26T11:24:17Z</time>
      </trkpt>
      <trkpt lat="48.80887" lon="1.99562">
        <ele>179</ele>
        <time>2014-07-26T11:24:25Z</time>
      </trkpt>
      <trkpt lat="48.80872" lon="1.99568">
        <ele>178</ele>
        <time>2014-07-26T11:24:33Z</time>
      </trkpt>
      <trkpt lat="48.80868" lon="1.99563">
        <ele>177</ele>
        <time>2014-07-26T11:24:38Z</time>
      </trkpt>
      <trkpt lat="48.80866" lon="1.99556">
        <ele>178</ele>
        <time>2014-07-26T11:24:44Z</time>
      </trkpt>
      <trkpt lat="48.80861" lon="1.99554">
        <ele>178</ele>
        <time>2014-07-26T11:24:48Z</time>
      </trkpt>
      <trkpt lat="48.80851" lon="1.99554">
        <ele>179</ele>
        <time>2014-07-26T11:24:54Z</time>
      </trkpt>
      <trkpt lat="48.80845" lon="1.99551">
        <ele>178</ele>
        <time>2014-07-26T11:24:58Z</time>
      </trkpt>
      <trkpt lat="48.8084" lon="1.99546">
        <ele>178</ele>
        <time>2014-07-26T11:25:02Z</time>
      </trkpt>
      <trkpt lat="48.80836" lon="1.99545">
        <ele>180</ele>
        <time>2014-07-26T11:25:14Z</time>
      </trkpt>
      <trkpt lat="48.80811" lon="1.99544">
        <ele>187</ele>
        <time>2014-07-26T11:25:30Z</time>
      </trkpt>
      <trkpt lat="48.80803" lon="1.99534">
        <ele>189</ele>
        <time>2014-07-26T11:25:38Z</time>
      </trkpt>
      <trkpt lat="48.80794" lon="1.99532">
        <ele>190</ele>
        <time>2014-07-26T11:25:44Z</time>
      </trkpt>
      <trkpt lat="48.80789" lon="1.99533">
        <ele>190</ele>
        <time>2014-07-26T11:25:48Z</time>
      </trkpt>
      <trkpt lat="48.80763" lon="1.99529">
        <ele>185</ele>
        <time>2014-07-26T11:26:07Z</time>
      </trkpt>
      <trkpt lat="48.80752" lon="1.99531">
        <ele>185</ele>
        <time>2014-07-26T11:26:14Z</time>
      </trkpt>
      <trkpt lat="48.8075" lon="1.99529">
        <ele>186</ele>
        <time>2014-07-26T11:26:20Z</time>
      </trkpt>
      <trkpt lat="48.8075" lon="1.99522">
        <ele>188</ele>
        <time>2014-07-26T11:26:27Z</time>
      </trkpt>
      <trkpt lat="48.80744" lon="1.9952">
        <ele>189</ele>
        <time>2014-07-26T11:26:32Z</time>
      </trkpt>
      <trkpt lat="48.80734" lon="1.99515">
        <ele>191</ele>
        <time>2014-07-26T11:26:38Z</time>
      </trkpt>
      <trkpt lat="48.80724" lon="1.99506">
        <ele>191</ele>
        <time>2014-07-26T11:26:45Z</time>
      </trkpt>
      <trkpt lat="48.80719" lon="1.99508">
        <ele>191</ele>
        <time>2014-07-26T11:26:50Z</time>
      </trkpt>
      <trkpt lat="48.80704" lon="1.99509">
        <ele>192</ele>
        <time>2014-07-26T11:27:01Z</time>
      </trkpt>
      <trkpt lat="48.80699" lon="1.99507">
        <ele>192</ele>
        <time>2014-07-26T11:27:05Z</time>
      </trkpt>
      <trkpt lat="48.80674" lon="1.99506">
        <ele>188</ele>
        <time>2014-07-26T11:27:22Z</time>
      </trkpt>
      <trkpt lat="48.80668" lon="1.99507">
        <ele>189</ele>
        <time>2014-07-26T11:27:25Z</time>
      </trkpt>
      <trkpt lat="48.80643" lon="1.99504">
        <ele>179</ele>
        <time>2014-07-26T11:27:42Z</time>
      </trkpt>
      <trkpt lat="48.80635" lon="1.99497">
        <ele>175</ele>
        <time>2014-07-26T11:27:53Z</time>
      </trkpt>
      <trkpt lat="48.80633" lon="1.99491">
        <ele>175</ele>
        <time>2014-07-26T11:27:58Z</time>
      </trkpt>
      <trkpt lat="48.80622" lon="1.99489">
        <ele>176</ele>
        <time>2014-07-26T11:28:08Z</time>
      </trkpt>
      <trkpt lat="48.80617" lon="1.99491">
        <ele>177</ele>
        <time>2014-07-26T11:28:11Z</time>
      </trkpt>
      <trkpt lat="48.80612" lon="1.99488">
        <ele>177</ele>
        <time>2014-07-26T11:28:15Z</time>
      </trkpt>
      <trkpt lat="48.80608" lon="1.99483">
        <ele>177</ele>
        <time>2014-07-26T11:28:19Z</time>
      </trkpt>
      <trkpt lat="48.80603" lon="1.9948">
        <ele>176</ele>
        <time>2014-07-26T11:28:23Z</time>
      </trkpt>
      <trkpt lat="48.80588" lon="1.99474">
        <ele>173</ele>
        <time>2014-07-26T11:28:38Z</time>
      </trkpt>
      <trkpt lat="48.80583" lon="1.99472">
        <ele>172</ele>
        <time>2014-07-26T11:28:42Z</time>
      </trkpt>
      <trkpt lat="48.80579" lon="1.99467">
        <ele>171</ele>
        <time>2014-07-26T11:28:46Z</time>
      </trkpt>
      <trkpt lat="48.80574" lon="1.99466">
        <ele>170</ele>
        <time>2014-07-26T11:28:50Z</time>
      </trkpt>
      <trkpt lat="48.80568" lon="1.99467">
        <ele>169</ele>
        <time>2014-07-26T11:28:54Z</time>
      </trkpt>
      <trkpt lat="48.80554" lon="1.99462">
        <ele>167</ele>
        <time>2014-07-26T11:29:05Z</time>
      </trkpt>
      <trkpt lat="48.80545" lon="1.99459">
        <ele>168</ele>
        <time>2014-07-26T11:29:12Z</time>
      </trkpt>
      <trkpt lat="48.80533" lon="1.99458">
        <ele>166</ele>
        <time>2014-07-26T11:29:18Z</time>
      </trkpt>
      <trkpt lat="48.80529" lon="1.99454">
        <ele>166</ele>
        <time>2014-07-26T11:29:22Z</time>
      </trkpt>
      <trkpt lat="48.80504" lon="1.9945">
        <ele>170</ele>
        <time>2014-07-26T11:29:48Z</time>
      </trkpt>
      <trkpt lat="48.80494" lon="1.99449">
        <ele>170</ele>
        <time>2014-07-26T11:29:58Z</time>
      </trkpt>
      <trkpt lat="48.80479" lon="1.99442">
        <ele>167</ele>
        <time>2014-07-26T11:30:08Z</time>
      </trkpt>
      <trkpt lat="48.80475" lon="1.99441">
        <ele>167</ele>
        <time>2014-07-26T11:30:12Z</time>
      </trkpt>
      <trkpt lat="48.80463" lon="1.99438">
        <ele>166</ele>
        <time>2014-07-26T11:30:18Z</time>
      </trkpt>
      <trkpt lat="48.80434" lon="1.99425">
        <ele>172</ele>
        <time>2014-07-26T11:30:48Z</time>
      </trkpt>
      <trkpt lat="48.80423" lon="1.99426">
        <ele>174</ele>
        <time>2014-07-26T11:30:56Z</time>
      </trkpt>
      <trkpt lat="48.80418" lon="1.99423">
        <ele>175</ele>
        <time>2014-07-26T11:31:00Z</time>
      </trkpt>
      <trkpt lat="48.80413" lon="1.99422">
        <ele>176</ele>
        <time>2014-07-26T11:31:03Z</time>
      </trkpt>
      <trkpt lat="48.80409" lon="1.9942">
        <ele>176</ele>
        <time>2014-07-26T11:31:06Z</time>
      </trkpt>
      <trkpt lat="48.80404" lon="1.9942">
        <ele>177</ele>
        <time>2014-07-26T11:31:10Z</time>
      </trkpt>
      <trkpt lat="48.80398" lon="1.9942">
        <ele>177</ele>
        <time>2014-07-26T11:31:13Z</time>
      </trkpt>
      <trkpt lat="48.80393" lon="1.99419">
        <ele>177</ele>
        <time>2014-07-26T11:31:16Z</time>
      </trkpt>
      <trkpt lat="48.8039" lon="1.99415">
        <ele>178</ele>
        <time>2014-07-26T11:31:20Z</time>
      </trkpt>
      <trkpt lat="48.80386" lon="1.99409">
        <ele>177</ele>
        <time>2014-07-26T11:31:25Z</time>
      </trkpt>
      <trkpt lat="48.80381" lon="1.99408">
        <ele>176</ele>
        <time>2014-07-26T11:31:33Z</time>
      </trkpt>
      <trkpt lat="48.80376" lon="1.9941">
        <ele>176</ele>
        <time>2014-07-26T11:31:36Z</time>
      </trkpt>
      <trkpt lat="48.80371" lon="1.99412">
        <ele>176</ele>
        <time>2014-07-26T11:31:39Z</time>
      </trkpt>
      <trkpt lat="48.80326" lon="1.99393">
        <ele>182</ele>
        <time>2014-07-26T11:32:13Z</time>
      </trkpt>
      <trkpt lat="48.80327" lon="1.99386">
        <ele>183</ele>
        <time>2014-07-26T11:32:17Z</time>
      </trkpt>
      <trkpt lat="48.8033" lon="1.9937">
        <ele>182</ele>
        <time>2014-07-26T11:32:23Z</time>
      </trkpt>
      <trkpt lat="48.80332" lon="1.99364">
        <ele>183</ele>
        <time>2014-07-26T11:32:29Z</time>
      </trkpt>
      <trkpt lat="48.80337" lon="1.99363">
        <ele>184</ele>
        <time>2014-07-26T11:32:39Z</time>
      </trkpt>
      <trkpt lat="48.80341" lon="1.99356">
        <ele>184</ele>
        <time>2014-07-26T11:32:42Z</time>
      </trkpt>
      <trkpt lat="48.80343" lon="1.9935">
        <ele>184</ele>
        <time>2014-07-26T11:32:45Z</time>
      </trkpt>
      <trkpt lat="48.80342" lon="1.99342">
        <ele>184</ele>
        <time>2014-07-26T11:32:48Z</time>
      </trkpt>
      <trkpt lat="48.80339" lon="1.99304">
        <ele>178</ele>
        <time>2014-07-26T11:33:08Z</time>
      </trkpt>
      <trkpt lat="48.80351" lon="1.99269">
        <ele>171</ele>
        <time>2014-07-26T11:33:26Z</time>
      </trkpt>
      <trkpt lat="48.80351" lon="1.99245">
        <ele>166</ele>
        <time>2014-07-26T11:33:40Z</time>
      </trkpt>
      <trkpt lat="48.80352" lon="1.99238">
        <ele>166</ele>
        <time>2014-07-26T11:33:44Z</time>
      </trkpt>
      <trkpt lat="48.80355" lon="1.99223">
        <ele>165</ele>
        <time>2014-07-26T11:33:52Z</time>
      </trkpt>
      <trkpt lat="48.80363" lon="1.99195">
        <ele>160</ele>
        <time>2014-07-26T11:34:06Z</time>
      </trkpt>
      <trkpt lat="48.80364" lon="1.99187">
        <ele>160</ele>
        <time>2014-07-26T11:34:10Z</time>
      </trkpt>
      <trkpt lat="48.80372" lon="1.99151">
        <ele>163</ele>
        <time>2014-07-26T11:34:29Z</time>
      </trkpt>
      <trkpt lat="48.80379" lon="1.99128">
        <ele>163</ele>
        <time>2014-07-26T11:34:41Z</time>
      </trkpt>
      <trkpt lat="48.80382" lon="1.99112">
        <ele>162</ele>
        <time>2014-07-26T11:34:49Z</time>
      </trkpt>
      <trkpt lat="48.80383" lon="1.99105">
        <ele>162</ele>
        <time>2014-07-26T11:34:53Z</time>
      </trkpt>
      <trkpt lat="48.80388" lon="1.99095">
        <ele>166</ele>
        <time>2014-07-26T11:35:05Z</time>
      </trkpt>
      <trkpt lat="48.80387" lon="1.99072">
        <ele>167</ele>
        <time>2014-07-26T11:35:23Z</time>
      </trkpt>
      <trkpt lat="48.80384" lon="1.99064">
        <ele>166</ele>
        <time>2014-07-26T11:35:28Z</time>
      </trkpt>
      <trkpt lat="48.80384" lon="1.99055">
        <ele>166</ele>
        <time>2014-07-26T11:35:32Z</time>
      </trkpt>
      <trkpt lat="48.80387" lon="1.99039">
        <ele>166</ele>
        <time>2014-07-26T11:35:37Z</time>
      </trkpt>
      <trkpt lat="48.80384" lon="1.99033">
        <ele>166</ele>
        <time>2014-07-26T11:35:40Z</time>
      </trkpt>
      <trkpt lat="48.80385" lon="1.99019">
        <ele>170</ele>
        <time>2014-07-26T11:35:49Z</time>
      </trkpt>
      <trkpt lat="48.80383" lon="1.99012">
        <ele>171</ele>
        <time>2014-07-26T11:35:55Z</time>
      </trkpt>
      <trkpt lat="48.80384" lon="1.98996">
        <ele>173</ele>
        <time>2014-07-26T11:36:01Z</time>
      </trkpt>
      <trkpt lat="48.80384" lon="1.98988">
        <ele>173</ele>
        <time>2014-07-26T11:36:06Z</time>
      </trkpt>
      <trkpt lat="48.80384" lon="1.9898">
        <ele>173</ele>
        <time>2014-07-26T11:36:11Z</time>
      </trkpt>
      <trkpt lat="48.80385" lon="1.98965">
        <ele>169</ele>
        <time>2014-07-26T11:36:18Z</time>
      </trkpt>
      <trkpt lat="48.80385" lon="1.98957">
        <ele>169</ele>
        <time>2014-07-26T11:36:23Z</time>
      </trkpt>
      <trkpt lat="48.80379" lon="1.9892">
        <ele>173</ele>
        <time>2014-07-26T11:36:44Z</time>
      </trkpt>
      <trkpt lat="48.8038" lon="1.98912">
        <ele>173</ele>
        <time>2014-07-26T11:36:47Z</time>
      </trkpt>
      <trkpt lat="48.80381" lon="1.98904">
        <ele>173</ele>
        <time>2014-07-26T11:36:50Z</time>
      </trkpt>
      <trkpt lat="48.80384" lon="1.98896">
        <ele>173</ele>
        <time>2014-07-26T11:36:54Z</time>
      </trkpt>
      <trkpt lat="48.80385" lon="1.98892">
        <ele>173</ele>
        <time>2014-07-26T11:37:01Z</time>
      </trkpt>
      <trkpt lat="48.80384" lon="1.98889">
        <ele>174</ele>
        <time>2014-07-26T11:37:12Z</time>
      </trkpt>
      <trkpt lat="48.80389" lon="1.98888">
        <ele>175</ele>
        <time>2014-07-26T11:37:17Z</time>
      </trkpt>
      <trkpt lat="48.80398" lon="1.98882">
        <ele>178</ele>
        <time>2014-07-26T11:37:24Z</time>
      </trkpt>
      <trkpt lat="48.80403" lon="1.9888">
        <ele>178</ele>
        <time>2014-07-26T11:37:27Z</time>
      </trkpt>
      <trkpt lat="48.80408" lon="1.9888">
        <ele>178</ele>
        <time>2014-07-26T11:37:31Z</time>
      </trkpt>
      <trkpt lat="48.80428" lon="1.98877">
        <ele>182</ele>
        <time>2014-07-26T11:37:48Z</time>
      </trkpt>
      <trkpt lat="48.80442" lon="1.98874">
        <ele>183</ele>
        <time>2014-07-26T11:37:59Z</time>
      </trkpt>
      <trkpt lat="48.80451" lon="1.98868">
        <ele>183</ele>
        <time>2014-07-26T11:38:09Z</time>
      </trkpt>
      <trkpt lat="48.8047" lon="1.98848">
        <ele>180</ele>
        <time>2014-07-26T11:38:18Z</time>
      </trkpt>
      <trkpt lat="48.80479" lon="1.98846">
        <ele>180</ele>
        <time>2014-07-26T11:38:22Z</time>
      </trkpt>
      <trkpt lat="48.80488" lon="1.98838">
        <ele>180</ele>
        <time>2014-07-26T11:38:28Z</time>
      </trkpt>
      <trkpt lat="48.80492" lon="1.98836">
        <ele>179</ele>
        <time>2014-07-26T11:38:31Z</time>
      </trkpt>
      <trkpt lat="48.80502" lon="1.9884">
        <ele>176</ele>
        <time>2014-07-26T11:38:39Z</time>
      </trkpt>
      <trkpt lat="48.80506" lon="1.98835">
        <ele>176</ele>
        <time>2014-07-26T11:38:43Z</time>
      </trkpt>
      <trkpt lat="48.80522" lon="1.98825">
        <ele>168</ele>
        <time>2014-07-26T11:39:02Z</time>
      </trkpt>
      <trkpt lat="48.80527" lon="1.98821">
        <ele>168</ele>
        <time>2014-07-26T11:39:07Z</time>
      </trkpt>
      <trkpt lat="48.8053" lon="1.98814">
        <ele>168</ele>
        <time>2014-07-26T11:39:13Z</time>
      </trkpt>
      <trkpt lat="48.80534" lon="1.98808">
        <ele>167</ele>
        <time>2014-07-26T11:39:17Z</time>
      </trkpt>
      <trkpt lat="48.80545" lon="1.98793">
        <ele>167</ele>
        <time>2014-07-26T11:39:27Z</time>
      </trkpt>
      <trkpt lat="48.8055" lon="1.98792">
        <ele>166</ele>
        <time>2014-07-26T11:39:29Z</time>
      </trkpt>
      <trkpt lat="48.80555" lon="1.98791">
        <ele>166</ele>
        <time>2014-07-26T11:39:33Z</time>
      </trkpt>
      <trkpt lat="48.80559" lon="1.98787">
        <ele>167</ele>
        <time>2014-07-26T11:39:37Z</time>
      </trkpt>
      <trkpt lat="48.80564" lon="1.98786">
        <ele>167</ele>
        <time>2014-07-26T11:39:40Z</time>
      </trkpt>
      <trkpt lat="48.80568" lon="1.98783">
        <ele>167</ele>
        <time>2014-07-26T11:39:46Z</time>
      </trkpt>
      <trkpt lat="48.80581" lon="1.98757">
        <ele>161</ele>
        <time>2014-07-26T11:39:59Z</time>
      </trkpt>
      <trkpt lat="48.80593" lon="1.98747">
        <ele>167</ele>
        <time>2014-07-26T11:40:13Z</time>
      </trkpt>
      <trkpt lat="48.80595" lon="1.9874">
        <ele>169</ele>
        <time>2014-07-26T11:40:18Z</time>
      </trkpt>
      <trkpt lat="48.80591" lon="1.98734">
        <ele>170</ele>
        <time>2014-07-26T11:40:22Z</time>
      </trkpt>
      <trkpt lat="48.80584" lon="1.98721">
        <ele>170</ele>
        <time>2014-07-26T11:40:27Z</time>
      </trkpt>
      <trkpt lat="48.80581" lon="1.98688">
        <ele>173</ele>
        <time>2014-07-26T11:40:48Z</time>
      </trkpt>
      <trkpt lat="48.80573" lon="1.98676">
        <ele>170</ele>
        <time>2014-07-26T11:40:54Z</time>
      </trkpt>
      <trkpt lat="48.80571" lon="1.9867">
        <ele>170</ele>
        <time>2014-07-26T11:40:57Z</time>
      </trkpt>
      <trkpt lat="48.80573" lon="1.98662">
        <ele>174</ele>
        <time>2014-07-26T11:41:04Z</time>
      </trkpt>
      <trkpt lat="48.80576" lon="1.98658">
        <ele>174</ele>
        <time>2014-07-26T11:41:07Z</time>
      </trkpt>
      <trkpt lat="48.80576" lon="1.9865">
        <ele>173</ele>
        <time>2014-07-26T11:41:11Z</time>
      </trkpt>
      <trkpt lat="48.80574" lon="1.98643">
        <ele>173</ele>
        <time>2014-07-26T11:41:14Z</time>
      </trkpt>
      <trkpt lat="48.80577" lon="1.98636">
        <ele>175</ele>
        <time>2014-07-26T11:41:19Z</time>
      </trkpt>
      <trkpt lat="48.80577" lon="1.98628">
        <ele>176</ele>
        <time>2014-07-26T11:41:23Z</time>
      </trkpt>
      <trkpt lat="48.80582" lon="1.98616">
        <ele>176</ele>
        <time>2014-07-26T11:41:31Z</time>
      </trkpt>
      <trkpt lat="48.80583" lon="1.98607">
        <ele>176</ele>
        <time>2014-07-26T11:41:34Z</time>
      </trkpt>
      <trkpt lat="48.80584" lon="1.98589">
        <ele>173</ele>
        <time>2014-07-26T11:41:42Z</time>
      </trkpt>
      <trkpt lat="48.80587" lon="1.98582">
        <ele>172</ele>
        <time>2014-07-26T11:41:46Z</time>
      </trkpt>
      <trkpt lat="48.8059" lon="1.98577">
        <ele>172</ele>
        <time>2014-07-26T11:41:50Z</time>
      </trkpt>
      <trkpt lat="48.80592" lon="1.98569">
        <ele>172</ele>
        <time>2014-07-26T11:41:54Z</time>
      </trkpt>
      <trkpt lat="48.80598" lon="1.98557">
        <ele>172</ele>
        <time>2014-07-26T11:42:00Z</time>
      </trkpt>
      <trkpt lat="48.806" lon="1.98543">
        <ele>176</ele>
        <time>2014-07-26T11:42:10Z</time>
      </trkpt>
      <trkpt lat="48.80604" lon="1.98537">
        <ele>177</ele>
        <time>2014-07-26T11:42:15Z</time>
      </trkpt>
      <trkpt lat="48.80606" lon="1.9853">
        <ele>177</ele>
        <time>2014-07-26T11:42:18Z</time>
      </trkpt>
      <trkpt lat="48.80608" lon="1.98524">
        <ele>177</ele>
        <time>2014-07-26T11:42:21Z</time>
      </trkpt>
      <trkpt lat="48.80615" lon="1.98503">
        <ele>172</ele>
        <time>2014-07-26T11:42:35Z</time>
      </trkpt>
      <trkpt lat="48.80619" lon="1.98498">
        <ele>174</ele>
        <time>2014-07-26T11:42:40Z</time>
      </trkpt>
      <trkpt lat="48.80623" lon="1.98493">
        <ele>174</ele>
        <time>2014-07-26T11:42:45Z</time>
      </trkpt>
      <trkpt lat="48.80637" lon="1.98451">
        <ele>176</ele>
        <time>2014-07-26T11:43:08Z</time>
      </trkpt>
      <trkpt lat="48.80639" lon="1.98445">
        <ele>176</ele>
        <time>2014-07-26T11:43:11Z</time>
      </trkpt>
      <trkpt lat="48.80644" lon="1.98433">
        <ele>177</ele>
        <time>2014-07-26T11:43:18Z</time>
      </trkpt>
      <trkpt lat="48.80645" lon="1.98425">
        <ele>179</ele>
        <time>2014-07-26T11:43:24Z</time>
      </trkpt>
      <trkpt lat="48.80647" lon="1.98419">
        <ele>179</ele>
        <time>2014-07-26T11:43:27Z</time>
      </trkpt>
      <trkpt lat="48.80655" lon="1.98407">
        <ele>179</ele>
        <time>2014-07-26T11:43:34Z</time>
      </trkpt>
      <trkpt lat="48.80654" lon="1.984">
        <ele>180</ele>
        <time>2014-07-26T11:43:39Z</time>
      </trkpt>
      <trkpt lat="48.80657" lon="1.98396">
        <ele>181</ele>
        <time>2014-07-26T11:43:46Z</time>
      </trkpt>
      <trkpt lat="48.80658" lon="1.98387">
        <ele>182</ele>
        <time>2014-07-26T11:43:51Z</time>
      </trkpt>
      <trkpt lat="48.80662" lon="1.98382">
        <ele>182</ele>
        <time>2014-07-26T11:43:56Z</time>
      </trkpt>
      <trkpt lat="48.80662" lon="1.98375">
        <ele>183</ele>
        <time>2014-07-26T11:44:03Z</time>
      </trkpt>
      <trkpt lat="48.80662" lon="1.98367">
        <ele>184</ele>
        <time>2014-07-26T11:44:06Z</time>
      </trkpt>
      <trkpt lat="48.80667" lon="1.98364">
        <ele>183</ele>
        <time>2014-07-26T11:44:11Z</time>
      </trkpt>
      <trkpt lat="48.80671" lon="1.98356">
        <ele>183</ele>
        <time>2014-07-26T11:44:15Z</time>
      </trkpt>
      <trkpt lat="48.80674" lon="1.98349">
        <ele>182</ele>
        <time>2014-07-26T11:44:18Z</time>
      </trkpt>
      <trkpt lat="48.80677" lon="1.98342">
        <ele>182</ele>
        <time>2014-07-26T11:44:21Z</time>
      </trkpt>
      <trkpt lat="48.80679" lon="1.98336">
        <ele>182</ele>
        <time>2014-07-26T11:44:24Z</time>
      </trkpt>
      <trkpt lat="48.80682" lon="1.98328">
        <ele>181</ele>
        <time>2014-07-26T11:44:27Z</time>
      </trkpt>
      <trkpt lat="48.80688" lon="1.98308">
        <ele>177</ele>
        <time>2014-07-26T11:44:39Z</time>
      </trkpt>
      <trkpt lat="48.80691" lon="1.98301">
        <ele>177</ele>
        <time>2014-07-26T11:44:44Z</time>
      </trkpt>
      <trkpt lat="48.80693" lon="1.98293">
        <ele>178</ele>
        <time>2014-07-26T11:44:48Z</time>
      </trkpt>
      <trkpt lat="48.807" lon="1.98282">
        <ele>181</ele>
        <time>2014-07-26T11:45:19Z</time>
      </trkpt>
      <trkpt lat="48.8071" lon="1.98255">
        <ele>176</ele>
        <time>2014-07-26T11:45:38Z</time>
      </trkpt>
      <trkpt lat="48.80712" lon="1.98232">
        <ele>173</ele>
        <time>2014-07-26T11:45:54Z</time>
      </trkpt>
      <trkpt lat="48.80714" lon="1.98223">
        <ele>172</ele>
        <time>2014-07-26T11:45:58Z</time>
      </trkpt>
      <trkpt lat="48.80718" lon="1.98217">
        <ele>171</ele>
        <time>2014-07-26T11:46:02Z</time>
      </trkpt>
      <trkpt lat="48.8072" lon="1.98211">
        <ele>171</ele>
        <time>2014-07-26T11:46:07Z</time>
      </trkpt>
      <trkpt lat="48.80721" lon="1.98204">
        <ele>171</ele>
        <time>2014-07-26T11:46:12Z</time>
      </trkpt>
      <trkpt lat="48.80722" lon="1.98197">
        <ele>170</ele>
        <time>2014-07-26T11:46:16Z</time>
      </trkpt>
      <trkpt lat="48.80726" lon="1.98191">
        <ele>169</ele>
        <time>2014-07-26T11:46:19Z</time>
      </trkpt>
      <trkpt lat="48.80729" lon="1.98186">
        <ele>170</ele>
        <time>2014-07-26T11:46:23Z</time>
      </trkpt>
      <trkpt lat="48.80733" lon="1.98183">
        <ele>170</ele>
        <time>2014-07-26T11:46:27Z</time>
      </trkpt>
      <trkpt lat="48.80736" lon="1.98176">
        <ele>168</ele>
        <time>2014-07-26T11:46:32Z</time>
      </trkpt>
      <trkpt lat="48.8074" lon="1.9817">
        <ele>169</ele>
        <time>2014-07-26T11:46:36Z</time>
      </trkpt>
      <trkpt lat="48.80745" lon="1.98167">
        <ele>171</ele>
        <time>2014-07-26T11:46:40Z</time>
      </trkpt>
      <trkpt lat="48.80748" lon="1.98161">
        <ele>173</ele>
        <time>2014-07-26T11:46:44Z</time>
      </trkpt>
      <trkpt lat="48.80749" lon="1.98154">
        <ele>175</ele>
        <time>2014-07-26T11:46:47Z</time>
      </trkpt>
      <trkpt lat="48.80754" lon="1.9815">
        <ele>176</ele>
        <time>2014-07-26T11:46:52Z</time>
      </trkpt>
      <trkpt lat="48.80758" lon="1.98147">
        <ele>177</ele>
        <time>2014-07-26T11:46:55Z</time>
      </trkpt>
      <trkpt lat="48.80763" lon="1.98143">
        <ele>178</ele>
        <time>2014-07-26T11:46:58Z</time>
      </trkpt>
      <trkpt lat="48.80769" lon="1.9813">
        <ele>178</ele>
        <time>2014-07-26T11:47:03Z</time>
      </trkpt>
      <trkpt lat="48.80774" lon="1.98125">
        <ele>178</ele>
        <time>2014-07-26T11:47:06Z</time>
      </trkpt>
      <trkpt lat="48.80783" lon="1.98125">
        <ele>176</ele>
        <time>2014-07-26T11:47:15Z</time>
      </trkpt>
      <trkpt lat="48.80788" lon="1.98123">
        <ele>176</ele>
        <time>2014-07-26T11:47:20Z</time>
      </trkpt>
      <trkpt lat="48.80809" lon="1.98114">
        <ele>179</ele>
        <time>2014-07-26T11:47:37Z</time>
      </trkpt>
      <trkpt lat="48.80813" lon="1.98116">
        <ele>180</ele>
        <time>2014-07-26T11:47:45Z</time>
      </trkpt>
      <trkpt lat="48.80832" lon="1.98108">
        <ele>186</ele>
        <time>2014-07-26T11:48:03Z</time>
      </trkpt>
      <trkpt lat="48.80875" lon="1.98086">
        <ele>183</ele>
        <time>2014-07-26T11:48:34Z</time>
      </trkpt>
      <trkpt lat="48.80886" lon="1.98079">
        <ele>184</ele>
        <time>2014-07-26T11:48:40Z</time>
      </trkpt>
      <trkpt lat="48.80896" lon="1.98072">
        <ele>182</ele>
        <time>2014-07-26T11:48:47Z</time>
      </trkpt>
      <trkpt lat="48.80894" lon="1.9808">
        <ele>182</ele>
        <time>2014-07-26T11:48:53Z</time>
      </trkpt>
      <trkpt lat="48.809" lon="1.9808">
        <ele>179</ele>
        <time>2014-07-26T11:48:58Z</time>
      </trkpt>
      <trkpt lat="48.80909" lon="1.98077">
        <ele>177</ele>
        <time>2014-07-26T11:49:10Z</time>
      </trkpt>
      <trkpt lat="48.80915" lon="1.98076">
        <ele>177</ele>
        <time>2014-07-26T11:49:15Z</time>
      </trkpt>
      <trkpt lat="48.8092" lon="1.98075">
        <ele>177</ele>
        <time>2014-07-26T11:49:20Z</time>
      </trkpt>
      <trkpt lat="48.80935" lon="1.98069">
        <ele>176</ele>
        <time>2014-07-26T11:49:28Z</time>
      </trkpt>
      <trkpt lat="48.8094" lon="1.98068">
        <ele>177</ele>
        <time>2014-07-26T11:49:31Z</time>
      </trkpt>
      <trkpt lat="48.80946" lon="1.98068">
        <ele>177</ele>
        <time>2014-07-26T11:49:35Z</time>
      </trkpt>
      <trkpt lat="48.80957" lon="1.98069">
        <ele>180</ele>
        <time>2014-07-26T11:49:44Z</time>
      </trkpt>
      <trkpt lat="48.80971" lon="1.98061">
        <ele>181</ele>
        <time>2014-07-26T11:49:55Z</time>
      </trkpt>
      <trkpt lat="48.80987" lon="1.98053">
        <ele>180</ele>
        <time>2014-07-26T11:50:08Z</time>
      </trkpt>
      <trkpt lat="48.80992" lon="1.98053">
        <ele>180</ele>
        <time>2014-07-26T11:50:12Z</time>
      </trkpt>
      <trkpt lat="48.81008" lon="1.98056">
        <ele>173</ele>
        <time>2014-07-26T11:50:28Z</time>
      </trkpt>
      <trkpt lat="48.81012" lon="1.98061">
        <ele>172</ele>
        <time>2014-07-26T11:50:33Z</time>
      </trkpt>
      <trkpt lat="48.81021" lon="1.98069">
        <ele>171</ele>
        <time>2014-07-26T11:50:39Z</time>
      </trkpt>
      <trkpt lat="48.81026" lon="1.98072">
        <ele>172</ele>
        <time>2014-07-26T11:50:44Z</time>
      </trkpt>
      <trkpt lat="48.81035" lon="1.98081">
        <ele>175</ele>
        <time>2014-07-26T11:50:50Z</time>
      </trkpt>
      <trkpt lat="48.8104" lon="1.98082">
        <ele>175</ele>
        <time>2014-07-26T11:50:52Z</time>
      </trkpt>
      <trkpt lat="48.81044" lon="1.98082">
        <ele>176</ele>
        <time>2014-07-26T11:50:55Z</time>
      </trkpt>
      <trkpt lat="48.81047" lon="1.98088">
        <ele>177</ele>
        <time>2014-07-26T11:50:59Z</time>
      </trkpt>
      <trkpt lat="48.81051" lon="1.98094">
        <ele>178</ele>
        <time>2014-07-26T11:51:03Z</time>
      </trkpt>
      <trkpt lat="48.81066" lon="1.98113">
        <ele>183</ele>
        <time>2014-07-26T11:51:20Z</time>
      </trkpt>
      <trkpt lat="48.81073" lon="1.98124">
        <ele>181</ele>
        <time>2014-07-26T11:51:26Z</time>
      </trkpt>
      <trkpt lat="48.81075" lon="1.98132">
        <ele>180</ele>
        <time>2014-07-26T11:51:30Z</time>
      </trkpt>
      <trkpt lat="48.81079" lon="1.98136">
        <ele>180</ele>
        <time>2014-07-26T11:51:39Z</time>
      </trkpt>
      <trkpt lat="48.81084" lon="1.98136">
        <ele>180</ele>
        <time>2014-07-26T11:51:45Z</time>
      </trkpt>
      <trkpt lat="48.81102" lon="1.98127">
        <ele>187</ele>
        <time>2014-07-26T11:52:03Z</time>
      </trkpt>
      <trkpt lat="48.81106" lon="1.98134">
        <ele>185</ele>
        <time>2014-07-26T11:52:13Z</time>
      </trkpt>
      <trkpt lat="48.81113" lon="1.98143">
        <ele>184</ele>
        <time>2014-07-26T11:52:22Z</time>
      </trkpt>
      <trkpt lat="48.81125" lon="1.98157">
        <ele>182</ele>
        <time>2014-07-26T11:52:36Z</time>
      </trkpt>
      <trkpt lat="48.81126" lon="1.98165">
        <ele>182</ele>
        <time>2014-07-26T11:52:39Z</time>
      </trkpt>
      <trkpt lat="48.81129" lon="1.98171">
        <ele>181</ele>
        <time>2014-07-26T11:52:42Z</time>
      </trkpt>
      <trkpt lat="48.81131" lon="1.98179">
        <ele>181</ele>
        <time>2014-07-26T11:52:46Z</time>
      </trkpt>
      <trkpt lat="48.81133" lon="1.98185">
        <ele>181</ele>
        <time>2014-07-26T11:52:51Z</time>
      </trkpt>
      <trkpt lat="48.81138" lon="1.982">
        <ele>183</ele>
        <time>2014-07-26T11:53:00Z</time>
      </trkpt>
      <trkpt lat="48.81142" lon="1.98203">
        <ele>183</ele>
        <time>2014-07-26T11:53:05Z</time>
      </trkpt>
      <trkpt lat="48.81166" lon="1.9822">
        <ele>185</ele>
        <time>2014-07-26T11:53:21Z</time>
      </trkpt>
      <trkpt lat="48.81181" lon="1.98227">
        <ele>183</ele>
        <time>2014-07-26T11:53:35Z</time>
      </trkpt>
      <trkpt lat="48.81188" lon="1.98238">
        <ele>186</ele>
        <time>2014-07-26T11:53:42Z</time>
      </trkpt>
      <trkpt lat="48.81197" lon="1.98244">
        <ele>187</ele>
        <time>2014-07-26T11:53:51Z</time>
      </trkpt>
      <trkpt lat="48.81202" lon="1.98244">
        <ele>187</ele>
        <time>2014-07-26T11:53:55Z</time>
      </trkpt>
      <trkpt lat="48.81206" lon="1.9824">
        <ele>187</ele>
        <time>2014-07-26T11:54:00Z</time>
      </trkpt>
      <trkpt lat="48.81211" lon="1.98236">
        <ele>188</ele>
        <time>2014-07-26T11:54:05Z</time>
      </trkpt>
      <trkpt lat="48.8122" lon="1.98225">
        <ele>187</ele>
        <time>2014-07-26T11:54:13Z</time>
      </trkpt>
      <trkpt lat="48.81224" lon="1.98221">
        <ele>187</ele>
        <time>2014-07-26T11:54:16Z</time>
      </trkpt>
      <trkpt lat="48.81229" lon="1.98217">
        <ele>186</ele>
        <time>2014-07-26T11:54:20Z</time>
      </trkpt>
      <trkpt lat="48.81243" lon="1.98204">
        <ele>184</ele>
        <time>2014-07-26T11:54:30Z</time>
      </trkpt>
      <trkpt lat="48.81249" lon="1.98202">
        <ele>184</ele>
        <time>2014-07-26T11:54:37Z</time>
      </trkpt>
      <trkpt lat="48.81253" lon="1.98198">
        <ele>184</ele>
        <time>2014-07-26T11:54:41Z</time>
      </trkpt>
      <trkpt lat="48.81263" lon="1.98182">
        <ele>182</ele>
        <time>2014-07-26T11:54:55Z</time>
      </trkpt>
      <trkpt lat="48.81268" lon="1.98176">
        <ele>182</ele>
        <time>2014-07-26T11:54:59Z</time>
      </trkpt>
      <trkpt lat="48.81272" lon="1.98171">
        <ele>182</ele>
        <time>2014-07-26T11:55:02Z</time>
      </trkpt>
      <trkpt lat="48.8128" lon="1.98163">
        <ele>183</ele>
        <time>2014-07-26T11:55:09Z</time>
      </trkpt>
      <trkpt lat="48.81284" lon="1.98158">
        <ele>184</ele>
        <time>2014-07-26T11:55:13Z</time>
      </trkpt>
      <trkpt lat="48.81288" lon="1.98153">
        <ele>185</ele>
        <time>2014-07-26T11:55:16Z</time>
      </trkpt>
      <trkpt lat="48.81293" lon="1.98153">
        <ele>187</ele>
        <time>2014-07-26T11:55:23Z</time>
      </trkpt>
      <trkpt lat="48.81305" lon="1.98139">
        <ele>191</ele>
        <time>2014-07-26T11:55:36Z</time>
      </trkpt>
      <trkpt lat="48.8131" lon="1.98136">
        <ele>191</ele>
        <time>2014-07-26T11:55:39Z</time>
      </trkpt>
      <trkpt lat="48.81313" lon="1.98131">
        <ele>190</ele>
        <time>2014-07-26T11:55:43Z</time>
      </trkpt>
      <trkpt lat="48.81318" lon="1.98118">
        <ele>188</ele>
        <time>2014-07-26T11:55:50Z</time>
      </trkpt>
      <trkpt lat="48.8132" lon="1.98111">
        <ele>188</ele>
        <time>2014-07-26T11:55:53Z</time>
      </trkpt>
      <trkpt lat="48.8133" lon="1.98095">
        <ele>189</ele>
        <time>2014-07-26T11:56:06Z</time>
      </trkpt>
      <trkpt lat="48.8134" lon="1.98078">
        <ele>193</ele>
        <time>2014-07-26T11:56:20Z</time>
      </trkpt>
      <trkpt lat="48.81343" lon="1.98071">
        <ele>193</ele>
        <time>2014-07-26T11:56:24Z</time>
      </trkpt>
      <trkpt lat="48.81346" lon="1.98065">
        <ele>194</ele>
        <time>2014-07-26T11:56:27Z</time>
      </trkpt>
      <trkpt lat="48.8135" lon="1.98058">
        <ele>193</ele>
        <time>2014-07-26T11:56:30Z</time>
      </trkpt>
      <trkpt lat="48.81352" lon="1.98052">
        <ele>193</ele>
        <time>2014-07-26T11:56:34Z</time>
      </trkpt>
      <trkpt lat="48.81353" lon="1.98045">
        <ele>193</ele>
        <time>2014-07-26T11:56:38Z</time>
      </trkpt>
      <trkpt lat="48.81354" lon="1.97984">
        <ele>184</ele>
        <time>2014-07-26T11:57:09Z</time>
      </trkpt>
      <trkpt lat="48.81355" lon="1.97976">
        <ele>184</ele>
        <time>2014-07-26T11:57:12Z</time>
      </trkpt>
      <trkpt lat="48.81353" lon="1.97967">
        <ele>183</ele>
        <time>2014-07-26T11:57:15Z</time>
      </trkpt>
      <trkpt lat="48.81352" lon="1.9796">
        <ele>183</ele>
        <time>2014-07-26T11:57:17Z</time>
      </trkpt>
      <trkpt lat="48.81355" lon="1.9795">
        <ele>184</ele>
        <time>2014-07-26T11:57:27Z</time>
      </trkpt>
      <trkpt lat="48.8137" lon="1.97911">
        <ele>188</ele>
        <time>2014-07-26T11:57:48Z</time>
      </trkpt>
      <trkpt lat="48.81373" lon="1.97905">
        <ele>187</ele>
        <time>2014-07-26T11:57:52Z</time>
      </trkpt>
      <trkpt lat="48.81378" lon="1.97893">
        <ele>185</ele>
        <time>2014-07-26T11:57:59Z</time>
      </trkpt>
      <trkpt lat="48.81382" lon="1.97888">
        <ele>185</ele>
        <time>2014-07-26T11:58:03Z</time>
      </trkpt>
      <trkpt lat="48.81386" lon="1.97884">
        <ele>185</ele>
        <time>2014-07-26T11:58:06Z</time>
      </trkpt>
      <trkpt lat="48.81394" lon="1.97876">
        <ele>183</ele>
        <time>2014-07-26T11:58:13Z</time>
      </trkpt>
      <trkpt lat="48.81397" lon="1.9787">
        <ele>183</ele>
        <time>2014-07-26T11:58:18Z</time>
      </trkpt>
      <trkpt lat="48.81402" lon="1.97865">
        <ele>185</ele>
        <time>2014-07-26T11:58:23Z</time>
      </trkpt>
      <trkpt lat="48.81405" lon="1.97859">
        <ele>185</ele>
        <time>2014-07-26T11:58:27Z</time>
      </trkpt>
      <trkpt lat="48.81409" lon="1.97853">
        <ele>186</ele>
        <time>2014-07-26T11:58:30Z</time>
      </trkpt>
      <trkpt lat="48.81416" lon="1.97842">
        <ele>187</ele>
        <time>2014-07-26T11:58:40Z</time>
      </trkpt>
      <trkpt lat="48.81424" lon="1.97831">
        <ele>184</ele>
        <time>2014-07-26T11:58:49Z</time>
      </trkpt>
      <trkpt lat="48.81433" lon="1.97812">
        <ele>186</ele>
        <time>2014-07-26T11:59:03Z</time>
      </trkpt>
      <trkpt lat="48.81436" lon="1.97803">
        <ele>186</ele>
        <time>2014-07-26T11:59:05Z</time>
      </trkpt>
      <trkpt lat="48.81442" lon="1.97791">
        <ele>185</ele>
        <time>2014-07-26T11:59:11Z</time>
      </trkpt>
      <trkpt lat="48.81445" lon="1.97784">
        <ele>186</ele>
        <time>2014-07-26T11:59:17Z</time>
      </trkpt>
      <trkpt lat="48.81456" lon="1.97767">
        <ele>186</ele>
        <time>2014-07-26T11:59:31Z</time>
      </trkpt>
      <trkpt lat="48.8146" lon="1.97764">
        <ele>184</ele>
        <time>2014-07-26T11:59:38Z</time>
      </trkpt>
      <trkpt lat="48.81461" lon="1.97756">
        <ele>185</ele>
        <time>2014-07-26T11:59:42Z</time>
      </trkpt>
      <trkpt lat="48.81462" lon="1.97744">
        <ele>185</ele>
        <time>2014-07-26T11:59:47Z</time>
      </trkpt>
      <trkpt lat="48.8146" lon="1.97731">
        <ele>184</ele>
        <time>2014-07-26T11:59:53Z</time>
      </trkpt>
      <trkpt lat="48.81458" lon="1.97724">
        <ele>184</ele>
        <time>2014-07-26T11:59:56Z</time>
      </trkpt>
      <trkpt lat="48.81457" lon="1.97701">
        <ele>183</ele>
        <time>2014-07-26T12:00:11Z</time>
      </trkpt>
      <trkpt lat="48.81457" lon="1.97693">
        <ele>180</ele>
        <time>2014-07-26T12:00:17Z</time>
      </trkpt>
      <trkpt lat="48.81455" lon="1.97684">
        <ele>180</ele>
        <time>2014-07-26T12:00:21Z</time>
      </trkpt>
      <trkpt lat="48.81454" lon="1.97676">
        <ele>181</ele>
        <time>2014-07-26T12:00:26Z</time>
      </trkpt>
      <trkpt lat="48.81455" lon="1.97667">
        <ele>181</ele>
        <time>2014-07-26T12:00:30Z</time>
      </trkpt>
      <trkpt lat="48.81456" lon="1.97659">
        <ele>181</ele>
        <time>2014-07-26T12:00:34Z</time>
      </trkpt>
      <trkpt lat="48.81456" lon="1.97651">
        <ele>182</ele>
        <time>2014-07-26T12:00:39Z</time>
      </trkpt>
      <trkpt lat="48.81452" lon="1.97636">
        <ele>184</ele>
        <time>2014-07-26T12:00:48Z</time>
      </trkpt>
      <trkpt lat="48.81452" lon="1.97627">
        <ele>184</ele>
        <time>2014-07-26T12:00:51Z</time>
      </trkpt>
      <trkpt lat="48.81454" lon="1.97616">
        <ele>184</ele>
        <time>2014-07-26T12:00:54Z</time>
      </trkpt>
      <trkpt lat="48.81456" lon="1.97609">
        <ele>184</ele>
        <time>2014-07-26T12:00:57Z</time>
      </trkpt>
      <trkpt lat="48.81454" lon="1.97602">
        <ele>184</ele>
        <time>2014-07-26T12:01:01Z</time>
      </trkpt>
      <trkpt lat="48.81454" lon="1.97586">
        <ele>185</ele>
        <time>2014-07-26T12:01:08Z</time>
      </trkpt>
      <trkpt lat="48.81451" lon="1.9758">
        <ele>184</ele>
        <time>2014-07-26T12:01:12Z</time>
      </trkpt>
      <trkpt lat="48.81449" lon="1.97572">
        <ele>185</ele>
        <time>2014-07-26T12:01:16Z</time>
      </trkpt>
      <trkpt lat="48.81448" lon="1.97564">
        <ele>185</ele>
        <time>2014-07-26T12:01:19Z</time>
      </trkpt>
      <trkpt lat="48.81447" lon="1.97556">
        <ele>184</ele>
        <time>2014-07-26T12:01:23Z</time>
      </trkpt>
      <trkpt lat="48.81443" lon="1.97541">
        <ele>184</ele>
        <time>2014-07-26T12:01:32Z</time>
      </trkpt>
      <trkpt lat="48.81443" lon="1.97533">
        <ele>184</ele>
        <time>2014-07-26T12:01:36Z</time>
      </trkpt>
      <trkpt lat="48.81445" lon="1.97527">
        <ele>183</ele>
        <time>2014-07-26T12:01:40Z</time>
      </trkpt>
      <trkpt lat="48.81444" lon="1.97511">
        <ele>179</ele>
        <time>2014-07-26T12:01:50Z</time>
      </trkpt>
      <trkpt lat="48.81445" lon="1.97503">
        <ele>180</ele>
        <time>2014-07-26T12:01:53Z</time>
      </trkpt>
      <trkpt lat="48.81443" lon="1.97487">
        <ele>179</ele>
        <time>2014-07-26T12:02:00Z</time>
      </trkpt>
      <trkpt lat="48.81443" lon="1.9748">
        <ele>177</ele>
        <time>2014-07-26T12:02:03Z</time>
      </trkpt>
      <trkpt lat="48.81443" lon="1.97473">
        <ele>177</ele>
        <time>2014-07-26T12:02:07Z</time>
      </trkpt>
      <trkpt lat="48.81438" lon="1.97451">
        <ele>175</ele>
        <time>2014-07-26T12:02:19Z</time>
      </trkpt>
      <trkpt lat="48.81441" lon="1.97436">
        <ele>178</ele>
        <time>2014-07-26T12:02:27Z</time>
      </trkpt>
      <trkpt lat="48.81441" lon="1.97428">
        <ele>178</ele>
        <time>2014-07-26T12:02:31Z</time>
      </trkpt>
      <trkpt lat="48.8144" lon="1.97406">
        <ele>182</ele>
        <time>2014-07-26T12:02:44Z</time>
      </trkpt>
      <trkpt lat="48.81441" lon="1.97382">
        <ele>181</ele>
        <time>2014-07-26T12:02:57Z</time>
      </trkpt>
      <trkpt lat="48.8144" lon="1.97374">
        <ele>181</ele>
        <time>2014-07-26T12:03:26Z</time>
      </trkpt>
      <trkpt lat="48.81439" lon="1.97367">
        <ele>181</ele>
        <time>2014-07-26T12:03:31Z</time>
      </trkpt>
      <trkpt lat="48.81438" lon="1.97351">
        <ele>180</ele>
        <time>2014-07-26T12:03:39Z</time>
      </trkpt>
      <trkpt lat="48.81434" lon="1.97322">
        <ele>180</ele>
        <time>2014-07-26T12:03:56Z</time>
      </trkpt>
      <trkpt lat="48.81432" lon="1.97299">
        <ele>184</ele>
        <time>2014-07-26T12:04:12Z</time>
      </trkpt>
      <trkpt lat="48.8143" lon="1.97291">
        <ele>183</ele>
        <time>2014-07-26T12:04:15Z</time>
      </trkpt>
      <trkpt lat="48.81433" lon="1.97275">
        <ele>181</ele>
        <time>2014-07-26T12:04:22Z</time>
      </trkpt>
      <trkpt lat="48.81433" lon="1.9726">
        <ele>182</ele>
        <time>2014-07-26T12:04:33Z</time>
      </trkpt>
      <trkpt lat="48.81431" lon="1.97253">
        <ele>182</ele>
        <time>2014-07-26T12:04:36Z</time>
      </trkpt>
      <trkpt lat="48.81431" lon="1.97244">
        <ele>181</ele>
        <time>2014-07-26T12:04:40Z</time>
      </trkpt>
      <trkpt lat="48.81433" lon="1.97238">
        <ele>182</ele>
        <time>2014-07-26T12:04:45Z</time>
      </trkpt>
      <trkpt lat="48.81432" lon="1.97231">
        <ele>182</ele>
        <time>2014-07-26T12:04:48Z</time>
      </trkpt>
      <trkpt lat="48.81427" lon="1.97216">
        <ele>181</ele>
        <time>2014-07-26T12:04:54Z</time>
      </trkpt>
      <trkpt lat="48.81428" lon="1.97209">
        <ele>181</ele>
        <time>2014-07-26T12:04:57Z</time>
      </trkpt>
      <trkpt lat="48.8143" lon="1.97201">
        <ele>182</ele>
        <time>2014-07-26T12:05:00Z</time>
      </trkpt>
      <trkpt lat="48.81429" lon="1.97195">
        <ele>182</ele>
        <time>2014-07-26T12:05:04Z</time>
      </trkpt>
      <trkpt lat="48.81425" lon="1.9719">
        <ele>183</ele>
        <time>2014-07-26T12:05:08Z</time>
      </trkpt>
      <trkpt lat="48.81423" lon="1.97183">
        <ele>186</ele>
        <time>2014-07-26T12:05:13Z</time>
      </trkpt>
      <trkpt lat="48.81423" lon="1.97176">
        <ele>187</ele>
        <time>2014-07-26T12:05:20Z</time>
      </trkpt>
      <trkpt lat="48.81422" lon="1.97167">
        <ele>187</ele>
        <time>2014-07-26T12:05:25Z</time>
      </trkpt>
      <trkpt lat="48.81418" lon="1.97161">
        <ele>187</ele>
        <time>2014-07-26T12:05:28Z</time>
      </trkpt>
      <trkpt lat="48.81419" lon="1.9715">
        <ele>186</ele>
        <time>2014-07-26T12:05:34Z</time>
      </trkpt>
      <trkpt lat="48.81422" lon="1.97144">
        <ele>186</ele>
        <time>2014-07-26T12:05:39Z</time>
      </trkpt>
      <trkpt lat="48.81426" lon="1.9714">
        <ele>186</ele>
        <time>2014-07-26T12:05:44Z</time>
      </trkpt>
      <trkpt lat="48.81426" lon="1.97147">
        <ele>186</ele>
        <time>2014-07-26T12:06:21Z</time>
      </trkpt>
      <trkpt lat="48.81427" lon="1.97154">
        <ele>185</ele>
        <time>2014-07-26T12:06:26Z</time>
      </trkpt>
      <trkpt lat="48.81421" lon="1.97156">
        <ele>185</ele>
        <time>2014-07-26T12:06:30Z</time>
      </trkpt>
      <trkpt lat="48.81421" lon="1.97152">
        <ele>186</ele>
        <time>2014-07-26T12:06:42Z</time>
      </trkpt>
      <trkpt lat="48.81416" lon="1.97154">
        <ele>190</ele>
        <time>2014-07-26T12:07:27Z</time>
      </trkpt>
      <trkpt lat="48.81413" lon="1.97155">
        <ele>191</ele>
        <time>2014-07-26T12:07:35Z</time>
      </trkpt>
      <trkpt lat="48.81411" lon="1.97149">
        <ele>191</ele>
        <time>2014-07-26T12:07:39Z</time>
      </trkpt>
      <trkpt lat="48.81409" lon="1.97146">
        <ele>191</ele>
        <time>2014-07-26T12:08:03Z</time>
      </trkpt>
      <trkpt lat="48.81406" lon="1.9714">
        <ele>189</ele>
        <time>2014-07-26T12:08:08Z</time>
      </trkpt>
      <trkpt lat="48.81407" lon="1.97132">
        <ele>187</ele>
        <time>2014-07-26T12:08:13Z</time>
      </trkpt>
      <trkpt lat="48.81409" lon="1.97124">
        <ele>187</ele>
        <time>2014-07-26T12:08:18Z</time>
      </trkpt>
      <trkpt lat="48.81409" lon="1.97107">
        <ele>187</ele>
        <time>2014-07-26T12:08:24Z</time>
      </trkpt>
      <trkpt lat="48.8141" lon="1.97094">
        <ele>184</ele>
        <time>2014-07-26T12:08:39Z</time>
      </trkpt>
      <trkpt lat="48.81412" lon="1.97088">
        <ele>184</ele>
        <time>2014-07-26T12:08:43Z</time>
      </trkpt>
      <trkpt lat="48.8141" lon="1.97079">
        <ele>183</ele>
        <time>2014-07-26T12:08:47Z</time>
      </trkpt>
      <trkpt lat="48.81406" lon="1.97075">
        <ele>183</ele>
        <time>2014-07-26T12:08:51Z</time>
      </trkpt>
      <trkpt lat="48.81404" lon="1.97068">
        <ele>184</ele>
        <time>2014-07-26T12:08:55Z</time>
      </trkpt>
      <trkpt lat="48.81401" lon="1.97062">
        <ele>185</ele>
        <time>2014-07-26T12:09:00Z</time>
      </trkpt>
      <trkpt lat="48.81399" lon="1.97047">
        <ele>186</ele>
        <time>2014-07-26T12:09:09Z</time>
      </trkpt>
      <trkpt lat="48.81401" lon="1.97041">
        <ele>186</ele>
        <time>2014-07-26T12:09:13Z</time>
      </trkpt>
      <trkpt lat="48.81402" lon="1.97027">
        <ele>185</ele>
        <time>2014-07-26T12:09:23Z</time>
      </trkpt>
      <trkpt lat="48.81399" lon="1.9702">
        <ele>186</ele>
        <time>2014-07-26T12:09:29Z</time>
      </trkpt>
      <trkpt lat="48.814" lon="1.97013">
        <ele>187</ele>
        <time>2014-07-26T12:09:32Z</time>
      </trkpt>
      <trkpt lat="48.814" lon="1.97006">
        <ele>187</ele>
        <time>2014-07-26T12:09:35Z</time>
      </trkpt>
      <trkpt lat="48.814" lon="1.96998">
        <ele>186</ele>
        <time>2014-07-26T12:09:38Z</time>
      </trkpt>
      <trkpt lat="48.814" lon="1.9699">
        <ele>187</ele>
        <time>2014-07-26T12:09:41Z</time>
      </trkpt>
      <trkpt lat="48.81401" lon="1.96982">
        <ele>186</ele>
        <time>2014-07-26T12:09:45Z</time>
      </trkpt>
      <trkpt lat="48.81396" lon="1.96962">
        <ele>183</ele>
        <time>2014-07-26T12:09:56Z</time>
      </trkpt>
      <trkpt lat="48.81394" lon="1.96953">
        <ele>183</ele>
        <time>2014-07-26T12:09:59Z</time>
      </trkpt>
      <trkpt lat="48.81392" lon="1.96923">
        <ele>187</ele>
        <time>2014-07-26T12:10:18Z</time>
      </trkpt>
      <trkpt lat="48.81393" lon="1.96914">
        <ele>187</ele>
        <time>2014-07-26T12:10:22Z</time>
      </trkpt>
      <trkpt lat="48.81396" lon="1.96908">
        <ele>188</ele>
        <time>2014-07-26T12:10:26Z</time>
      </trkpt>
      <trkpt lat="48.81396" lon="1.96893">
        <ele>189</ele>
        <time>2014-07-26T12:10:32Z</time>
      </trkpt>
      <trkpt lat="48.81394" lon="1.9687">
        <ele>189</ele>
        <time>2014-07-26T12:10:44Z</time>
      </trkpt>
      <trkpt lat="48.81394" lon="1.96863">
        <ele>189</ele>
        <time>2014-07-26T12:10:48Z</time>
      </trkpt>
      <trkpt lat="48.81394" lon="1.96855">
        <ele>189</ele>
        <time>2014-07-26T12:10:51Z</time>
      </trkpt>
      <trkpt lat="48.81394" lon="1.96832">
        <ele>186</ele>
        <time>2014-07-26T12:11:01Z</time>
      </trkpt>
      <trkpt lat="48.81395" lon="1.96824">
        <ele>186</ele>
        <time>2014-07-26T12:11:07Z</time>
      </trkpt>
      <trkpt lat="48.81394" lon="1.96801">
        <ele>185</ele>
        <time>2014-07-26T12:11:19Z</time>
      </trkpt>
      <trkpt lat="48.81393" lon="1.96793">
        <ele>184</ele>
        <time>2014-07-26T12:11:24Z</time>
      </trkpt>
      <trkpt lat="48.81393" lon="1.96778">
        <ele>185</ele>
        <time>2014-07-26T12:11:33Z</time>
      </trkpt>
      <trkpt lat="48.81393" lon="1.96771">
        <ele>185</ele>
        <time>2014-07-26T12:11:37Z</time>
      </trkpt>
      <trkpt lat="48.81391" lon="1.96756">
        <ele>181</ele>
        <time>2014-07-26T12:11:45Z</time>
      </trkpt>
      <trkpt lat="48.81391" lon="1.96748">
        <ele>180</ele>
        <time>2014-07-26T12:11:50Z</time>
      </trkpt>
      <trkpt lat="48.81396" lon="1.96733">
        <ele>180</ele>
        <time>2014-07-26T12:11:57Z</time>
      </trkpt>
      <trkpt lat="48.81395" lon="1.96724">
        <ele>179</ele>
        <time>2014-07-26T12:12:02Z</time>
      </trkpt>
      <trkpt lat="48.81391" lon="1.96676">
        <ele>182</ele>
        <time>2014-07-26T12:12:24Z</time>
      </trkpt>
      <trkpt lat="48.8139" lon="1.96669">
        <ele>182</ele>
        <time>2014-07-26T12:12:28Z</time>
      </trkpt>
      <trkpt lat="48.81392" lon="1.96655">
        <ele>183</ele>
        <time>2014-07-26T12:12:35Z</time>
      </trkpt>
      <trkpt lat="48.81391" lon="1.96646">
        <ele>183</ele>
        <time>2014-07-26T12:12:39Z</time>
      </trkpt>
      <trkpt lat="48.81387" lon="1.96642">
        <ele>183</ele>
        <time>2014-07-26T12:12:41Z</time>
      </trkpt>
      <trkpt lat="48.81378" lon="1.96632">
        <ele>181</ele>
        <time>2014-07-26T12:12:45Z</time>
      </trkpt>
      <trkpt lat="48.81374" lon="1.96608">
        <ele>174</ele>
        <time>2014-07-26T12:12:53Z</time>
      </trkpt>
      <trkpt lat="48.8137" lon="1.96602">
        <ele>173</ele>
        <time>2014-07-26T12:12:57Z</time>
      </trkpt>
      <trkpt lat="48.81364" lon="1.9658">
        <ele>170</ele>
        <time>2014-07-26T12:13:14Z</time>
      </trkpt>
      <trkpt lat="48.81355" lon="1.9657">
        <ele>170</ele>
        <time>2014-07-26T12:13:22Z</time>
      </trkpt>
      <trkpt lat="48.81339" lon="1.96572">
        <ele>171</ele>
        <time>2014-07-26T12:13:32Z</time>
      </trkpt>
      <trkpt lat="48.81333" lon="1.96572">
        <ele>171</ele>
        <time>2014-07-26T12:13:35Z</time>
      </trkpt>
      <trkpt lat="48.81329" lon="1.96568">
        <ele>170</ele>
        <time>2014-07-26T12:13:40Z</time>
      </trkpt>
      <trkpt lat="48.81325" lon="1.96563">
        <ele>170</ele>
        <time>2014-07-26T12:13:49Z</time>
      </trkpt>
      <trkpt lat="48.81324" lon="1.96556">
        <ele>171</ele>
        <time>2014-07-26T12:13:55Z</time>
      </trkpt>
      <trkpt lat="48.81325" lon="1.96548">
        <ele>172</ele>
        <time>2014-07-26T12:14:01Z</time>
      </trkpt>
      <trkpt lat="48.81324" lon="1.9654">
        <ele>172</ele>
        <time>2014-07-26T12:14:06Z</time>
      </trkpt>
      <trkpt lat="48.81322" lon="1.96533">
        <ele>172</ele>
        <time>2014-07-26T12:14:10Z</time>
      </trkpt>
      <trkpt lat="48.8132" lon="1.96519">
        <ele>174</ele>
        <time>2014-07-26T12:14:19Z</time>
      </trkpt>
      <trkpt lat="48.81316" lon="1.96513">
        <ele>175</ele>
        <time>2014-07-26T12:14:22Z</time>
      </trkpt>
      <trkpt lat="48.81314" lon="1.96506">
        <ele>175</ele>
        <time>2014-07-26T12:14:25Z</time>
      </trkpt>
      <trkpt lat="48.81312" lon="1.96499">
        <ele>175</ele>
        <time>2014-07-26T12:14:30Z</time>
      </trkpt>
      <trkpt lat="48.81309" lon="1.96493">
        <ele>174</ele>
        <time>2014-07-26T12:14:34Z</time>
      </trkpt>
      <trkpt lat="48.81305" lon="1.96488">
        <ele>175</ele>
        <time>2014-07-26T12:14:38Z</time>
      </trkpt>
      <trkpt lat="48.81298" lon="1.96475">
        <ele>177</ele>
        <time>2014-07-26T12:14:47Z</time>
      </trkpt>
      <trkpt lat="48.81298" lon="1.96459">
        <ele>179</ele>
        <time>2014-07-26T12:14:56Z</time>
      </trkpt>
      <trkpt lat="48.81299" lon="1.96452">
        <ele>180</ele>
        <time>2014-07-26T12:15:00Z</time>
      </trkpt>
      <trkpt lat="48.813" lon="1.96445">
        <ele>180</ele>
        <time>2014-07-26T12:15:04Z</time>
      </trkpt>
      <trkpt lat="48.81298" lon="1.96438">
        <ele>180</ele>
        <time>2014-07-26T12:15:08Z</time>
      </trkpt>
      <trkpt lat="48.81295" lon="1.96432">
        <ele>181</ele>
        <time>2014-07-26T12:15:12Z</time>
      </trkpt>
      <trkpt lat="48.81293" lon="1.96425">
        <ele>182</ele>
        <time>2014-07-26T12:15:15Z</time>
      </trkpt>
      <trkpt lat="48.81291" lon="1.96419">
        <ele>181</ele>
        <time>2014-07-26T12:15:19Z</time>
      </trkpt>
      <trkpt lat="48.8129" lon="1.9641">
        <ele>178</ele>
        <time>2014-07-26T12:15:23Z</time>
      </trkpt>
      <trkpt lat="48.81285" lon="1.96387">
        <ele>180</ele>
        <time>2014-07-26T12:15:37Z</time>
      </trkpt>
      <trkpt lat="48.81271" lon="1.96346">
        <ele>173</ele>
        <time>2014-07-26T12:15:59Z</time>
      </trkpt>
      <trkpt lat="48.81268" lon="1.9634">
        <ele>173</ele>
        <time>2014-07-26T12:16:03Z</time>
      </trkpt>
      <trkpt lat="48.81259" lon="1.96313">
        <ele>175</ele>
        <time>2014-07-26T12:16:20Z</time>
      </trkpt>
      <trkpt lat="48.81263" lon="1.96291">
        <ele>173</ele>
        <time>2014-07-26T12:16:30Z</time>
      </trkpt>
      <trkpt lat="48.81259" lon="1.96285">
        <ele>172</ele>
        <time>2014-07-26T12:16:33Z</time>
      </trkpt>
      <trkpt lat="48.81259" lon="1.96278">
        <ele>170</ele>
        <time>2014-07-26T12:16:38Z</time>
      </trkpt>
      <trkpt lat="48.81259" lon="1.96271">
        <ele>170</ele>
        <time>2014-07-26T12:16:42Z</time>
      </trkpt>
      <trkpt lat="48.8126" lon="1.96262">
        <ele>170</ele>
        <time>2014-07-26T12:16:48Z</time>
      </trkpt>
      <trkpt lat="48.81261" lon="1.96253">
        <ele>169</ele>
        <time>2014-07-26T12:16:52Z</time>
      </trkpt>
      <trkpt lat="48.81261" lon="1.96245">
        <ele>169</ele>
        <time>2014-07-26T12:16:56Z</time>
      </trkpt>
      <trkpt lat="48.81265" lon="1.96231">
        <ele>172</ele>
        <time>2014-07-26T12:17:07Z</time>
      </trkpt>
      <trkpt lat="48.81268" lon="1.96224">
        <ele>172</ele>
        <time>2014-07-26T12:17:10Z</time>
      </trkpt>
      <trkpt lat="48.81271" lon="1.96218">
        <ele>172</ele>
        <time>2014-07-26T12:17:13Z</time>
      </trkpt>
      <trkpt lat="48.81282" lon="1.96203">
        <ele>171</ele>
        <time>2014-07-26T12:17:26Z</time>
      </trkpt>
      <trkpt lat="48.81301" lon="1.96192">
        <ele>167</ele>
        <time>2014-07-26T12:17:43Z</time>
      </trkpt>
      <trkpt lat="48.81306" lon="1.96191">
        <ele>167</ele>
        <time>2014-07-26T12:17:46Z</time>
      </trkpt>
      <trkpt lat="48.81311" lon="1.96189">
        <ele>168</ele>
        <time>2014-07-26T12:17:50Z</time>
      </trkpt>
      <trkpt lat="48.81315" lon="1.96188">
        <ele>167</ele>
        <time>2014-07-26T12:17:56Z</time>
      </trkpt>
      <trkpt lat="48.8133" lon="1.96184">
        <ele>166</ele>
        <time>2014-07-26T12:18:08Z</time>
      </trkpt>
      <trkpt lat="48.81341" lon="1.96182">
        <ele>167</ele>
        <time>2014-07-26T12:18:21Z</time>
      </trkpt>
      <trkpt lat="48.81345" lon="1.96185">
        <ele>166</ele>
        <time>2014-07-26T12:18:26Z</time>
      </trkpt>
      <trkpt lat="48.8135" lon="1.96185">
        <ele>166</ele>
        <time>2014-07-26T12:18:30Z</time>
      </trkpt>
      <trkpt lat="48.81355" lon="1.96183">
        <ele>166</ele>
        <time>2014-07-26T12:18:34Z</time>
      </trkpt>
      <trkpt lat="48.81359" lon="1.9618">
        <ele>168</ele>
        <time>2014-07-26T12:18:40Z</time>
      </trkpt>
      <trkpt lat="48.81364" lon="1.96176">
        <ele>168</ele>
        <time>2014-07-26T12:18:44Z</time>
      </trkpt>
      <trkpt lat="48.81374" lon="1.96172">
        <ele>162</ele>
        <time>2014-07-26T12:18:51Z</time>
      </trkpt>
      <trkpt lat="48.81372" lon="1.96179">
        <ele>161</ele>
        <time>2014-07-26T12:18:58Z</time>
      </trkpt>
      <trkpt lat="48.81368" lon="1.96185">
        <ele>161</ele>
        <time>2014-07-26T12:19:07Z</time>
      </trkpt>
      <trkpt lat="48.81363" lon="1.96187">
        <ele>160</ele>
        <time>2014-07-26T12:19:12Z</time>
      </trkpt>
      <trkpt lat="48.8136" lon="1.96183">
        <ele>160</ele>
        <time>2014-07-26T12:19:19Z</time>
      </trkpt>
      <trkpt lat="48.81355" lon="1.96179">
        <ele>159</ele>
        <time>2014-07-26T12:19:25Z</time>
      </trkpt>
      <trkpt lat="48.81351" lon="1.96174">
        <ele>159</ele>
        <time>2014-07-26T12:19:31Z</time>
      </trkpt>
      <trkpt lat="48.81346" lon="1.96172">
        <ele>159</ele>
        <time>2014-07-26T12:19:37Z</time>
      </trkpt>
      <trkpt lat="48.81347" lon="1.96164">
        <ele>160</ele>
        <time>2014-07-26T12:19:49Z</time>
      </trkpt>
      <trkpt lat="48.8135" lon="1.96147">
        <ele>157</ele>
        <time>2014-07-26T12:19:56Z</time>
      </trkpt>
      <trkpt lat="48.81353" lon="1.96151">
        <ele>158</ele>
        <time>2014-07-26T12:20:16Z</time>
      </trkpt>
      <trkpt lat="48.81358" lon="1.96146">
        <ele>158</ele>
        <time>2014-07-26T12:20:21Z</time>
      </trkpt>
      <trkpt lat="48.8136" lon="1.96139">
        <ele>157</ele>
        <time>2014-07-26T12:20:25Z</time>
      </trkpt>
      <trkpt lat="48.81359" lon="1.96129">
        <ele>155</ele>
        <time>2014-07-26T12:20:40Z</time>
      </trkpt>
      <trkpt lat="48.81356" lon="1.96123">
        <ele>154</ele>
        <time>2014-07-26T12:20:45Z</time>
      </trkpt>
      <trkpt lat="48.81358" lon="1.96121">
        <ele>152</ele>
        <time>2014-07-26T12:20:52Z</time>
      </trkpt>
      <trkpt lat="48.8136" lon="1.96127">
        <ele>152</ele>
        <time>2014-07-26T12:20:57Z</time>
      </trkpt>
      <trkpt lat="48.81364" lon="1.96131">
        <ele>153</ele>
        <time>2014-07-26T12:21:07Z</time>
      </trkpt>
      <trkpt lat="48.81365" lon="1.96134">
        <ele>154</ele>
        <time>2014-07-26T12:21:13Z</time>
      </trkpt>
      <trkpt lat="48.81362" lon="1.96144">
        <ele>156</ele>
        <time>2014-07-26T12:21:24Z</time>
      </trkpt>
      <trkpt lat="48.81353" lon="1.96152">
        <ele>156</ele>
        <time>2014-07-26T12:21:39Z</time>
      </trkpt>
      <trkpt lat="48.81349" lon="1.96149">
        <ele>157</ele>
        <time>2014-07-26T12:21:45Z</time>
      </trkpt>
      <trkpt lat="48.81345" lon="1.9615">
        <ele>158</ele>
        <time>2014-07-26T12:21:56Z</time>
      </trkpt>
      <trkpt lat="48.81341" lon="1.9615">
        <ele>158</ele>
        <time>2014-07-26T12:22:00Z</time>
      </trkpt>
      <trkpt lat="48.81336" lon="1.96152">
        <ele>158</ele>
        <time>2014-07-26T12:22:05Z</time>
      </trkpt>
      <trkpt lat="48.81335" lon="1.96154">
        <ele>161</ele>
        <time>2014-07-26T12:22:35Z</time>
      </trkpt>
      <trkpt lat="48.81332" lon="1.96168">
        <ele>165</ele>
        <time>2014-07-26T12:22:55Z</time>
      </trkpt>
      <trkpt lat="48.81328" lon="1.96174">
        <ele>168</ele>
        <time>2014-07-26T12:22:58Z</time>
      </trkpt>
      <trkpt lat="48.81329" lon="1.96172">
        <ele>171</ele>
        <time>2014-07-26T12:23:12Z</time>
      </trkpt>
      <trkpt lat="48.81333" lon="1.96176">
        <ele>171</ele>
        <time>2014-07-26T12:23:18Z</time>
      </trkpt>
      <trkpt lat="48.81336" lon="1.96182">
        <ele>171</ele>
        <time>2014-07-26T12:23:22Z</time>
      </trkpt>
      <trkpt lat="48.8134" lon="1.96187">
        <ele>170</ele>
        <time>2014-07-26T12:23:30Z</time>
      </trkpt>
      <trkpt lat="48.81344" lon="1.96183">
        <ele>169</ele>
        <time>2014-07-26T12:23:34Z</time>
      </trkpt>
      <trkpt lat="48.81367" lon="1.96166">
        <ele>159</ele>
        <time>2014-07-26T12:23:51Z</time>
      </trkpt>
      <trkpt lat="48.81371" lon="1.96163">
        <ele>158</ele>
        <time>2014-07-26T12:23:56Z</time>
      </trkpt>
      <trkpt lat="48.81376" lon="1.96164">
        <ele>160</ele>
        <time>2014-07-26T12:24:02Z</time>
      </trkpt>
      <trkpt lat="48.81381" lon="1.96163">
        <ele>160</ele>
        <time>2014-07-26T12:24:08Z</time>
      </trkpt>
      <trkpt lat="48.81384" lon="1.96155">
        <ele>159</ele>
        <time>2014-07-26T12:24:13Z</time>
      </trkpt>
      <trkpt lat="48.81386" lon="1.9615">
        <ele>158</ele>
        <time>2014-07-26T12:24:16Z</time>
      </trkpt>
      <trkpt lat="48.81404" lon="1.96135">
        <ele>155</ele>
        <time>2014-07-26T12:24:32Z</time>
      </trkpt>
      <trkpt lat="48.81419" lon="1.96134">
        <ele>153</ele>
        <time>2014-07-26T12:24:44Z</time>
      </trkpt>
      <trkpt lat="48.81423" lon="1.96129">
        <ele>153</ele>
        <time>2014-07-26T12:24:49Z</time>
      </trkpt>
      <trkpt lat="48.81426" lon="1.96119">
        <ele>153</ele>
        <time>2014-07-26T12:24:59Z</time>
      </trkpt>
      <trkpt lat="48.8144" lon="1.96084">
        <ele>149</ele>
        <time>2014-07-26T12:25:29Z</time>
      </trkpt>
      <trkpt lat="48.81443" lon="1.96069">
        <ele>145</ele>
        <time>2014-07-26T12:25:40Z</time>
      </trkpt>
      <trkpt lat="48.8144" lon="1.96062">
        <ele>144</ele>
        <time>2014-07-26T12:25:44Z</time>
      </trkpt>
      <trkpt lat="48.81435" lon="1.96059">
        <ele>142</ele>
        <time>2014-07-26T12:25:49Z</time>
      </trkpt>
      <trkpt lat="48.81434" lon="1.96052">
        <ele>139</ele>
        <time>2014-07-26T12:25:52Z</time>
      </trkpt>
      <trkpt lat="48.81434" lon="1.96048">
        <ele>139</ele>
        <time>2014-07-26T12:26:40Z</time>
      </trkpt>
      <trkpt lat="48.81435" lon="1.96033">
        <ele>138</ele>
        <time>2014-07-26T12:26:52Z</time>
      </trkpt>
      <trkpt lat="48.81435" lon="1.96026">
        <ele>137</ele>
        <time>2014-07-26T12:26:56Z</time>
      </trkpt>
      <trkpt lat="48.81434" lon="1.96018">
        <ele>136</ele>
        <time>2014-07-26T12:27:01Z</time>
      </trkpt>
      <trkpt lat="48.81434" lon="1.96011">
        <ele>136</ele>
        <time>2014-07-26T12:27:08Z</time>
      </trkpt>
      <trkpt lat="48.81437" lon="1.96006">
        <ele>136</ele>
        <time>2014-07-26T12:27:13Z</time>
      </trkpt>
      <trkpt lat="48.81438" lon="1.96002">
        <ele>136</ele>
        <time>2014-07-26T12:27:20Z</time>
      </trkpt>
      <trkpt lat="48.81435" lon="1.95996">
        <ele>136</ele>
        <time>2014-07-26T12:27:26Z</time>
      </trkpt>
      <trkpt lat="48.81432" lon="1.9599">
        <ele>135</ele>
        <time>2014-07-26T12:27:32Z</time>
      </trkpt>
      <trkpt lat="48.81428" lon="1.95989">
        <ele>133</ele>
        <time>2014-07-26T12:27:38Z</time>
      </trkpt>
      <trkpt lat="48.81418" lon="1.95988">
        <ele>129</ele>
        <time>2014-07-26T12:27:49Z</time>
      </trkpt>
      <trkpt lat="48.81408" lon="1.95992">
        <ele>129</ele>
        <time>2014-07-26T12:28:02Z</time>
      </trkpt>
      <trkpt lat="48.81403" lon="1.9599">
        <ele>127</ele>
        <time>2014-07-26T12:28:09Z</time>
      </trkpt>
      <trkpt lat="48.81399" lon="1.95984">
        <ele>125</ele>
        <time>2014-07-26T12:28:15Z</time>
      </trkpt>
      <trkpt lat="48.81393" lon="1.95982">
        <ele>117</ele>
        <time>2014-07-26T12:28:28Z</time>
      </trkpt>
      <trkpt lat="48.81391" lon="1.95988">
        <ele>117</ele>
        <time>2014-07-26T12:28:43Z</time>
      </trkpt>
    </trkseg>
  </trk>
</gpx>